Darstellungsparameter: Aktuell verwendete Einstellungen:
Skalierung der Graphiken ... ?
xyx+y,   Skalierungsfaktor:      Skalierung: Modus: x, Faktor: 1
Darstellungszeitraum ... ?
Vom - - bis: - -   Zeitraum: 20.07.2019 - 19.10.2019
Min/Max/Avg-Anzeige ... ?
Zeige MMA aktuell
Zeige MMA Monat
Zeige MMA alles
Zeige --A aktuell
Zeige --A Monat
Zeige --A alles
Keine MMA-Anzeige
MMA:
Average (ber die Originaldaten)
MMA-Basis: 20.07.2019 - 19.10.2019
Quicknavigation für Darstellung... ?
Tage:      1T, 2T, 3T, 5T -1T -2T -3T -5T +1T +2T +3T +5T
Wochen: 1W, 2W, 3W -1W -2W -3W +1W +2W +3W
Monate: 1M, 3M, 6M -1M -3M -6M +1M +3M +6M
Jahre:    1J, 3J, 5J, 10J -1J -3J -5J -10J +1J +3J +5J +10J
Nutze für die Darstellung ... ?
Originaldaten oder Mittelwerte auf ...
Stundenbasis Tagesbasis Wochenbasis
Monatsbasis Jahresbasis      Datenbasis: Original-Daten
Darstellen als:
Statistik (Auto) Statistik J:M      Darstellung:
Zur Graphik,    zurück zur Übersicht aller Sensoren.
 
Tabellarische Datenbersicht: ?
 
Sensor: Nr:Datum:Temp:Abs-Feuchte:Windchill:Wind:
Aussen-T/F 1 20-07-2019 00:00:00 17.9 C 12.98 g/m*3 17.9 C 0 km/h
2 20-07-2019 00:05:00 17.8 C 13.05 g/m*3 17.8 C 0 km/h
3 20-07-2019 00:10:00 17.7 C 12.82 g/m*3 17.7 C 0 km/h
4 20-07-2019 00:15:00 17.6 C 12.75 g/m*3 17.6 C 0 km/h
5 20-07-2019 00:20:00 17.5 C 12.82 g/m*3 17.5 C 0 km/h
6 20-07-2019 00:25:00 17.4 C 12.75 g/m*3 17.4 C 0 km/h
7 20-07-2019 00:30:00 17.3 C 12.67 g/m*3 17.3 C 0 km/h
8 20-07-2019 00:35:00 17.2 C 12.74 g/m*3 17.2 C 0 km/h
9 20-07-2019 00:40:00 17.2 C 12.74 g/m*3 17.2 C 0 km/h
10 20-07-2019 00:45:00 17.1 C 12.66 g/m*3 17.1 C 0 km/h
11 20-07-2019 00:50:00 17.1 C 12.66 g/m*3 17.1 C 0 km/h
12 20-07-2019 00:55:00 16.9 C 12.51 g/m*3 16.9 C 0 km/h
13 20-07-2019 01:00:00 17 C 12.59 g/m*3 17 C 0 km/h
14 20-07-2019 01:05:00 16.9 C 12.51 g/m*3 16.9 C 0 km/h
15 20-07-2019 01:10:00 16.9 C 12.51 g/m*3 16.9 C 0 km/h
16 20-07-2019 01:15:00 16.8 C 12.58 g/m*3 16.8 C 0 km/h
17 20-07-2019 01:20:00 16.7 C 12.51 g/m*3 16.7 C 0 km/h
18 20-07-2019 01:25:00 16.6 C 12.43 g/m*3 16.6 C 0 km/h
19 20-07-2019 01:30:00 16.5 C 12.5 g/m*3 16.5 C 0 km/h
20 20-07-2019 01:35:00 16.4 C 12.42 g/m*3 16.4 C 0 km/h
21 20-07-2019 01:40:00 16.4 C 12.42 g/m*3 16.4 C 0 km/h
22 20-07-2019 01:45:00 16.4 C 12.42 g/m*3 16.4 C 0 km/h
23 20-07-2019 01:50:00 16.3 C 12.35 g/m*3 16.3 C 0 km/h
24 20-07-2019 01:55:00 16.3 C 12.35 g/m*3 16.3 C 0 km/h
25 20-07-2019 02:00:00 16.2 C 12.41 g/m*3 16.2 C 0 km/h
Sensor: Nr:Datum:Temp:Abs-Feuchte:Windchill:Wind:
Aussen-T/F 26 20-07-2019 02:05:00 16.2 C 12.41 g/m*3 16.2 C 0 km/h
27 20-07-2019 02:10:00 16.1 C 12.34 g/m*3 16.1 C 0 km/h
28 20-07-2019 02:15:00 15.9 C 12.19 g/m*3 15.9 C 0 km/h
29 20-07-2019 02:20:00 15.9 C 12.19 g/m*3 15.9 C 0 km/h
30 20-07-2019 02:25:00 15.8 C 12.11 g/m*3 15.8 C 0 km/h
31 20-07-2019 02:30:00 15.7 C 12.04 g/m*3 15.7 C 0 km/h
32 20-07-2019 02:35:00 15.6 C 12.1 g/m*3 15.6 C 0 km/h
33 20-07-2019 02:40:00 15.5 C 12.03 g/m*3 15.5 C 0 km/h
34 20-07-2019 02:45:00 15.4 C 11.96 g/m*3 15.4 C 0 km/h
35 20-07-2019 02:50:00 15.3 C 11.88 g/m*3 15.3 C 0 km/h
36 20-07-2019 02:55:00 15.3 C 12.01 g/m*3 15.3 C 0 km/h
37 20-07-2019 03:00:00 15.3 C 12.01 g/m*3 15.3 C 0 km/h
38 20-07-2019 03:05:00 15.2 C 11.94 g/m*3 15.2 C 0 km/h
39 20-07-2019 03:10:00 15.2 C 11.94 g/m*3 15.2 C 0 km/h
40 20-07-2019 03:15:00 15.2 C 11.94 g/m*3 15.2 C 0 km/h
41 20-07-2019 03:20:00 15.1 C 11.87 g/m*3 15.1 C 0 km/h
42 20-07-2019 03:25:00 15.1 C 11.87 g/m*3 15.1 C 0 km/h
43 20-07-2019 03:30:00 15 C 11.93 g/m*3 15 C 0 km/h
44 20-07-2019 03:35:00 14.9 C 11.73 g/m*3 14.9 C 0 km/h
45 20-07-2019 03:40:00 14.9 C 11.85 g/m*3 14.9 C 0 km/h
46 20-07-2019 03:45:00 14.8 C 11.78 g/m*3 14.8 C 0 km/h
47 20-07-2019 03:50:00 14.8 C 11.78 g/m*3 14.8 C 0 km/h
48 20-07-2019 03:55:00 14.8 C 11.78 g/m*3 14.8 C 0 km/h
49 20-07-2019 04:00:00 14.8 C 11.78 g/m*3 14.8 C 0 km/h
50 20-07-2019 04:05:00 14.7 C 11.71 g/m*3 14.7 C 0 km/h
Sensor: Nr:Datum:Temp:Abs-Feuchte:Windchill:Wind:
Aussen-T/F 51 20-07-2019 04:10:00 14.7 C 11.71 g/m*3 14.7 C 0 km/h
52 20-07-2019 04:15:00 14.7 C 11.71 g/m*3 14.7 C 0 km/h
53 20-07-2019 04:20:00 14.6 C 11.64 g/m*3 14.6 C 0 km/h
54 20-07-2019 04:25:00 14.6 C 11.64 g/m*3 14.6 C 0 km/h
55 20-07-2019 04:30:00 14.6 C 11.64 g/m*3 14.6 C 0 km/h
56 20-07-2019 04:35:00 14.5 C 11.69 g/m*3 14.5 C 0 km/h
57 20-07-2019 04:40:00 14.4 C 11.62 g/m*3 14.4 C 0 km/h
58 20-07-2019 04:45:00 14.4 C 11.62 g/m*3 14.4 C 0 km/h
59 20-07-2019 04:50:00 14.4 C 11.62 g/m*3 14.4 C 0 km/h
60 20-07-2019 04:55:00 14.3 C 11.55 g/m*3 14.3 C 0 km/h
61 20-07-2019 05:00:00 14.3 C 11.55 g/m*3 14.3 C 0 km/h
62 20-07-2019 05:05:00 14.3 C 11.55 g/m*3 14.3 C 0 km/h
63 20-07-2019 05:10:00 14.3 C 11.55 g/m*3 14.3 C 0 km/h
64 20-07-2019 05:15:00 14.2 C 11.48 g/m*3 14.2 C 0 km/h
65 20-07-2019 05:20:00 14.2 C 11.48 g/m*3 14.2 C 0 km/h
66 20-07-2019 05:25:00 14.2 C 11.6 g/m*3 14.2 C 0 km/h
67 20-07-2019 05:30:00 14.2 C 11.48 g/m*3 14.2 C 0 km/h
68 20-07-2019 05:35:00 14.2 C 11.48 g/m*3 14.2 C 0 km/h
69 20-07-2019 05:40:00 14.1 C 11.41 g/m*3 14.1 C 0 km/h
70 20-07-2019 05:45:00 14.1 C 11.41 g/m*3 14.1 C 0 km/h
71 20-07-2019 05:50:00 14.1 C 11.41 g/m*3 14.1 C 0 km/h
72 20-07-2019 05:55:00 14 C 11.34 g/m*3 14 C 0 km/h
73 20-07-2019 06:00:00 14 C 11.34 g/m*3 14 C 0 km/h
74 20-07-2019 06:05:00 13.9 C 11.39 g/m*3 13.9 C 0 km/h
75 20-07-2019 06:10:00 13.9 C 11.39 g/m*3 13.9 C 0 km/h
Sensor: Nr:Datum:Temp:Abs-Feuchte:Windchill:Wind:
Aussen-T/F 76 20-07-2019 06:15:00 13.9 C 11.39 g/m*3 13.9 C 0 km/h
77 20-07-2019 06:20:00 13.9 C 11.39 g/m*3 13.9 C 0 km/h
78 20-07-2019 06:25:00 13.9 C 11.39 g/m*3 13.9 C 0 km/h
79 20-07-2019 06:30:00 13.9 C 11.39 g/m*3 13.9 C 0 km/h
80 20-07-2019 06:35:00 13.9 C 11.39 g/m*3 13.9 C 0 km/h
81 20-07-2019 06:40:00 13.9 C 11.39 g/m*3 13.9 C 0 km/h
82 20-07-2019 06:45:00 14.1 C 11.53 g/m*3 14.1 C 0 km/h
83 20-07-2019 06:50:00 14.1 C 11.53 g/m*3 14.1 C 0 km/h
84 20-07-2019 06:55:00 14.2 C 11.6 g/m*3 14.2 C 0 km/h
85 20-07-2019 07:00:00 14.2 C 11.6 g/m*3 14.2 C 0 km/h
86 20-07-2019 07:05:00 14.2 C 11.6 g/m*3 14.2 C 0 km/h
87 20-07-2019 07:10:00 14.3 C 11.67 g/m*3 14.3 C 0 km/h
88 20-07-2019 07:15:00 14.4 C 11.87 g/m*3 14.4 C 0 km/h
89 20-07-2019 07:20:00 14.4 C 11.87 g/m*3 14.4 C 0 km/h
90 20-07-2019 07:25:00 14.5 C 11.94 g/m*3 14.5 C 0 km/h
91 20-07-2019 07:30:00 14.6 C 12.01 g/m*3 14.6 C 0 km/h
92 20-07-2019 07:35:00 14.7 C 12.09 g/m*3 14.7 C 0 km/h
93 20-07-2019 07:40:00 14.8 C 12.16 g/m*3 14.8 C 0 km/h
94 20-07-2019 07:45:00 14.8 C 12.16 g/m*3 14.8 C 0 km/h
95 20-07-2019 07:50:00 14.9 C 12.24 g/m*3 14.9 C 0 km/h
96 20-07-2019 07:55:00 15 C 12.31 g/m*3 15 C 0 km/h
97 20-07-2019 08:00:00 15.1 C 12.39 g/m*3 15.1 C 0 km/h
98 20-07-2019 08:05:00 15.3 C 12.54 g/m*3 15.3 C 0 km/h
99 20-07-2019 08:10:00 15.4 C 12.61 g/m*3 15.4 C 0 km/h
100 20-07-2019 08:15:00 15.5 C 12.69 g/m*3 15.5 C 0 km/h
Sensor: Nr:Datum:Temp:Abs-Feuchte:Windchill:Wind:
Aussen-T/F 101 20-07-2019 08:20:00 15.7 C 12.84 g/m*3 15.7 C 0 km/h
102 20-07-2019 08:25:00 15.8 C 12.92 g/m*3 15.8 C 0 km/h
103 20-07-2019 08:30:00 15.9 C 13 g/m*3 15.9 C 0 km/h
104 20-07-2019 08:35:00 16.1 C 13.16 g/m*3 16.1 C 0 km/h
105 20-07-2019 08:40:00 16.2 C 13.24 g/m*3 16.2 C 0 km/h
106 20-07-2019 08:45:00 16.3 C 13.32 g/m*3 16.3 C 0 km/h
107 20-07-2019 08:50:00 16.5 C 13.48 g/m*3 16.5 C 0 km/h
108 20-07-2019 08:55:00 16.6 C 13.56 g/m*3 16.6 C 0 km/h
109 20-07-2019 09:00:00 16.8 C 13.73 g/m*3 16.8 C 0 km/h
110 20-07-2019 09:05:00 16.9 C 13.81 g/m*3 16.9 C 0 km/h
111 20-07-2019 09:10:00 17 C 13.89 g/m*3 17 C 0 km/h
112 20-07-2019 09:15:00 17.2 C 14.06 g/m*3 17.2 C 0 km/h
113 20-07-2019 09:20:00 17.3 C 14.14 g/m*3 17.3 C 0 km/h
114 20-07-2019 09:25:00 17.6 C 14.25 g/m*3 17.6 C 0 km/h
115 20-07-2019 09:30:00 17.8 C 14.42 g/m*3 17.8 C 0 km/h
116 20-07-2019 09:35:00 17.9 C 14.5 g/m*3 17.9 C 0 km/h
117 20-07-2019 09:40:00 18.2 C 14.61 g/m*3 18.2 C 0 km/h
118 20-07-2019 09:45:00 18.4 C 14.78 g/m*3 18.4 C 0 km/h
119 20-07-2019 09:50:00 18.7 C 14.89 g/m*3 18.7 C 0 km/h
120 20-07-2019 09:55:00 19 C 14.99 g/m*3 19 C 0 km/h
121 20-07-2019 10:00:00 19.3 C 15.09 g/m*3 19.3 C 0 km/h
122 20-07-2019 10:05:00 19.8 C 15.54 g/m*3 19.8 C 0 km/h
123 20-07-2019 10:10:00 20.2 C 15.56 g/m*3 20.2 C 0 km/h
124 20-07-2019 10:15:00 20.7 C 16.02 g/m*3 20.7 C 0 km/h
125 20-07-2019 10:20:00 21.1 C 16.21 g/m*3 21.1 C 0 km/h
Sensor: Nr:Datum:Temp:Abs-Feuchte:Windchill:Wind:
Aussen-T/F 126 20-07-2019 10:25:00 21.4 C 16.5 g/m*3 21.4 C 0 km/h
127 20-07-2019 10:30:00 21.8 C 16.88 g/m*3 21.8 C 0 km/h
128 20-07-2019 10:35:00 22 C 16.89 g/m*3 22 C 0 km/h
129 20-07-2019 10:40:00 22.3 C 17.18 g/m*3 22.3 C 0 km/h
130 20-07-2019 10:45:00 22.5 C 17.18 g/m*3 22.5 C 0 km/h
131 20-07-2019 10:50:00 22.7 C 16.77 g/m*3 22.7 C 0 km/h
132 20-07-2019 10:55:00 23 C 16.44 g/m*3 23 C 0 km/h
133 20-07-2019 11:00:00 23.3 C 15.68 g/m*3 23.3 C 0 km/h
134 20-07-2019 11:05:00 23.7 C 15.61 g/m*3 23.7 C 0 km/h
135 20-07-2019 11:10:00 24.2 C 16.06 g/m*3 24.2 C 0 km/h
136 20-07-2019 11:15:00 24.7 C 15.62 g/m*3 24.7 C 0 km/h
137 20-07-2019 11:20:00 25.3 C 15.69 g/m*3 25.3 C 4.8 km/h
138 20-07-2019 11:25:00 25.7 C 15.32 g/m*3 25.7 C 0 km/h
139 20-07-2019 11:30:00 26.3 C 15.35 g/m*3 26.3 C 12.9 km/h
140 20-07-2019 11:35:00 26.8 C 14.25 g/m*3 26.8 C 19.3 km/h
141 20-07-2019 11:40:00 27.2 C 14.31 g/m*3 27.2 C 19.3 km/h
142 20-07-2019 11:45:00 27.3 C 14.13 g/m*3 27.3 C 16.1 km/h
143 20-07-2019 11:50:00 27.4 C 14.73 g/m*3 27.4 C 9.7 km/h
144 20-07-2019 11:55:00 27.7 C 14.71 g/m*3 27.7 C 9.7 km/h
145 20-07-2019 12:00:00 27.7 C 13.64 g/m*3 27.7 C 16.1 km/h
146 20-07-2019 12:05:00 27.7 C 13.91 g/m*3 27.7 C 11.3 km/h
147 20-07-2019 12:10:00 27.8 C 14.26 g/m*3 27.8 C 8.1 km/h
148 20-07-2019 12:15:00 27.8 C 13.99 g/m*3 27.8 C 17.7 km/h
149 20-07-2019 12:20:00 27.8 C 13.72 g/m*3 27.8 C 9.7 km/h
150 20-07-2019 12:25:00 27.8 C 13.72 g/m*3 27.8 C 12.9 km/h
Sensor: Nr:Datum:Temp:Abs-Feuchte:Windchill:Wind:
Aussen-T/F 151 20-07-2019 12:30:00 27.8 C 13.72 g/m*3 27.8 C 16.1 km/h
152 20-07-2019 12:35:00 27.8 C 13.45 g/m*3 27.8 C 14.5 km/h
153 20-07-2019 12:40:00 27.7 C 14.18 g/m*3 27.7 C 11.3 km/h
154 20-07-2019 12:45:00 27.8 C 13.72 g/m*3 27.8 C 8.1 km/h
155 20-07-2019 12:50:00 27.8 C 13.99 g/m*3 27.8 C 11.3 km/h
156 20-07-2019 12:55:00 27.8 C 13.45 g/m*3 27.8 C 11.3 km/h
157 20-07-2019 13:00:00 27.9 C 13.79 g/m*3 27.9 C 9.7 km/h
158 20-07-2019 13:05:00 27.9 C 13.79 g/m*3 27.9 C 9.7 km/h
159 20-07-2019 13:10:00 28.1 C 13.95 g/m*3 28.1 C 11.3 km/h
160 20-07-2019 13:15:00 28.1 C 13.67 g/m*3 28.1 C 11.3 km/h
161 20-07-2019 13:20:00 28 C 13.87 g/m*3 28 C 8.1 km/h
162 20-07-2019 13:25:00 27.9 C 14.06 g/m*3 27.9 C 6.4 km/h
163 20-07-2019 13:30:00 28 C 13.87 g/m*3 28 C 8.1 km/h
164 20-07-2019 13:35:00 28.1 C 13.95 g/m*3 28.1 C 4.8 km/h
165 20-07-2019 13:40:00 28.3 C 14.1 g/m*3 28.3 C 6.4 km/h
166 20-07-2019 13:45:00 28.4 C 13.62 g/m*3 28.4 C 8.1 km/h
167 20-07-2019 13:50:00 28.6 C 14.05 g/m*3 28.6 C 6.4 km/h
168 20-07-2019 13:55:00 28.8 C 13.64 g/m*3 28.8 C 12.9 km/h
169 20-07-2019 14:00:00 29.1 C 14.15 g/m*3 29.1 C 9.7 km/h
170 20-07-2019 14:05:00 29.4 C 14.09 g/m*3 29.4 C 12.9 km/h
171 20-07-2019 14:10:00 29.7 C 13.72 g/m*3 29.7 C 17.7 km/h
172 20-07-2019 14:15:00 29.7 C 13.72 g/m*3 29.7 C 17.7 km/h
173 20-07-2019 14:20:00 29.7 C 13.43 g/m*3 29.7 C 12.9 km/h
174 20-07-2019 14:25:00 29.7 C 13.72 g/m*3 29.7 C 14.5 km/h
175 20-07-2019 14:30:00 29.9 C 13.57 g/m*3 29.9 C 16.1 km/h
Sensor: Nr:Datum:Temp:Abs-Feuchte:Windchill:Wind:
Aussen-T/F 176 20-07-2019 14:35:00 30.1 C 13.42 g/m*3 30.1 C 11.3 km/h
177 20-07-2019 14:40:00 30.4 C 13.63 g/m*3 30.4 C 12.9 km/h
178 20-07-2019 14:45:00 30.6 C 14.09 g/m*3 30.6 C 16.1 km/h
179 20-07-2019 14:50:00 31 C 14.4 g/m*3 31 C 14.5 km/h
180 20-07-2019 14:55:00 31.2 C 13.59 g/m*3 31.2 C 11.3 km/h
181 20-07-2019 15:00:00 31.2 C 13.91 g/m*3 31.2 C 12.9 km/h
182 20-07-2019 15:05:00 31.1 C 13.84 g/m*3 31.1 C 14.5 km/h
183 20-07-2019 15:10:00 31.1 C 14.16 g/m*3 31.1 C 16.1 km/h
184 20-07-2019 15:15:00 31.2 C 14.23 g/m*3 31.2 C 12.9 km/h
185 20-07-2019 15:20:00 31.1 C 13.51 g/m*3 31.1 C 12.9 km/h
186 20-07-2019 15:25:00 31 C 14.08 g/m*3 31 C 6.4 km/h
187 20-07-2019 15:30:00 30.9 C 13.37 g/m*3 30.9 C 11.3 km/h
188 20-07-2019 15:35:00 30.8 C 13.93 g/m*3 30.8 C 11.3 km/h
189 20-07-2019 15:40:00 30.6 C 13.78 g/m*3 30.6 C 9.7 km/h
190 20-07-2019 15:45:00 30.3 C 13.56 g/m*3 30.3 C 8.1 km/h
191 20-07-2019 15:50:00 30.2 C 14.1 g/m*3 30.2 C 0 km/h
192 20-07-2019 15:55:00 30.1 C 13.72 g/m*3 30.1 C 8.1 km/h
193 20-07-2019 16:00:00 30.2 C 13.79 g/m*3 30.2 C 6.4 km/h
194 20-07-2019 16:05:00 30.4 C 13.94 g/m*3 30.4 C 11.3 km/h
195 20-07-2019 16:10:00 30.4 C 14.87 g/m*3 30.4 C 14.5 km/h
196 20-07-2019 16:15:00 30.3 C 14.18 g/m*3 30.3 C 3.2 km/h
197 20-07-2019 16:20:00 29.6 C 16.62 g/m*3 29.6 C 14.5 km/h
198 20-07-2019 16:25:00 28.6 C 19.67 g/m*3 28.6 C 3.2 km/h
199 20-07-2019 16:30:00 27.9 C 20.55 g/m*3 27.9 C 1.6 km/h
200 20-07-2019 16:35:00 27.9 C 21.37 g/m*3 27.9 C 1.6 km/h
Sensor: Nr:Datum:Temp:Abs-Feuchte:Windchill:Wind:
Aussen-T/F 201 20-07-2019 16:40:00 28.1 C 21.88 g/m*3 28.1 C 1.6 km/h
202 20-07-2019 16:45:00 28.2 C 21.72 g/m*3 28.2 C 0 km/h
203 20-07-2019 16:50:00 28.1 C 20.23 g/m*3 28.1 C 1.6 km/h
204 20-07-2019 16:55:00 27.6 C 19.95 g/m*3 27.6 C 1.6 km/h
205 20-07-2019 17:00:00 27.1 C 19.67 g/m*3 27.1 C 3.2 km/h
206 20-07-2019 17:05:00 26.8 C 19.6 g/m*3 26.8 C 11.3 km/h
207 20-07-2019 17:10:00 27.2 C 19.78 g/m*3 27.2 C 16.1 km/h
208 20-07-2019 17:15:00 27.7 C 16.85 g/m*3 27.7 C 17.7 km/h
209 20-07-2019 17:20:00 28.7 C 15.26 g/m*3 28.7 C 12.9 km/h
210 20-07-2019 17:25:00 29.2 C 18.58 g/m*3 29.2 C 8.1 km/h
211 20-07-2019 17:30:00 28.9 C 14.85 g/m*3 28.9 C 14.5 km/h
212 20-07-2019 17:35:00 28.9 C 15.14 g/m*3 28.9 C 11.3 km/h
213 20-07-2019 17:40:00 29.1 C 17.33 g/m*3 29.1 C 9.7 km/h
214 20-07-2019 17:45:00 29 C 14.65 g/m*3 29 C 14.5 km/h
215 20-07-2019 17:50:00 28.8 C 13.92 g/m*3 28.8 C 17.7 km/h
216 20-07-2019 17:55:00 28.8 C 15.91 g/m*3 28.8 C 16.1 km/h
217 20-07-2019 18:00:00 28.9 C 14.28 g/m*3 28.9 C 11.3 km/h
218 20-07-2019 18:05:00 29 C 14.94 g/m*3 29 C 16.1 km/h
219 20-07-2019 18:10:00 28.9 C 14.28 g/m*3 28.9 C 6.4 km/h
220 20-07-2019 18:15:00 28.8 C 13.92 g/m*3 28.8 C 9.7 km/h
221 20-07-2019 18:20:00 28.8 C 13.92 g/m*3 28.8 C 17.7 km/h
222 20-07-2019 18:25:00 28.8 C 13.64 g/m*3 28.8 C 6.4 km/h
223 20-07-2019 18:30:00 28.9 C 13.71 g/m*3 28.9 C 16.1 km/h
224 20-07-2019 18:35:00 28.9 C 13.71 g/m*3 28.9 C 8.1 km/h
225 20-07-2019 18:40:00 28.9 C 14.85 g/m*3 28.9 C 11.3 km/h
Sensor: Nr:Datum:Temp:Abs-Feuchte:Windchill:Wind:
Aussen-T/F 226 20-07-2019 18:45:00 28.9 C 13.71 g/m*3 28.9 C 8.1 km/h
227 20-07-2019 18:50:00 29.1 C 14.73 g/m*3 29.1 C 6.4 km/h
228 20-07-2019 18:55:00 29.2 C 13.65 g/m*3 29.2 C 9.7 km/h
229 20-07-2019 19:00:00 29.3 C 13.43 g/m*3 29.3 C 17.7 km/h
230 20-07-2019 19:05:00 29.3 C 12.85 g/m*3 29.3 C 14.5 km/h
231 20-07-2019 19:10:00 29.2 C 13.65 g/m*3 29.2 C 14.5 km/h
232 20-07-2019 19:15:00 29.3 C 13.14 g/m*3 29.3 C 9.7 km/h
233 20-07-2019 19:20:00 29.3 C 14.01 g/m*3 29.3 C 8.1 km/h
234 20-07-2019 19:25:00 29.3 C 12.85 g/m*3 29.3 C 25.7 km/h
235 20-07-2019 19:30:00 28.1 C 14.77 g/m*3 28.1 C 25.7 km/h
236 20-07-2019 19:35:00 26.8 C 14.76 g/m*3 26.8 C 11.3 km/h
237 20-07-2019 19:40:00 25.7 C 14.6 g/m*3 25.7 C 12.9 km/h
238 20-07-2019 19:45:00 25 C 14.73 g/m*3 25 C 17.7 km/h
239 20-07-2019 19:50:00 24.6 C 14.85 g/m*3 24.6 C 11.3 km/h
240 20-07-2019 19:55:00 24.2 C 14.52 g/m*3 24.2 C 12.9 km/h
241 20-07-2019 20:00:00 24.1 C 14.66 g/m*3 24.1 C 9.7 km/h
242 20-07-2019 20:05:00 23.9 C 14.71 g/m*3 23.9 C 6.4 km/h
243 20-07-2019 20:10:00 23.8 C 14.63 g/m*3 23.8 C 11.3 km/h
244 20-07-2019 20:15:00 23.7 C 14.54 g/m*3 23.7 C 6.4 km/h
245 20-07-2019 20:20:00 23.6 C 14.68 g/m*3 23.6 C 1.6 km/h
246 20-07-2019 20:25:00 23.4 C 14.51 g/m*3 23.4 C 3.2 km/h
247 20-07-2019 20:30:00 23.3 C 14.43 g/m*3 23.3 C 1.6 km/h
248 20-07-2019 20:35:00 23.2 C 14.34 g/m*3 23.2 C 0 km/h
249 20-07-2019 20:40:00 23.1 C 14.47 g/m*3 23.1 C 0 km/h
250 20-07-2019 20:45:00 23.1 C 14.88 g/m*3 23.1 C 0 km/h
Sensor: Nr:Datum:Temp:Abs-Feuchte:Windchill:Wind:
Aussen-T/F 251 20-07-2019 20:50:00 23 C 15 g/m*3 23 C 0 km/h
252 20-07-2019 20:55:00 22.9 C 14.92 g/m*3 22.9 C 0 km/h
253 20-07-2019 21:00:00 22.7 C 14.95 g/m*3 22.7 C 0 km/h
254 20-07-2019 21:05:00 22.5 C 14.78 g/m*3 22.5 C 0 km/h
255 20-07-2019 21:10:00 22.3 C 14.61 g/m*3 22.3 C 0 km/h
256 20-07-2019 21:15:00 22.1 C 14.64 g/m*3 22.1 C 0 km/h
257 20-07-2019 21:20:00 21.8 C 14.39 g/m*3 21.8 C 0 km/h
258 20-07-2019 21:25:00 21.7 C 14.5 g/m*3 21.7 C 0 km/h
259 20-07-2019 21:30:00 21.6 C 14.41 g/m*3 21.6 C 0 km/h
260 20-07-2019 21:35:00 21.4 C 14.44 g/m*3 21.4 C 0 km/h
261 20-07-2019 21:40:00 21.3 C 14.54 g/m*3 21.3 C 0 km/h
262 20-07-2019 21:45:00 21.2 C 14.46 g/m*3 21.2 C 0 km/h
263 20-07-2019 21:50:00 21.1 C 14.37 g/m*3 21.1 C 0 km/h
264 20-07-2019 21:55:00 21 C 14.29 g/m*3 21 C 0 km/h
265 20-07-2019 22:00:00 20.9 C 14.21 g/m*3 20.9 C 0 km/h
266 20-07-2019 22:05:00 20.9 C 14.21 g/m*3 20.9 C 0 km/h
267 20-07-2019 22:10:00 20.8 C 14.12 g/m*3 20.8 C 0 km/h
268 20-07-2019 22:15:00 20.8 C 14.3 g/m*3 20.8 C 0 km/h
269 20-07-2019 22:20:00 20.7 C 14.4 g/m*3 20.7 C 0 km/h
270 20-07-2019 22:25:00 20.7 C 14.58 g/m*3 20.7 C 0 km/h
271 20-07-2019 22:30:00 20.6 C 14.5 g/m*3 20.6 C 0 km/h
272 20-07-2019 22:35:00 20.5 C 14.41 g/m*3 20.5 C 0 km/h
273 20-07-2019 22:40:00 20.3 C 14.25 g/m*3 20.3 C 0 km/h
274 20-07-2019 22:45:00 20.3 C 14.25 g/m*3 20.3 C 0 km/h
275 20-07-2019 22:50:00 20.2 C 14.16 g/m*3 20.2 C 0 km/h
Sensor: Nr:Datum:Temp:Abs-Feuchte:Windchill:Wind:
Aussen-T/F 276 20-07-2019 22:55:00 20.1 C 14.25 g/m*3 20.1 C 0 km/h
277 20-07-2019 23:00:00 20.1 C 14.25 g/m*3 20.1 C 0 km/h
278 20-07-2019 23:05:00 20.1 C 14.43 g/m*3 20.1 C 0 km/h
279 20-07-2019 23:10:00 19.9 C 14.09 g/m*3 19.9 C 0 km/h
280 20-07-2019 23:15:00 19.9 C 14.26 g/m*3 19.9 C 0 km/h
281 20-07-2019 23:20:00 19.8 C 14.18 g/m*3 19.8 C 0 km/h
282 20-07-2019 23:25:00 19.7 C 14.09 g/m*3 19.7 C 0 km/h
283 20-07-2019 23:30:00 19.7 C 14.09 g/m*3 19.7 C 0 km/h
284 20-07-2019 23:35:00 19.6 C 14.18 g/m*3 19.6 C 0 km/h
285 20-07-2019 23:40:00 19.6 C 14.35 g/m*3 19.6 C 0 km/h
286 20-07-2019 23:45:00 19.6 C 14.35 g/m*3 19.6 C 0 km/h
287 20-07-2019 23:50:00 19.5 C 14.27 g/m*3 19.5 C 0 km/h
288 20-07-2019 23:55:00 19.5 C 14.27 g/m*3 19.5 C 0 km/h
289 21-07-2019 00:00:00 19.4 C 14.18 g/m*3 19.4 C 0 km/h
290 21-07-2019 00:05:00 19.4 C 14.18 g/m*3 19.4 C 0 km/h
291 21-07-2019 00:10:00 19.3 C 14.1 g/m*3 19.3 C 0 km/h
292 21-07-2019 00:15:00 19.2 C 14.02 g/m*3 19.2 C 0 km/h
293 21-07-2019 00:20:00 19.2 C 14.02 g/m*3 19.2 C 0 km/h
294 21-07-2019 00:25:00 19.1 C 14.1 g/m*3 19.1 C 0 km/h
295 21-07-2019 00:30:00 19 C 14.01 g/m*3 19 C 0 km/h
296 21-07-2019 00:35:00 19 C 14.01 g/m*3 19 C 0 km/h
297 21-07-2019 00:40:00 18.9 C 13.93 g/m*3 18.9 C 0 km/h
298 21-07-2019 00:45:00 18.9 C 13.93 g/m*3 18.9 C 0 km/h
299 21-07-2019 00:50:00 18.8 C 13.85 g/m*3 18.8 C 0 km/h
300 21-07-2019 00:55:00 18.8 C 14.01 g/m*3 18.8 C 0 km/h
Sensor: Nr:Datum:Temp:Abs-Feuchte:Windchill:Wind:
Aussen-T/F 301 21-07-2019 01:00:00 18.7 C 13.93 g/m*3 18.7 C 0 km/h
302 21-07-2019 01:05:00 18.7 C 13.93 g/m*3 18.7 C 0 km/h
303 21-07-2019 01:10:00 18.7 C 14.09 g/m*3 18.7 C 0 km/h
304 21-07-2019 01:15:00 18.7 C 13.93 g/m*3 18.7 C 0 km/h
305 21-07-2019 01:20:00 18.7 C 14.09 g/m*3 18.7 C 0 km/h
306 21-07-2019 01:25:00 18.6 C 14.01 g/m*3 18.6 C 0 km/h
307 21-07-2019 01:30:00 18.6 C 14.01 g/m*3 18.6 C 0 km/h
308 21-07-2019 01:35:00 18.4 C 13.84 g/m*3 18.4 C 0 km/h
309 21-07-2019 01:40:00 18.4 C 13.84 g/m*3 18.4 C 0 km/h
310 21-07-2019 01:45:00 18.4 C 13.84 g/m*3 18.4 C 0 km/h
311 21-07-2019 01:50:00 18.5 C 14.08 g/m*3 18.5 C 0 km/h
312 21-07-2019 01:55:00 18.6 C 14.17 g/m*3 18.6 C 0 km/h
313 21-07-2019 02:00:00 18.7 C 14.25 g/m*3 18.7 C 0 km/h
314 21-07-2019 02:05:00 18.8 C 14.17 g/m*3 18.8 C 0 km/h
315 21-07-2019 02:10:00 18.9 C 14.26 g/m*3 18.9 C 0 km/h
316 21-07-2019 02:15:00 19 C 14.34 g/m*3 19 C 0 km/h
317 21-07-2019 02:20:00 19 C 14.18 g/m*3 19 C 0 km/h
318 21-07-2019 02:25:00 19 C 14.18 g/m*3 19 C 0 km/h
319 21-07-2019 02:30:00 18.9 C 14.09 g/m*3 18.9 C 0 km/h
320 21-07-2019 02:35:00 18.9 C 14.09 g/m*3 18.9 C 0 km/h
321 21-07-2019 02:40:00 18.9 C 14.26 g/m*3 18.9 C 0 km/h
322 21-07-2019 02:45:00 18.8 C 14.17 g/m*3 18.8 C 0 km/h
323 21-07-2019 02:50:00 18.8 C 14.17 g/m*3 18.8 C 0 km/h
324 21-07-2019 02:55:00 18.8 C 14.17 g/m*3 18.8 C 0 km/h
325 21-07-2019 03:00:00 18.8 C 14.17 g/m*3 18.8 C 0 km/h
Sensor: Nr:Datum:Temp:Abs-Feuchte:Windchill:Wind:
Aussen-T/F 326 21-07-2019 03:05:00 18.7 C 14.09 g/m*3 18.7 C 0 km/h
327 21-07-2019 03:10:00 18.7 C 14.09 g/m*3 18.7 C 0 km/h
328 21-07-2019 03:15:00 18.7 C 14.25 g/m*3 18.7 C 0 km/h
329 21-07-2019 03:20:00 18.7 C 14.25 g/m*3 18.7 C 0 km/h
330 21-07-2019 03:25:00 18.7 C 14.25 g/m*3 18.7 C 0 km/h
331 21-07-2019 03:30:00 18.7 C 14.09 g/m*3 18.7 C 0 km/h
332 21-07-2019 03:35:00 18.7 C 14.25 g/m*3 18.7 C 0 km/h
333 21-07-2019 03:40:00 18.6 C 14.17 g/m*3 18.6 C 0 km/h
334 21-07-2019 03:45:00 18.6 C 14.17 g/m*3 18.6 C 0 km/h
335 21-07-2019 03:50:00 18.5 C 14.08 g/m*3 18.5 C 0 km/h
336 21-07-2019 03:55:00 18.4 C 14 g/m*3 18.4 C 0 km/h
337 21-07-2019 04:00:00 18.3 C 13.92 g/m*3 18.3 C 0 km/h
338 21-07-2019 04:05:00 18.2 C 13.83 g/m*3 18.2 C 0 km/h
339 21-07-2019 04:10:00 18.2 C 13.83 g/m*3 18.2 C 0 km/h
340 21-07-2019 04:15:00 18.1 C 13.75 g/m*3 18.1 C 0 km/h
341 21-07-2019 04:20:00 18 C 13.67 g/m*3 18 C 0 km/h
342 21-07-2019 04:25:00 17.9 C 13.59 g/m*3 17.9 C 0 km/h
343 21-07-2019 04:30:00 17.9 C 13.59 g/m*3 17.9 C 0 km/h
344 21-07-2019 04:35:00 17.9 C 13.74 g/m*3 17.9 C 0 km/h
345 21-07-2019 04:40:00 17.8 C 13.51 g/m*3 17.8 C 0 km/h
346 21-07-2019 04:45:00 17.7 C 13.58 g/m*3 17.7 C 0 km/h
347 21-07-2019 04:50:00 17.7 C 13.58 g/m*3 17.7 C 0 km/h
348 21-07-2019 04:55:00 17.7 C 13.58 g/m*3 17.7 C 0 km/h
349 21-07-2019 05:00:00 17.6 C 13.5 g/m*3 17.6 C 0 km/h
350 21-07-2019 05:05:00 17.5 C 13.42 g/m*3 17.5 C 0 km/h
Sensor: Nr:Datum:Temp:Abs-Feuchte:Windchill:Wind:
Aussen-T/F 351 21-07-2019 05:10:00 17.4 C 13.49 g/m*3 17.4 C 0 km/h
352 21-07-2019 05:15:00 17.4 C 13.49 g/m*3 17.4 C 0 km/h
353 21-07-2019 05:20:00 17.4 C 13.49 g/m*3 17.4 C 0 km/h
354 21-07-2019 05:25:00 17.4 C 13.49 g/m*3 17.4 C 0 km/h
355 21-07-2019 05:30:00 17.4 C 13.49 g/m*3 17.4 C 0 km/h
356 21-07-2019 05:35:00 17.4 C 13.49 g/m*3 17.4 C 0 km/h
357 21-07-2019 05:40:00 17.4 C 13.63 g/m*3 17.4 C 0 km/h
358 21-07-2019 05:45:00 17.5 C 13.72 g/m*3 17.5 C 0 km/h
359 21-07-2019 05:50:00 17.6 C 13.8 g/m*3 17.6 C 0 km/h
360 21-07-2019 05:55:00 17.6 C 13.8 g/m*3 17.6 C 0 km/h
361 21-07-2019 06:00:00 17.6 C 13.8 g/m*3 17.6 C 0 km/h
362 21-07-2019 06:05:00 17.6 C 13.8 g/m*3 17.6 C 0 km/h
363 21-07-2019 06:10:00 17.6 C 13.8 g/m*3 17.6 C 0 km/h
364 21-07-2019 06:15:00 17.7 C 13.88 g/m*3 17.7 C 0 km/h
365 21-07-2019 06:20:00 17.7 C 13.88 g/m*3 17.7 C 0 km/h
366 21-07-2019 06:25:00 17.7 C 13.88 g/m*3 17.7 C 0 km/h
367 21-07-2019 06:30:00 17.7 C 13.88 g/m*3 17.7 C 0 km/h
368 21-07-2019 06:35:00 17.8 C 13.96 g/m*3 17.8 C 0 km/h
369 21-07-2019 06:40:00 17.8 C 13.81 g/m*3 17.8 C 0 km/h
370 21-07-2019 06:45:00 17.8 C 13.81 g/m*3 17.8 C 0 km/h
371 21-07-2019 06:50:00 17.9 C 13.89 g/m*3 17.9 C 0 km/h
372 21-07-2019 06:55:00 17.9 C 13.89 g/m*3 17.9 C 0 km/h
373 21-07-2019 07:00:00 17.9 C 13.74 g/m*3 17.9 C 0 km/h
374 21-07-2019 07:05:00 18.1 C 13.91 g/m*3 18.1 C 0 km/h
375 21-07-2019 07:10:00 18.2 C 13.99 g/m*3 18.2 C 0 km/h
Sensor: Nr:Datum:Temp:Abs-Feuchte:Windchill:Wind:
Aussen-T/F 376 21-07-2019 07:15:00 18.3 C 14.07 g/m*3 18.3 C 0 km/h
377 21-07-2019 07:20:00 18.4 C 14.16 g/m*3 18.4 C 0 km/h
378 21-07-2019 07:25:00 18.5 C 14.24 g/m*3 18.5 C 0 km/h
379 21-07-2019 07:30:00 18.6 C 14.17 g/m*3 18.6 C 0 km/h
380 21-07-2019 07:35:00 18.7 C 14.25 g/m*3 18.7 C 0 km/h
381 21-07-2019 07:40:00 18.7 C 14.25 g/m*3 18.7 C 0 km/h
382 21-07-2019 07:45:00 18.8 C 14.17 g/m*3 18.8 C 0 km/h
383 21-07-2019 07:50:00 18.9 C 14.42 g/m*3 18.9 C 0 km/h
384 21-07-2019 07:55:00 18.9 C 13.93 g/m*3 18.9 C 0 km/h
385 21-07-2019 08:00:00 19 C 13.69 g/m*3 19 C 0 km/h
386 21-07-2019 08:05:00 19.1 C 13.44 g/m*3 19.1 C 0 km/h
387 21-07-2019 08:10:00 19.2 C 13.36 g/m*3 19.2 C 6.4 km/h
388 21-07-2019 08:15:00 19.3 C 13.44 g/m*3 19.3 C 1.6 km/h
389 21-07-2019 08:20:00 19.3 C 13.44 g/m*3 19.3 C 0 km/h
390 21-07-2019 08:25:00 19.3 C 13.1 g/m*3 19.3 C 6.4 km/h
391 21-07-2019 08:30:00 19.3 C 13.27 g/m*3 19.3 C 3.2 km/h
392 21-07-2019 08:35:00 19.4 C 13.18 g/m*3 19.4 C 0 km/h
393 21-07-2019 08:40:00 19.4 C 13.18 g/m*3 19.4 C 0 km/h
394 21-07-2019 08:45:00 19.5 C 13.26 g/m*3 19.5 C 4.8 km/h
395 21-07-2019 08:50:00 19.6 C 13.51 g/m*3 19.6 C 0 km/h
396 21-07-2019 08:55:00 19.7 C 13.58 g/m*3 19.7 C 6.4 km/h
397 21-07-2019 09:00:00 19.8 C 13.49 g/m*3 19.8 C 6.4 km/h
398 21-07-2019 09:05:00 19.8 C 13.32 g/m*3 19.8 C 4.8 km/h
399 21-07-2019 09:10:00 20.1 C 13.56 g/m*3 20.1 C 4.8 km/h
400 21-07-2019 09:15:00 20.1 C 13.21 g/m*3 20.1 C 8.1 km/h
Sensor: Nr:Datum:Temp:Abs-Feuchte:Windchill:Wind:
Aussen-T/F 401 21-07-2019 09:20:00 20.2 C 12.94 g/m*3 20.2 C 8.1 km/h
402 21-07-2019 09:25:00 20.3 C 12.84 g/m*3 20.3 C 8.1 km/h
403 21-07-2019 09:30:00 20.4 C 12.91 g/m*3 20.4 C 9.7 km/h
404 21-07-2019 09:35:00 20.4 C 12.91 g/m*3 20.4 C 9.7 km/h
405 21-07-2019 09:40:00 20.5 C 12.63 g/m*3 20.5 C 8.1 km/h
406 21-07-2019 09:45:00 20.6 C 12.89 g/m*3 20.6 C 6.4 km/h
407 21-07-2019 09:50:00 20.7 C 12.6 g/m*3 20.7 C 8.1 km/h
408 21-07-2019 09:55:00 20.8 C 12.86 g/m*3 20.8 C 8.1 km/h
409 21-07-2019 10:00:00 21 C 12.82 g/m*3 21 C 9.7 km/h
410 21-07-2019 10:05:00 21.1 C 12.71 g/m*3 21.1 C 9.7 km/h
411 21-07-2019 10:10:00 21.2 C 12.79 g/m*3 21.2 C 8.1 km/h
412 21-07-2019 10:15:00 21.3 C 12.68 g/m*3 21.3 C 8.1 km/h
413 21-07-2019 10:20:00 21.5 C 12.82 g/m*3 21.5 C 6.4 km/h
414 21-07-2019 10:25:00 21.7 C 12.97 g/m*3 21.7 C 4.8 km/h
415 21-07-2019 10:30:00 21.9 C 12.93 g/m*3 21.9 C 4.8 km/h
416 21-07-2019 10:35:00 22.1 C 12.69 g/m*3 22.1 C 6.4 km/h
417 21-07-2019 10:40:00 22.3 C 12.64 g/m*3 22.3 C 8.1 km/h
418 21-07-2019 10:45:00 22.6 C 12.86 g/m*3 22.6 C 6.4 km/h
419 21-07-2019 10:50:00 22.8 C 12.8 g/m*3 22.8 C 8.1 km/h
420 21-07-2019 10:55:00 22.8 C 12.19 g/m*3 22.8 C 6.4 km/h
421 21-07-2019 11:00:00 22.9 C 12.26 g/m*3 22.9 C 3.2 km/h
422 21-07-2019 11:05:00 23.1 C 12.2 g/m*3 23.1 C 6.4 km/h
423 21-07-2019 11:10:00 23.4 C 11.78 g/m*3 23.4 C 12.9 km/h
424 21-07-2019 11:15:00 23.6 C 11.48 g/m*3 23.6 C 12.9 km/h
425 21-07-2019 11:20:00 23.7 C 11.55 g/m*3 23.7 C 11.3 km/h
Sensor: Nr:Datum:Temp:Abs-Feuchte:Windchill:Wind:
Aussen-T/F 426 21-07-2019 11:25:00 23.8 C 11.4 g/m*3 23.8 C 16.1 km/h
427 21-07-2019 11:30:00 24 C 11.75 g/m*3 24 C 16.1 km/h
428 21-07-2019 11:35:00 24.1 C 11.38 g/m*3 24.1 C 14.5 km/h
429 21-07-2019 11:40:00 24.2 C 11.22 g/m*3 24.2 C 11.3 km/h
430 21-07-2019 11:45:00 24.2 C 11.22 g/m*3 24.2 C 12.9 km/h
431 21-07-2019 11:50:00 24.2 C 11.22 g/m*3 24.2 C 9.7 km/h
432 21-07-2019 11:55:00 24.3 C 11.29 g/m*3 24.3 C 9.7 km/h
433 21-07-2019 12:00:00 24.4 C 10.9 g/m*3 24.4 C 16.1 km/h
434 21-07-2019 12:05:00 24.6 C 11.25 g/m*3 24.6 C 11.3 km/h
435 21-07-2019 12:10:00 24.8 C 11.61 g/m*3 24.8 C 9.7 km/h
436 21-07-2019 12:15:00 24.9 C 11.22 g/m*3 24.9 C 24.1 km/h
437 21-07-2019 12:20:00 25.1 C 11.34 g/m*3 25.1 C 8.1 km/h
438 21-07-2019 12:25:00 25.2 C 11.87 g/m*3 25.2 C 11.3 km/h
439 21-07-2019 12:30:00 25.3 C 12.17 g/m*3 25.3 C 9.7 km/h
440 21-07-2019 12:35:00 25.1 C 11.81 g/m*3 25.1 C 8.1 km/h
441 21-07-2019 12:40:00 25.1 C 12.04 g/m*3 25.1 C 6.4 km/h
442 21-07-2019 12:45:00 25.1 C 12.27 g/m*3 25.1 C 11.3 km/h
443 21-07-2019 12:50:00 25.1 C 12.27 g/m*3 25.1 C 12.9 km/h
444 21-07-2019 12:55:00 24.9 C 12.13 g/m*3 24.9 C 9.7 km/h
445 21-07-2019 13:00:00 24.9 C 12.13 g/m*3 24.9 C 8.1 km/h
446 21-07-2019 13:05:00 24.9 C 11.9 g/m*3 24.9 C 9.7 km/h
447 21-07-2019 13:10:00 24.8 C 12.06 g/m*3 24.8 C 8.1 km/h
448 21-07-2019 13:15:00 24.8 C 12.06 g/m*3 24.8 C 11.3 km/h
449 21-07-2019 13:20:00 24.8 C 12.29 g/m*3 24.8 C 11.3 km/h
450 21-07-2019 13:25:00 24.8 C 12.29 g/m*3 24.8 C 11.3 km/h
Sensor: Nr:Datum:Temp:Abs-Feuchte:Windchill:Wind:
Aussen-T/F 451 21-07-2019 13:30:00 24.8 C 12.29 g/m*3 24.8 C 8.1 km/h
452 21-07-2019 13:35:00 24.9 C 12.36 g/m*3 24.9 C 6.4 km/h
453 21-07-2019 13:40:00 25 C 12.66 g/m*3 25 C 4.8 km/h
454 21-07-2019 13:45:00 25.2 C 12.11 g/m*3 25.2 C 12.9 km/h
455 21-07-2019 13:50:00 25.3 C 12.41 g/m*3 25.3 C 8.1 km/h
456 21-07-2019 13:55:00 25.3 C 12.17 g/m*3 25.3 C 9.7 km/h
457 21-07-2019 14:00:00 25.4 C 12.24 g/m*3 25.4 C 9.7 km/h
458 21-07-2019 14:05:00 25.6 C 13.09 g/m*3 25.6 C 9.7 km/h
459 21-07-2019 14:10:00 25.8 C 12.52 g/m*3 25.8 C 9.7 km/h
460 21-07-2019 14:15:00 25.9 C 12.59 g/m*3 25.9 C 11.3 km/h
461 21-07-2019 14:20:00 26 C 12.9 g/m*3 26 C 11.3 km/h
462 21-07-2019 14:25:00 26.2 C 12.31 g/m*3 26.2 C 11.3 km/h
463 21-07-2019 14:30:00 26.2 C 11.82 g/m*3 26.2 C 8.1 km/h
464 21-07-2019 14:35:00 26.2 C 12.31 g/m*3 26.2 C 8.1 km/h
465 21-07-2019 14:40:00 26.2 C 12.31 g/m*3 26.2 C 12.9 km/h
466 21-07-2019 14:45:00 26.2 C 12.56 g/m*3 26.2 C 9.7 km/h
467 21-07-2019 14:50:00 26.2 C 12.56 g/m*3 26.2 C 6.4 km/h
468 21-07-2019 14:55:00 26.3 C 12.13 g/m*3 26.3 C 9.7 km/h
469 21-07-2019 15:00:00 26.4 C 12.45 g/m*3 26.4 C 16.1 km/h
470 21-07-2019 15:05:00 26.7 C 12.4 g/m*3 26.7 C 4.8 km/h
471 21-07-2019 15:10:00 26.7 C 12.4 g/m*3 26.7 C 11.3 km/h
472 21-07-2019 15:15:00 26.8 C 12.22 g/m*3 26.8 C 16.1 km/h
473 21-07-2019 15:20:00 26.9 C 12.29 g/m*3 26.9 C 11.3 km/h
474 21-07-2019 15:25:00 27.2 C 12.75 g/m*3 27.2 C 8.1 km/h
475 21-07-2019 15:30:00 27.1 C 12.16 g/m*3 27.1 C 16.1 km/h
Sensor: Nr:Datum:Temp:Abs-Feuchte:Windchill:Wind:
Aussen-T/F 476 21-07-2019 15:35:00 26.8 C 12.22 g/m*3 26.8 C 11.3 km/h
477 21-07-2019 15:40:00 26.7 C 12.15 g/m*3 26.7 C 8.1 km/h
478 21-07-2019 15:45:00 26.8 C 12.47 g/m*3 26.8 C 11.3 km/h
479 21-07-2019 15:50:00 26.9 C 12.29 g/m*3 26.9 C 11.3 km/h
480 21-07-2019 15:55:00 27.1 C 12.16 g/m*3 27.1 C 12.9 km/h
481 21-07-2019 16:00:00 27.3 C 12.04 g/m*3 27.3 C 9.7 km/h
482 21-07-2019 16:05:00 27.5 C 12.43 g/m*3 27.5 C 6.4 km/h
483 21-07-2019 16:10:00 27.6 C 12.5 g/m*3 27.6 C 14.5 km/h
484 21-07-2019 16:15:00 27.6 C 12.24 g/m*3 27.6 C 17.7 km/h
485 21-07-2019 16:20:00 27.6 C 12.24 g/m*3 27.6 C 8.1 km/h
486 21-07-2019 16:25:00 27.8 C 12.64 g/m*3 27.8 C 8.1 km/h
487 21-07-2019 16:30:00 27.9 C 12.17 g/m*3 27.9 C 8.1 km/h
488 21-07-2019 16:35:00 27.8 C 12.1 g/m*3 27.8 C 11.3 km/h
489 21-07-2019 16:40:00 27.9 C 12.17 g/m*3 27.9 C 11.3 km/h
490 21-07-2019 16:45:00 28 C 12.51 g/m*3 28 C 8.1 km/h
491 21-07-2019 16:50:00 28.1 C 12.58 g/m*3 28.1 C 8.1 km/h
492 21-07-2019 16:55:00 28.1 C 12.3 g/m*3 28.1 C 9.7 km/h
493 21-07-2019 17:00:00 27.9 C 12.17 g/m*3 27.9 C 11.3 km/h
494 21-07-2019 17:05:00 27.8 C 12.64 g/m*3 27.8 C 9.7 km/h
495 21-07-2019 17:10:00 27.7 C 12.3 g/m*3 27.7 C 11.3 km/h
496 21-07-2019 17:15:00 27.3 C 12.3 g/m*3 27.3 C 11.3 km/h
497 21-07-2019 17:20:00 27.3 C 12.56 g/m*3 27.3 C 9.7 km/h
498 21-07-2019 17:25:00 27.3 C 12.56 g/m*3 27.3 C 9.7 km/h
499 21-07-2019 17:30:00 27.3 C 12.56 g/m*3 27.3 C 11.3 km/h
500 21-07-2019 17:35:00 26.9 C 12.8 g/m*3 26.9 C 8.1 km/h
Sensor: Nr:Datum:Temp:Abs-Feuchte:Windchill:Wind:
Aussen-T/F 501 21-07-2019 17:40:00 26.8 C 12.47 g/m*3 26.8 C 12.9 km/h
502 21-07-2019 17:45:00 26.8 C 12.47 g/m*3 26.8 C 11.3 km/h
503 21-07-2019 17:50:00 27 C 12.1 g/m*3 27 C 12.9 km/h
504 21-07-2019 17:55:00 27.2 C 12.23 g/m*3 27.2 C 14.5 km/h
505 21-07-2019 18:00:00 27.2 C 12.75 g/m*3 27.2 C 9.7 km/h
506 21-07-2019 18:05:00 27.2 C 12.49 g/m*3 27.2 C 8.1 km/h
507 21-07-2019 18:10:00 26.9 C 12.29 g/m*3 26.9 C 11.3 km/h
508 21-07-2019 18:15:00 26.7 C 12.15 g/m*3 26.7 C 14.5 km/h
509 21-07-2019 18:20:00 26.4 C 11.95 g/m*3 26.4 C 8.1 km/h
510 21-07-2019 18:25:00 26.3 C 12.38 g/m*3 26.3 C 12.9 km/h
511 21-07-2019 18:30:00 26.2 C 12.31 g/m*3 26.2 C 12.9 km/h
512 21-07-2019 18:35:00 26.2 C 12.31 g/m*3 26.2 C 8.1 km/h
513 21-07-2019 18:40:00 26.1 C 12.24 g/m*3 26.1 C 8.1 km/h
514 21-07-2019 18:45:00 26 C 12.17 g/m*3 26 C 6.4 km/h
515 21-07-2019 18:50:00 26 C 12.17 g/m*3 26 C 8.1 km/h
516 21-07-2019 18:55:00 26.1 C 12.24 g/m*3 26.1 C 4.8 km/h
517 21-07-2019 19:00:00 26.3 C 12.38 g/m*3 26.3 C 8.1 km/h
518 21-07-2019 19:05:00 26.2 C 12.31 g/m*3 26.2 C 6.4 km/h
519 21-07-2019 19:10:00 26.1 C 12.49 g/m*3 26.1 C 4.8 km/h
520 21-07-2019 19:15:00 25.9 C 12.1 g/m*3 25.9 C 6.4 km/h
521 21-07-2019 19:20:00 25.7 C 12.45 g/m*3 25.7 C 8.1 km/h
522 21-07-2019 19:25:00 25.4 C 12.24 g/m*3 25.4 C 8.1 km/h
523 21-07-2019 19:30:00 25.2 C 12.34 g/m*3 25.2 C 9.7 km/h
524 21-07-2019 19:35:00 25.1 C 12.27 g/m*3 25.1 C 8.1 km/h
525 21-07-2019 19:40:00 24.9 C 12.13 g/m*3 24.9 C 6.4 km/h
Sensor: Nr:Datum:Temp:Abs-Feuchte:Windchill:Wind:
Aussen-T/F 526 21-07-2019 19:45:00 24.8 C 12.29 g/m*3 24.8 C 11.3 km/h
527 21-07-2019 19:50:00 24.7 C 12.22 g/m*3 24.7 C 11.3 km/h
528 21-07-2019 19:55:00 24.6 C 12.15 g/m*3 24.6 C 9.7 km/h
529 21-07-2019 20:00:00 24.5 C 12.09 g/m*3 24.5 C 6.4 km/h
530 21-07-2019 20:05:00 24.5 C 12.09 g/m*3 24.5 C 9.7 km/h
531 21-07-2019 20:10:00 24.4 C 12.24 g/m*3 24.4 C 8.1 km/h
532 21-07-2019 20:15:00 24.4 C 12.46 g/m*3 24.4 C 9.7 km/h
533 21-07-2019 20:20:00 24.3 C 12.17 g/m*3 24.3 C 4.8 km/h
534 21-07-2019 20:25:00 24.3 C 12.39 g/m*3 24.3 C 8.1 km/h
535 21-07-2019 20:30:00 24.4 C 12.46 g/m*3 24.4 C 6.4 km/h
536 21-07-2019 20:35:00 24.5 C 12.31 g/m*3 24.5 C 8.1 km/h
537 21-07-2019 20:40:00 24.4 C 12.02 g/m*3 24.4 C 6.4 km/h
538 21-07-2019 20:45:00 24.4 C 12.24 g/m*3 24.4 C 9.7 km/h
539 21-07-2019 20:50:00 24.4 C 12.02 g/m*3 24.4 C 6.4 km/h
540 21-07-2019 20:55:00 24.3 C 11.95 g/m*3 24.3 C 6.4 km/h
541 21-07-2019 21:00:00 24.2 C 11.88 g/m*3 24.2 C 4.8 km/h
542 21-07-2019 21:05:00 24.1 C 12.03 g/m*3 24.1 C 4.8 km/h
543 21-07-2019 21:10:00 23.9 C 12.55 g/m*3 23.9 C 1.6 km/h
544 21-07-2019 21:15:00 23.7 C 12.62 g/m*3 23.7 C 0 km/h
545 21-07-2019 21:20:00 23.3 C 12.55 g/m*3 23.3 C 0 km/h
546 21-07-2019 21:25:00 22.8 C 12.4 g/m*3 22.8 C 0 km/h
547 21-07-2019 21:30:00 22.4 C 12.31 g/m*3 22.4 C 0 km/h
548 21-07-2019 21:35:00 22.1 C 12.3 g/m*3 22.1 C 0 km/h
549 21-07-2019 21:40:00 21.7 C 12.21 g/m*3 21.7 C 0 km/h
550 21-07-2019 21:45:00 21.4 C 12.19 g/m*3 21.4 C 0 km/h
Sensor: Nr:Datum:Temp:Abs-Feuchte:Windchill:Wind:
Aussen-T/F 551 21-07-2019 21:50:00 21.2 C 12.23 g/m*3 21.2 C 0 km/h
552 21-07-2019 21:55:00 20.9 C 12.2 g/m*3 20.9 C 0 km/h
553 21-07-2019 22:00:00 20.7 C 12.24 g/m*3 20.7 C 0 km/h
554 21-07-2019 22:05:00 20.5 C 12.28 g/m*3 20.5 C 0 km/h
555 21-07-2019 22:10:00 20.3 C 12.31 g/m*3 20.3 C 0 km/h
556 21-07-2019 22:15:00 20.2 C 12.41 g/m*3 20.2 C 0 km/h
557 21-07-2019 22:20:00 19.9 C 12.2 g/m*3 19.9 C 0 km/h
558 21-07-2019 22:25:00 19.8 C 12.13 g/m*3 19.8 C 0 km/h
559 21-07-2019 22:30:00 19.7 C 12.23 g/m*3 19.7 C 0 km/h
560 21-07-2019 22:35:00 19.6 C 12.15 g/m*3 19.6 C 0 km/h
561 21-07-2019 22:40:00 19.6 C 12.15 g/m*3 19.6 C 0 km/h
562 21-07-2019 22:45:00 19.4 C 12.18 g/m*3 19.4 C 0 km/h
563 21-07-2019 22:50:00 19.3 C 12.27 g/m*3 19.3 C 0 km/h
564 21-07-2019 22:55:00 19.2 C 12.37 g/m*3 19.2 C 0 km/h
565 21-07-2019 23:00:00 19.1 C 12.46 g/m*3 19.1 C 0 km/h
566 21-07-2019 23:05:00 18.9 C 12.31 g/m*3 18.9 C 0 km/h
567 21-07-2019 23:10:00 18.8 C 12.4 g/m*3 18.8 C 0 km/h
568 21-07-2019 23:15:00 18.7 C 12.33 g/m*3 18.7 C 0 km/h
569 21-07-2019 23:20:00 18.6 C 12.41 g/m*3 18.6 C 0 km/h
570 21-07-2019 23:25:00 18.3 C 12.2 g/m*3 18.3 C 0 km/h
571 21-07-2019 23:30:00 18.2 C 12.28 g/m*3 18.2 C 0 km/h
572 21-07-2019 23:35:00 18.1 C 12.21 g/m*3 18.1 C 0 km/h
573 21-07-2019 23:40:00 18.1 C 12.21 g/m*3 18.1 C 0 km/h
574 21-07-2019 23:45:00 17.9 C 12.06 g/m*3 17.9 C 0 km/h
575 21-07-2019 23:50:00 17.8 C 12.14 g/m*3 17.8 C 0 km/h
Sensor: Nr:Datum:Temp:Abs-Feuchte:Windchill:Wind:
Aussen-T/F 576 21-07-2019 23:55:00 17.7 C 12.07 g/m*3 17.7 C 0 km/h
577 22-07-2019 00:00:00 17.6 C 12 g/m*3 17.6 C 0 km/h
578 22-07-2019 00:05:00 17.5 C 11.93 g/m*3 17.5 C 0 km/h
579 22-07-2019 00:10:00 17.4 C 11.86 g/m*3 17.4 C 0 km/h
580 22-07-2019 00:15:00 17.3 C 11.79 g/m*3 17.3 C 0 km/h
581 22-07-2019 00:20:00 17.1 C 11.79 g/m*3 17.1 C 0 km/h
582 22-07-2019 00:25:00 17.1 C 11.79 g/m*3 17.1 C 0 km/h
583 22-07-2019 00:30:00 16.9 C 11.65 g/m*3 16.9 C 0 km/h
584 22-07-2019 00:35:00 16.9 C 11.79 g/m*3 16.9 C 0 km/h
585 22-07-2019 00:40:00 16.9 C 11.79 g/m*3 16.9 C 0 km/h
586 22-07-2019 00:45:00 16.8 C 11.72 g/m*3 16.8 C 0 km/h
587 22-07-2019 00:50:00 16.7 C 11.65 g/m*3 16.7 C 0 km/h
588 22-07-2019 00:55:00 16.7 C 11.65 g/m*3 16.7 C 0 km/h
589 22-07-2019 01:00:00 16.5 C 11.51 g/m*3 16.5 C 0 km/h
590 22-07-2019 01:05:00 16.4 C 11.58 g/m*3 16.4 C 0 km/h
591 22-07-2019 01:10:00 16.4 C 11.58 g/m*3 16.4 C 0 km/h
592 22-07-2019 01:15:00 16.3 C 11.65 g/m*3 16.3 C 0 km/h
593 22-07-2019 01:20:00 16.3 C 11.65 g/m*3 16.3 C 0 km/h
594 22-07-2019 01:25:00 16.2 C 11.58 g/m*3 16.2 C 0 km/h
595 22-07-2019 01:30:00 16.2 C 11.58 g/m*3 16.2 C 0 km/h
596 22-07-2019 01:35:00 16.1 C 11.65 g/m*3 16.1 C 0 km/h
597 22-07-2019 01:40:00 16 C 11.58 g/m*3 16 C 0 km/h
598 22-07-2019 01:45:00 15.9 C 11.51 g/m*3 15.9 C 0 km/h
599 22-07-2019 01:50:00 15.8 C 11.44 g/m*3 15.8 C 0 km/h
600 22-07-2019 01:55:00 15.8 C 11.58 g/m*3 15.8 C 0 km/h
Sensor: Nr:Datum:Temp:Abs-Feuchte:Windchill:Wind:
Aussen-T/F 601 22-07-2019 02:00:00 15.7 C 11.51 g/m*3 15.7 C 0 km/h
602 22-07-2019 02:05:00 15.7 C 11.64 g/m*3 15.7 C 0 km/h
603 22-07-2019 02:10:00 15.7 C 11.64 g/m*3 15.7 C 0 km/h
604 22-07-2019 02:15:00 15.7 C 11.64 g/m*3 15.7 C 0 km/h
605 22-07-2019 02:20:00 15.7 C 11.64 g/m*3 15.7 C 0 km/h
606 22-07-2019 02:25:00 15.7 C 11.64 g/m*3 15.7 C 0 km/h
607 22-07-2019 02:30:00 15.6 C 11.7 g/m*3 15.6 C 0 km/h
608 22-07-2019 02:35:00 15.6 C 11.7 g/m*3 15.6 C 0 km/h
609 22-07-2019 02:40:00 15.6 C 11.7 g/m*3 15.6 C 0 km/h
610 22-07-2019 02:45:00 15.6 C 11.7 g/m*3 15.6 C 0 km/h
611 22-07-2019 02:50:00 15.6 C 11.7 g/m*3 15.6 C 0 km/h
612 22-07-2019 02:55:00 15.5 C 11.63 g/m*3 15.5 C 0 km/h
613 22-07-2019 03:00:00 15.5 C 11.63 g/m*3 15.5 C 0 km/h
614 22-07-2019 03:05:00 15.5 C 11.63 g/m*3 15.5 C 0 km/h
615 22-07-2019 03:10:00 15.5 C 11.63 g/m*3 15.5 C 0 km/h
616 22-07-2019 03:15:00 15.4 C 11.56 g/m*3 15.4 C 0 km/h
617 22-07-2019 03:20:00 15.4 C 11.56 g/m*3 15.4 C 0 km/h
618 22-07-2019 03:25:00 15.4 C 11.56 g/m*3 15.4 C 0 km/h
619 22-07-2019 03:30:00 15.3 C 11.49 g/m*3 15.3 C 0 km/h
620 22-07-2019 03:35:00 15.3 C 11.49 g/m*3 15.3 C 0 km/h
621 22-07-2019 03:40:00 15.2 C 11.55 g/m*3 15.2 C 0 km/h
622 22-07-2019 03:45:00 15.2 C 11.55 g/m*3 15.2 C 0 km/h
623 22-07-2019 03:50:00 15.2 C 11.55 g/m*3 15.2 C 0 km/h
624 22-07-2019 03:55:00 15.1 C 11.48 g/m*3 15.1 C 0 km/h
625 22-07-2019 04:00:00 15.1 C 11.48 g/m*3 15.1 C 0 km/h
Sensor: Nr:Datum:Temp:Abs-Feuchte:Windchill:Wind:
Aussen-T/F 626 22-07-2019 04:05:00 15 C 11.41 g/m*3 15 C 0 km/h
627 22-07-2019 04:10:00 14.9 C 11.34 g/m*3 14.9 C 0 km/h
628 22-07-2019 04:15:00 14.8 C 11.27 g/m*3 14.8 C 0 km/h
629 22-07-2019 04:20:00 14.8 C 11.27 g/m*3 14.8 C 0 km/h
630 22-07-2019 04:25:00 14.7 C 11.21 g/m*3 14.7 C 0 km/h
631 22-07-2019 04:30:00 14.7 C 11.33 g/m*3 14.7 C 0 km/h
632 22-07-2019 04:35:00 14.6 C 11.26 g/m*3 14.6 C 0 km/h
633 22-07-2019 04:40:00 14.6 C 11.26 g/m*3 14.6 C 0 km/h
634 22-07-2019 04:45:00 14.6 C 11.26 g/m*3 14.6 C 0 km/h
635 22-07-2019 04:50:00 14.6 C 11.26 g/m*3 14.6 C 0 km/h
636 22-07-2019 04:55:00 14.5 C 11.19 g/m*3 14.5 C 0 km/h
637 22-07-2019 05:00:00 14.4 C 11.13 g/m*3 14.4 C 0 km/h
638 22-07-2019 05:05:00 14.4 C 11.13 g/m*3 14.4 C 0 km/h
639 22-07-2019 05:10:00 14.4 C 11.25 g/m*3 14.4 C 0 km/h
640 22-07-2019 05:15:00 14.3 C 11.18 g/m*3 14.3 C 0 km/h
641 22-07-2019 05:20:00 14.4 C 11.25 g/m*3 14.4 C 0 km/h
642 22-07-2019 05:25:00 14.3 C 11.18 g/m*3 14.3 C 0 km/h
643 22-07-2019 05:30:00 14.3 C 11.18 g/m*3 14.3 C 0 km/h
644 22-07-2019 05:35:00 14.3 C 11.18 g/m*3 14.3 C 0 km/h
645 22-07-2019 05:40:00 14.2 C 11.11 g/m*3 14.2 C 0 km/h
646 22-07-2019 05:45:00 14.2 C 11.11 g/m*3 14.2 C 0 km/h
647 22-07-2019 05:50:00 14.2 C 11.11 g/m*3 14.2 C 0 km/h
648 22-07-2019 05:55:00 14.2 C 11.23 g/m*3 14.2 C 0 km/h
649 22-07-2019 06:00:00 14.2 C 11.23 g/m*3 14.2 C 0 km/h
650 22-07-2019 06:05:00 14.2 C 11.23 g/m*3 14.2 C 0 km/h
Sensor: Nr:Datum:Temp:Abs-Feuchte:Windchill:Wind:
Aussen-T/F 651 22-07-2019 06:10:00 14.3 C 11.3 g/m*3 14.3 C 0 km/h
652 22-07-2019 06:15:00 14.3 C 11.3 g/m*3 14.3 C 0 km/h
653 22-07-2019 06:20:00 14.2 C 11.11 g/m*3 14.2 C 0 km/h
654 22-07-2019 06:25:00 14.1 C 11.04 g/m*3 14.1 C 0 km/h
655 22-07-2019 06:30:00 14.1 C 11.17 g/m*3 14.1 C 0 km/h
656 22-07-2019 06:35:00 14.1 C 11.17 g/m*3 14.1 C 0 km/h
657 22-07-2019 06:40:00 14.1 C 11.17 g/m*3 14.1 C 0 km/h
658 22-07-2019 06:45:00 14.1 C 11.17 g/m*3 14.1 C 0 km/h
659 22-07-2019 06:50:00 14.2 C 11.23 g/m*3 14.2 C 0 km/h
660 22-07-2019 06:55:00 14.2 C 11.23 g/m*3 14.2 C 0 km/h
661 22-07-2019 07:00:00 14.3 C 11.43 g/m*3 14.3 C 0 km/h
662 22-07-2019 07:05:00 14.3 C 11.43 g/m*3 14.3 C 0 km/h
663 22-07-2019 07:10:00 14.3 C 11.43 g/m*3 14.3 C 0 km/h
664 22-07-2019 07:15:00 14.4 C 11.5 g/m*3 14.4 C 0 km/h
665 22-07-2019 07:20:00 14.5 C 11.57 g/m*3 14.5 C 0 km/h
666 22-07-2019 07:25:00 14.7 C 11.71 g/m*3 14.7 C 0 km/h
667 22-07-2019 07:30:00 14.8 C 11.78 g/m*3 14.8 C 0 km/h
668 22-07-2019 07:35:00 14.9 C 11.85 g/m*3 14.9 C 0 km/h
669 22-07-2019 07:40:00 14.9 C 11.85 g/m*3 14.9 C 0 km/h
670 22-07-2019 07:45:00 15.1 C 11.87 g/m*3 15.1 C 0 km/h
671 22-07-2019 07:50:00 15.2 C 11.94 g/m*3 15.2 C 0 km/h
672 22-07-2019 07:55:00 15.3 C 12.01 g/m*3 15.3 C 0 km/h
673 22-07-2019 08:00:00 15.4 C 12.09 g/m*3 15.4 C 0 km/h
674 22-07-2019 08:05:00 15.5 C 12.16 g/m*3 15.5 C 0 km/h
675 22-07-2019 08:10:00 15.6 C 12.23 g/m*3 15.6 C 0 km/h
Sensor: Nr:Datum:Temp:Abs-Feuchte:Windchill:Wind:
Aussen-T/F 676 22-07-2019 08:15:00 15.7 C 12.18 g/m*3 15.7 C 0 km/h
677 22-07-2019 08:20:00 16 C 12.4 g/m*3 16 C 0 km/h
678 22-07-2019 08:25:00 16.2 C 12.27 g/m*3 16.2 C 0 km/h
679 22-07-2019 08:30:00 16.4 C 12.28 g/m*3 16.4 C 0 km/h
680 22-07-2019 08:35:00 16.6 C 12.43 g/m*3 16.6 C 0 km/h
681 22-07-2019 08:40:00 16.8 C 12.44 g/m*3 16.8 C 0 km/h
682 22-07-2019 08:45:00 16.9 C 12.51 g/m*3 16.9 C 0 km/h
683 22-07-2019 08:50:00 17.1 C 12.66 g/m*3 17.1 C 0 km/h
684 22-07-2019 08:55:00 17.2 C 12.74 g/m*3 17.2 C 0 km/h
685 22-07-2019 09:00:00 17.3 C 12.82 g/m*3 17.3 C 0 km/h
686 22-07-2019 09:05:00 17.4 C 12.75 g/m*3 17.4 C 0 km/h
687 22-07-2019 09:10:00 17.6 C 12.75 g/m*3 17.6 C 0 km/h
688 22-07-2019 09:15:00 17.7 C 12.98 g/m*3 17.7 C 0 km/h
689 22-07-2019 09:20:00 17.9 C 12.98 g/m*3 17.9 C 0 km/h
690 22-07-2019 09:25:00 18.1 C 12.82 g/m*3 18.1 C 0 km/h
691 22-07-2019 09:30:00 18.3 C 12.98 g/m*3 18.3 C 0 km/h
692 22-07-2019 09:35:00 18.6 C 13.05 g/m*3 18.6 C 0 km/h
693 22-07-2019 09:40:00 18.8 C 13.37 g/m*3 18.8 C 0 km/h
694 22-07-2019 09:45:00 18.8 C 13.21 g/m*3 18.8 C 0 km/h
695 22-07-2019 09:50:00 18.9 C 13.45 g/m*3 18.9 C 0 km/h
696 22-07-2019 09:55:00 19.1 C 13.44 g/m*3 19.1 C 0 km/h
697 22-07-2019 10:00:00 19.3 C 13.6 g/m*3 19.3 C 0 km/h
698 22-07-2019 10:05:00 19.5 C 13.59 g/m*3 19.5 C 0 km/h
699 22-07-2019 10:10:00 19.7 C 13.41 g/m*3 19.7 C 0 km/h
700 22-07-2019 10:15:00 19.8 C 13.15 g/m*3 19.8 C 0 km/h
Sensor: Nr:Datum:Temp:Abs-Feuchte:Windchill:Wind:
Aussen-T/F 701 22-07-2019 10:20:00 20.2 C 13.29 g/m*3 20.2 C 0 km/h
702 22-07-2019 10:25:00 20.6 C 13.6 g/m*3 20.6 C 0 km/h
703 22-07-2019 10:30:00 20.8 C 13.58 g/m*3 20.8 C 0 km/h
704 22-07-2019 10:35:00 21.2 C 13.34 g/m*3 21.2 C 0 km/h
705 22-07-2019 10:40:00 21.6 C 13.47 g/m*3 21.6 C 0 km/h
706 22-07-2019 10:45:00 22 C 13.97 g/m*3 22 C 0 km/h
707 22-07-2019 10:50:00 22.3 C 13.23 g/m*3 22.3 C 0 km/h
708 22-07-2019 10:55:00 22.7 C 12.73 g/m*3 22.7 C 0 km/h
709 22-07-2019 11:00:00 23.1 C 12.4 g/m*3 23.1 C 0 km/h
710 22-07-2019 11:05:00 23.3 C 12.75 g/m*3 23.3 C 0 km/h
711 22-07-2019 11:10:00 23.4 C 12.62 g/m*3 23.4 C 3.2 km/h
712 22-07-2019 11:15:00 23.6 C 12.97 g/m*3 23.6 C 6.4 km/h
713 22-07-2019 11:20:00 23.7 C 12.62 g/m*3 23.7 C 4.8 km/h
714 22-07-2019 11:25:00 23.8 C 12.69 g/m*3 23.8 C 4.8 km/h
715 22-07-2019 11:30:00 24.1 C 12.69 g/m*3 24.1 C 8.1 km/h
716 22-07-2019 11:35:00 24.3 C 12.61 g/m*3 24.3 C 9.7 km/h
717 22-07-2019 11:40:00 24.4 C 12.46 g/m*3 24.4 C 6.4 km/h
718 22-07-2019 11:45:00 24.6 C 12.6 g/m*3 24.6 C 6.4 km/h
719 22-07-2019 11:50:00 24.8 C 12.52 g/m*3 24.8 C 4.8 km/h
720 22-07-2019 11:55:00 25 C 12.43 g/m*3 25 C 8.1 km/h
721 22-07-2019 12:00:00 25.1 C 12.5 g/m*3 25.1 C 11.3 km/h
722 22-07-2019 12:05:00 25.3 C 12.41 g/m*3 25.3 C 11.3 km/h
723 22-07-2019 12:10:00 25.3 C 12.41 g/m*3 25.3 C 11.3 km/h
724 22-07-2019 12:15:00 25.3 C 12.41 g/m*3 25.3 C 11.3 km/h
725 22-07-2019 12:20:00 25.4 C 12.48 g/m*3 25.4 C 6.4 km/h
Sensor: Nr:Datum:Temp:Abs-Feuchte:Windchill:Wind:
Aussen-T/F 726 22-07-2019 12:25:00 25.4 C 12.48 g/m*3 25.4 C 4.8 km/h
727 22-07-2019 12:30:00 25.5 C 12.55 g/m*3 25.5 C 6.4 km/h
728 22-07-2019 12:35:00 25.7 C 12.69 g/m*3 25.7 C 6.4 km/h
729 22-07-2019 12:40:00 25.9 C 12.59 g/m*3 25.9 C 8.1 km/h
730 22-07-2019 12:45:00 25.9 C 12.59 g/m*3 25.9 C 8.1 km/h
731 22-07-2019 12:50:00 25.9 C 12.35 g/m*3 25.9 C 12.9 km/h
732 22-07-2019 12:55:00 26 C 12.42 g/m*3 26 C 11.3 km/h
733 22-07-2019 13:00:00 26 C 12.42 g/m*3 26 C 9.7 km/h
734 22-07-2019 13:05:00 26 C 12.42 g/m*3 26 C 3.2 km/h
735 22-07-2019 13:10:00 26.1 C 12.49 g/m*3 26.1 C 8.1 km/h
736 22-07-2019 13:15:00 26.2 C 12.56 g/m*3 26.2 C 9.7 km/h
737 22-07-2019 13:20:00 26.2 C 12.31 g/m*3 26.2 C 8.1 km/h
738 22-07-2019 13:25:00 26.3 C 12.63 g/m*3 26.3 C 8.1 km/h
739 22-07-2019 13:30:00 26.3 C 12.63 g/m*3 26.3 C 9.7 km/h
740 22-07-2019 13:35:00 26.4 C 12.45 g/m*3 26.4 C 8.1 km/h
741 22-07-2019 13:40:00 26.6 C 12.59 g/m*3 26.6 C 6.4 km/h
742 22-07-2019 13:45:00 26.7 C 12.66 g/m*3 26.7 C 6.4 km/h
743 22-07-2019 13:50:00 27 C 12.61 g/m*3 27 C 6.4 km/h
744 22-07-2019 13:55:00 27.2 C 12.23 g/m*3 27.2 C 11.3 km/h
745 22-07-2019 14:00:00 27.2 C 12.49 g/m*3 27.2 C 1.6 km/h
746 22-07-2019 14:05:00 27.3 C 12.3 g/m*3 27.3 C 8.1 km/h
747 22-07-2019 14:10:00 27.4 C 12.1 g/m*3 27.4 C 9.7 km/h
748 22-07-2019 14:15:00 27.7 C 12.3 g/m*3 27.7 C 8.1 km/h
749 22-07-2019 14:20:00 27.7 C 12.04 g/m*3 27.7 C 6.4 km/h
750 22-07-2019 14:25:00 27.7 C 12.04 g/m*3 27.7 C 6.4 km/h
Sensor: Nr:Datum:Temp:Abs-Feuchte:Windchill:Wind:
Aussen-T/F 751 22-07-2019 14:30:00 27.7 C 12.04 g/m*3 27.7 C 1.6 km/h
752 22-07-2019 14:35:00 27.8 C 12.64 g/m*3 27.8 C 6.4 km/h
753 22-07-2019 14:40:00 28.1 C 12.58 g/m*3 28.1 C 8.1 km/h
754 22-07-2019 14:45:00 28.3 C 12.44 g/m*3 28.3 C 9.7 km/h
755 22-07-2019 14:50:00 28.2 C 12.37 g/m*3 28.2 C 8.1 km/h
756 22-07-2019 14:55:00 28.2 C 12.1 g/m*3 28.2 C 9.7 km/h
757 22-07-2019 15:00:00 28.3 C 12.44 g/m*3 28.3 C 11.3 km/h
758 22-07-2019 15:05:00 28.4 C 12.51 g/m*3 28.4 C 11.3 km/h
759 22-07-2019 15:10:00 28.6 C 12.65 g/m*3 28.6 C 11.3 km/h
760 22-07-2019 15:15:00 28.8 C 12.5 g/m*3 28.8 C 11.3 km/h
761 22-07-2019 15:20:00 28.9 C 12.57 g/m*3 28.9 C 8.1 km/h
762 22-07-2019 15:25:00 29.1 C 12.13 g/m*3 29.1 C 11.3 km/h
763 22-07-2019 15:30:00 29.2 C 12.2 g/m*3 29.2 C 11.3 km/h
764 22-07-2019 15:35:00 29.1 C 12.13 g/m*3 29.1 C 8.1 km/h
765 22-07-2019 15:40:00 29.2 C 12.78 g/m*3 29.2 C 8.1 km/h
766 22-07-2019 15:45:00 29.4 C 12.33 g/m*3 29.4 C 8.1 km/h
767 22-07-2019 15:50:00 29.7 C 12.23 g/m*3 29.7 C 8.1 km/h
768 22-07-2019 15:55:00 29.9 C 12.37 g/m*3 29.9 C 6.4 km/h
769 22-07-2019 16:00:00 30.2 C 12.57 g/m*3 30.2 C 4.8 km/h
770 22-07-2019 16:05:00 30.4 C 12.08 g/m*3 30.4 C 11.3 km/h
771 22-07-2019 16:10:00 30.7 C 12.6 g/m*3 30.7 C 12.9 km/h
772 22-07-2019 16:15:00 30.8 C 12.35 g/m*3 30.8 C 8.1 km/h
773 22-07-2019 16:20:00 30.9 C 12.1 g/m*3 30.9 C 12.9 km/h
774 22-07-2019 16:25:00 30.8 C 12.35 g/m*3 30.8 C 14.5 km/h
775 22-07-2019 16:30:00 30.9 C 12.1 g/m*3 30.9 C 12.9 km/h
Sensor: Nr:Datum:Temp:Abs-Feuchte:Windchill:Wind:
Aussen-T/F 776 22-07-2019 16:35:00 30.8 C 12.03 g/m*3 30.8 C 11.3 km/h
777 22-07-2019 16:40:00 30.7 C 12.28 g/m*3 30.7 C 9.7 km/h
778 22-07-2019 16:45:00 31 C 12.48 g/m*3 31 C 11.3 km/h
779 22-07-2019 16:50:00 31.2 C 12.29 g/m*3 31.2 C 9.7 km/h
780 22-07-2019 16:55:00 31.3 C 12.03 g/m*3 31.3 C 9.7 km/h
781 22-07-2019 17:00:00 31.4 C 12.42 g/m*3 31.4 C 9.7 km/h
782 22-07-2019 17:05:00 31.6 C 12.23 g/m*3 31.6 C 4.8 km/h
783 22-07-2019 17:10:00 31.3 C 12.03 g/m*3 31.3 C 12.9 km/h
784 22-07-2019 17:15:00 31.2 C 11.97 g/m*3 31.2 C 8.1 km/h
785 22-07-2019 17:20:00 31.2 C 11.97 g/m*3 31.2 C 6.4 km/h
786 22-07-2019 17:25:00 31.3 C 12.03 g/m*3 31.3 C 8.1 km/h
787 22-07-2019 17:30:00 31.3 C 12.03 g/m*3 31.3 C 8.1 km/h
788 22-07-2019 17:35:00 31.4 C 12.1 g/m*3 31.4 C 11.3 km/h
789 22-07-2019 17:40:00 31.7 C 12.29 g/m*3 31.7 C 9.7 km/h
790 22-07-2019 17:45:00 31.8 C 12.02 g/m*3 31.8 C 4.8 km/h
791 22-07-2019 17:50:00 31.9 C 12.09 g/m*3 31.9 C 4.8 km/h
792 22-07-2019 17:55:00 32.1 C 12.22 g/m*3 32.1 C 4.8 km/h
793 22-07-2019 18:00:00 32.1 C 11.88 g/m*3 32.1 C 9.7 km/h
794 22-07-2019 18:05:00 32 C 12.15 g/m*3 32 C 9.7 km/h
795 22-07-2019 18:10:00 32 C 12.15 g/m*3 32 C 11.3 km/h
796 22-07-2019 18:15:00 32.1 C 12.22 g/m*3 32.1 C 6.4 km/h
797 22-07-2019 18:20:00 32.1 C 12.22 g/m*3 32.1 C 9.7 km/h
798 22-07-2019 18:25:00 32.2 C 12.28 g/m*3 32.2 C 4.8 km/h
799 22-07-2019 18:30:00 32.3 C 12.01 g/m*3 32.3 C 3.2 km/h
800 22-07-2019 18:35:00 32.3 C 12.01 g/m*3 32.3 C 3.2 km/h
Sensor: Nr:Datum:Temp:Abs-Feuchte:Windchill:Wind:
Aussen-T/F 801 22-07-2019 18:40:00 32.6 C 12.2 g/m*3 32.6 C 1.6 km/h
802 22-07-2019 18:45:00 32.7 C 12.26 g/m*3 32.7 C 3.2 km/h
803 22-07-2019 18:50:00 32.8 C 11.98 g/m*3 32.8 C 6.4 km/h
804 22-07-2019 18:55:00 32.6 C 12.2 g/m*3 32.6 C 9.7 km/h
805 22-07-2019 19:00:00 32.3 C 12.35 g/m*3 32.3 C 6.4 km/h
806 22-07-2019 19:05:00 32.3 C 12.01 g/m*3 32.3 C 6.4 km/h
807 22-07-2019 19:10:00 32.2 C 11.6 g/m*3 32.2 C 8.1 km/h
808 22-07-2019 19:15:00 32 C 11.82 g/m*3 32 C 6.4 km/h
809 22-07-2019 19:20:00 31.9 C 11.75 g/m*3 31.9 C 3.2 km/h
810 22-07-2019 19:25:00 31.9 C 12.09 g/m*3 31.9 C 6.4 km/h
811 22-07-2019 19:30:00 31.7 C 11.96 g/m*3 31.7 C 11.3 km/h
812 22-07-2019 19:35:00 31.2 C 11.97 g/m*3 31.2 C 9.7 km/h
813 22-07-2019 19:40:00 30.8 C 11.71 g/m*3 30.8 C 8.1 km/h
814 22-07-2019 19:45:00 30.7 C 11.97 g/m*3 30.7 C 6.4 km/h
815 22-07-2019 19:50:00 30.4 C 11.77 g/m*3 30.4 C 6.4 km/h
816 22-07-2019 19:55:00 30.3 C 12.02 g/m*3 30.3 C 9.7 km/h
817 22-07-2019 20:00:00 30.2 C 12.26 g/m*3 30.2 C 6.4 km/h
818 22-07-2019 20:05:00 30.1 C 12.2 g/m*3 30.1 C 4.8 km/h
819 22-07-2019 20:10:00 30 C 12.13 g/m*3 30 C 4.8 km/h
820 22-07-2019 20:15:00 29.9 C 12.06 g/m*3 29.9 C 8.1 km/h
821 22-07-2019 20:20:00 29.8 C 12 g/m*3 29.8 C 6.4 km/h
822 22-07-2019 20:25:00 29.7 C 12.53 g/m*3 29.7 C 8.1 km/h
823 22-07-2019 20:30:00 29.4 C 12.33 g/m*3 29.4 C 9.7 km/h
824 22-07-2019 20:35:00 29.3 C 12.55 g/m*3 29.3 C 4.8 km/h
825 22-07-2019 20:40:00 29.1 C 12.71 g/m*3 29.1 C 11.3 km/h
Sensor: Nr:Datum:Temp:Abs-Feuchte:Windchill:Wind:
Aussen-T/F 826 22-07-2019 20:45:00 28.8 C 12.79 g/m*3 28.8 C 6.4 km/h
827 22-07-2019 20:50:00 28.6 C 13.49 g/m*3 28.6 C 3.2 km/h
828 22-07-2019 20:55:00 28.2 C 14.02 g/m*3 28.2 C 4.8 km/h
829 22-07-2019 21:00:00 27.9 C 13.79 g/m*3 27.9 C 0 km/h
830 22-07-2019 21:05:00 27.4 C 13.68 g/m*3 27.4 C 0 km/h
831 22-07-2019 21:10:00 26.9 C 13.56 g/m*3 26.9 C 0 km/h
832 22-07-2019 21:15:00 26.4 C 13.69 g/m*3 26.4 C 0 km/h
833 22-07-2019 21:20:00 26 C 13.63 g/m*3 26 C 0 km/h
834 22-07-2019 21:25:00 25.6 C 13.57 g/m*3 25.6 C 0 km/h
835 22-07-2019 21:30:00 25.2 C 13.27 g/m*3 25.2 C 0 km/h
836 22-07-2019 21:35:00 24.8 C 13.2 g/m*3 24.8 C 0 km/h
837 22-07-2019 21:40:00 24.6 C 13.05 g/m*3 24.6 C 0 km/h
838 22-07-2019 21:45:00 24.3 C 13.28 g/m*3 24.3 C 0 km/h
839 22-07-2019 21:50:00 24.1 C 13.13 g/m*3 24.1 C 0 km/h
840 22-07-2019 21:55:00 23.9 C 13.2 g/m*3 23.9 C 0 km/h
841 22-07-2019 22:00:00 23.7 C 13.05 g/m*3 23.7 C 0 km/h
842 22-07-2019 22:05:00 23.6 C 12.97 g/m*3 23.6 C 0 km/h
843 22-07-2019 22:10:00 23.4 C 13.04 g/m*3 23.4 C 0 km/h
844 22-07-2019 22:15:00 23.3 C 12.96 g/m*3 23.3 C 0 km/h
845 22-07-2019 22:20:00 23.1 C 12.82 g/m*3 23.1 C 0 km/h
846 22-07-2019 22:25:00 22.9 C 12.88 g/m*3 22.9 C 0 km/h
847 22-07-2019 22:30:00 22.8 C 13 g/m*3 22.8 C 0 km/h
848 22-07-2019 22:35:00 22.6 C 13.06 g/m*3 22.6 C 0 km/h
849 22-07-2019 22:40:00 22.4 C 13.11 g/m*3 22.4 C 0 km/h
850 22-07-2019 22:45:00 22.3 C 13.03 g/m*3 22.3 C 0 km/h
Sensor: Nr:Datum:Temp:Abs-Feuchte:Windchill:Wind:
Aussen-T/F 851 22-07-2019 22:50:00 22.1 C 12.88 g/m*3 22.1 C 0 km/h
852 22-07-2019 22:55:00 22 C 12.81 g/m*3 22 C 0 km/h
853 22-07-2019 23:00:00 21.9 C 12.93 g/m*3 21.9 C 0 km/h
854 22-07-2019 23:05:00 21.7 C 12.97 g/m*3 21.7 C 0 km/h
855 22-07-2019 23:10:00 21.4 C 12.94 g/m*3 21.4 C 0 km/h
856 22-07-2019 23:15:00 21.2 C 12.97 g/m*3 21.2 C 0 km/h
857 22-07-2019 23:20:00 21.1 C 12.9 g/m*3 21.1 C 0 km/h
858 22-07-2019 23:25:00 21 C 13.01 g/m*3 21 C 0 km/h
859 22-07-2019 23:30:00 20.8 C 13.04 g/m*3 20.8 C 0 km/h
860 22-07-2019 23:35:00 20.7 C 12.96 g/m*3 20.7 C 0 km/h
861 22-07-2019 23:40:00 20.5 C 12.81 g/m*3 20.5 C 0 km/h
862 22-07-2019 23:45:00 20.4 C 12.91 g/m*3 20.4 C 0 km/h
863 22-07-2019 23:50:00 20.3 C 13.01 g/m*3 20.3 C 0 km/h
864 22-07-2019 23:55:00 20.1 C 12.86 g/m*3 20.1 C 0 km/h
865 23-07-2019 00:00:00 20 C 12.96 g/m*3 20 C 0 km/h
866 23-07-2019 00:05:00 19.8 C 12.81 g/m*3 19.8 C 0 km/h
867 23-07-2019 00:10:00 19.8 C 12.81 g/m*3 19.8 C 0 km/h
868 23-07-2019 00:15:00 19.6 C 12.66 g/m*3 19.6 C 0 km/h
869 23-07-2019 00:20:00 19.5 C 12.75 g/m*3 19.5 C 0 km/h
870 23-07-2019 00:25:00 19.4 C 12.68 g/m*3 19.4 C 0 km/h
871 23-07-2019 00:30:00 19.3 C 12.61 g/m*3 19.3 C 0 km/h
872 23-07-2019 00:35:00 19.2 C 12.7 g/m*3 19.2 C 0 km/h
873 23-07-2019 00:40:00 19.2 C 12.7 g/m*3 19.2 C 0 km/h
874 23-07-2019 00:45:00 19.1 C 12.62 g/m*3 19.1 C 0 km/h
875 23-07-2019 00:50:00 19 C 12.71 g/m*3 19 C 0 km/h
Sensor: Nr:Datum:Temp:Abs-Feuchte:Windchill:Wind:
Aussen-T/F 876 23-07-2019 00:55:00 18.9 C 12.64 g/m*3 18.9 C 0 km/h
877 23-07-2019 01:00:00 18.8 C 12.56 g/m*3 18.8 C 0 km/h
878 23-07-2019 01:05:00 18.8 C 12.56 g/m*3 18.8 C 0 km/h
879 23-07-2019 01:10:00 18.7 C 12.65 g/m*3 18.7 C 0 km/h
880 23-07-2019 01:15:00 18.6 C 12.57 g/m*3 18.6 C 0 km/h
881 23-07-2019 01:20:00 18.5 C 12.66 g/m*3 18.5 C 0 km/h
882 23-07-2019 01:25:00 18.4 C 12.58 g/m*3 18.4 C 0 km/h
883 23-07-2019 01:30:00 18.3 C 12.51 g/m*3 18.3 C 0 km/h
884 23-07-2019 01:35:00 18.2 C 12.43 g/m*3 18.2 C 0 km/h
885 23-07-2019 01:40:00 18.2 C 12.59 g/m*3 18.2 C 0 km/h
886 23-07-2019 01:45:00 18.1 C 12.52 g/m*3 18.1 C 0 km/h
887 23-07-2019 01:50:00 18 C 12.44 g/m*3 18 C 0 km/h
888 23-07-2019 01:55:00 17.9 C 12.37 g/m*3 17.9 C 0 km/h
889 23-07-2019 02:00:00 17.9 C 12.37 g/m*3 17.9 C 0 km/h
890 23-07-2019 02:05:00 17.8 C 12.45 g/m*3 17.8 C 0 km/h
891 23-07-2019 02:10:00 17.8 C 12.45 g/m*3 17.8 C 0 km/h
892 23-07-2019 02:15:00 17.7 C 12.37 g/m*3 17.7 C 0 km/h
893 23-07-2019 02:20:00 17.7 C 12.37 g/m*3 17.7 C 0 km/h
894 23-07-2019 02:25:00 17.6 C 12.3 g/m*3 17.6 C 0 km/h
895 23-07-2019 02:30:00 17.5 C 12.37 g/m*3 17.5 C 0 km/h
896 23-07-2019 02:35:00 17.4 C 12.3 g/m*3 17.4 C 0 km/h
897 23-07-2019 02:40:00 17.4 C 12.3 g/m*3 17.4 C 0 km/h
898 23-07-2019 02:45:00 17.3 C 12.23 g/m*3 17.3 C 0 km/h
899 23-07-2019 02:50:00 17.3 C 12.23 g/m*3 17.3 C 0 km/h
900 23-07-2019 02:55:00 17.3 C 12.37 g/m*3 17.3 C 0 km/h
Sensor: Nr:Datum:Temp:Abs-Feuchte:Windchill:Wind:
Aussen-T/F 901 23-07-2019 03:00:00 17.2 C 12.3 g/m*3 17.2 C 0 km/h
902 23-07-2019 03:05:00 17.1 C 12.23 g/m*3 17.1 C 0 km/h
903 23-07-2019 03:10:00 16.9 C 12.08 g/m*3 16.9 C 0 km/h
904 23-07-2019 03:15:00 16.9 C 12.23 g/m*3 16.9 C 0 km/h
905 23-07-2019 03:20:00 16.9 C 12.23 g/m*3 16.9 C 0 km/h
906 23-07-2019 03:25:00 16.9 C 12.23 g/m*3 16.9 C 0 km/h
907 23-07-2019 03:30:00 16.8 C 12.15 g/m*3 16.8 C 0 km/h
908 23-07-2019 03:35:00 16.8 C 12.15 g/m*3 16.8 C 0 km/h
909 23-07-2019 03:40:00 16.7 C 12.22 g/m*3 16.7 C 0 km/h
910 23-07-2019 03:45:00 16.7 C 12.22 g/m*3 16.7 C 0 km/h
911 23-07-2019 03:50:00 16.6 C 12.15 g/m*3 16.6 C 0 km/h
912 23-07-2019 03:55:00 16.6 C 12.15 g/m*3 16.6 C 0 km/h
913 23-07-2019 04:00:00 16.6 C 12.15 g/m*3 16.6 C 0 km/h
914 23-07-2019 04:05:00 16.5 C 12.22 g/m*3 16.5 C 0 km/h
915 23-07-2019 04:10:00 16.4 C 12.14 g/m*3 16.4 C 0 km/h
916 23-07-2019 04:15:00 16.4 C 12.14 g/m*3 16.4 C 0 km/h
917 23-07-2019 04:20:00 16.3 C 12.07 g/m*3 16.3 C 0 km/h
918 23-07-2019 04:25:00 16.3 C 12.07 g/m*3 16.3 C 0 km/h
919 23-07-2019 04:30:00 16.2 C 12.14 g/m*3 16.2 C 0 km/h
920 23-07-2019 04:35:00 16.2 C 12.14 g/m*3 16.2 C 0 km/h
921 23-07-2019 04:40:00 16.2 C 12.14 g/m*3 16.2 C 0 km/h
922 23-07-2019 04:45:00 16.2 C 12.14 g/m*3 16.2 C 0 km/h
923 23-07-2019 04:50:00 16.1 C 12.06 g/m*3 16.1 C 0 km/h
924 23-07-2019 04:55:00 16.1 C 12.06 g/m*3 16.1 C 0 km/h
925 23-07-2019 05:00:00 16.1 C 12.06 g/m*3 16.1 C 0 km/h
Sensor: Nr:Datum:Temp:Abs-Feuchte:Windchill:Wind:
Aussen-T/F 926 23-07-2019 05:05:00 16 C 12.13 g/m*3 16 C 0 km/h
927 23-07-2019 05:10:00 16 C 12.13 g/m*3 16 C 0 km/h
928 23-07-2019 05:15:00 15.9 C 12.05 g/m*3 15.9 C 0 km/h
929 23-07-2019 05:20:00 15.9 C 12.05 g/m*3 15.9 C 0 km/h
930 23-07-2019 05:25:00 15.8 C 11.98 g/m*3 15.8 C 0 km/h
931 23-07-2019 05:30:00 15.8 C 11.98 g/m*3 15.8 C 0 km/h
932 23-07-2019 05:35:00 15.8 C 11.98 g/m*3 15.8 C 0 km/h
933 23-07-2019 05:40:00 15.7 C 11.91 g/m*3 15.7 C 0 km/h
934 23-07-2019 05:45:00 15.7 C 11.91 g/m*3 15.7 C 0 km/h
935 23-07-2019 05:50:00 15.6 C 11.97 g/m*3 15.6 C 0 km/h
936 23-07-2019 05:55:00 15.6 C 11.97 g/m*3 15.6 C 0 km/h
937 23-07-2019 06:00:00 15.6 C 11.97 g/m*3 15.6 C 0 km/h
938 23-07-2019 06:05:00 15.6 C 11.97 g/m*3 15.6 C 0 km/h
939 23-07-2019 06:10:00 15.6 C 12.1 g/m*3 15.6 C 0 km/h
940 23-07-2019 06:15:00 15.6 C 12.1 g/m*3 15.6 C 0 km/h
941 23-07-2019 06:20:00 15.6 C 12.1 g/m*3 15.6 C 0 km/h
942 23-07-2019 06:25:00 15.6 C 12.1 g/m*3 15.6 C 0 km/h
943 23-07-2019 06:30:00 15.7 C 12.18 g/m*3 15.7 C 0 km/h
944 23-07-2019 06:35:00 15.7 C 12.18 g/m*3 15.7 C 0 km/h
945 23-07-2019 06:40:00 15.7 C 12.18 g/m*3 15.7 C 0 km/h
946 23-07-2019 06:45:00 15.7 C 12.18 g/m*3 15.7 C 0 km/h
947 23-07-2019 06:50:00 15.7 C 12.18 g/m*3 15.7 C 0 km/h
948 23-07-2019 06:55:00 15.8 C 12.25 g/m*3 15.8 C 0 km/h
949 23-07-2019 07:00:00 15.8 C 12.25 g/m*3 15.8 C 0 km/h
950 23-07-2019 07:05:00 15.9 C 12.32 g/m*3 15.9 C 0 km/h
Sensor: Nr:Datum:Temp:Abs-Feuchte:Windchill:Wind:
Aussen-T/F 951 23-07-2019 07:10:00 16 C 12.4 g/m*3 16 C 0 km/h
952 23-07-2019 07:15:00 16.1 C 12.47 g/m*3 16.1 C 0 km/h
953 23-07-2019 07:20:00 16.1 C 12.47 g/m*3 16.1 C 0 km/h
954 23-07-2019 07:25:00 16.1 C 12.47 g/m*3 16.1 C 0 km/h
955 23-07-2019 07:30:00 16.1 C 12.47 g/m*3 16.1 C 0 km/h
956 23-07-2019 07:35:00 16.2 C 12.55 g/m*3 16.2 C 0 km/h
957 23-07-2019 07:40:00 16.2 C 12.55 g/m*3 16.2 C 0 km/h
958 23-07-2019 07:45:00 16.2 C 12.55 g/m*3 16.2 C 0 km/h
959 23-07-2019 07:50:00 16.3 C 12.62 g/m*3 16.3 C 0 km/h
960 23-07-2019 07:55:00 16.3 C 12.62 g/m*3 16.3 C 0 km/h
961 23-07-2019 08:00:00 16.4 C 12.7 g/m*3 16.4 C 0 km/h
962 23-07-2019 08:05:00 16.4 C 12.7 g/m*3 16.4 C 0 km/h
963 23-07-2019 08:10:00 16.5 C 12.78 g/m*3 16.5 C 0 km/h
964 23-07-2019 08:15:00 16.6 C 12.86 g/m*3 16.6 C 0 km/h
965 23-07-2019 08:20:00 16.7 C 12.93 g/m*3 16.7 C 0 km/h
966 23-07-2019 08:25:00 16.7 C 12.93 g/m*3 16.7 C 0 km/h
967 23-07-2019 08:30:00 16.8 C 13.01 g/m*3 16.8 C 0 km/h
968 23-07-2019 08:35:00 16.9 C 12.94 g/m*3 16.9 C 0 km/h
969 23-07-2019 08:40:00 17.1 C 13.1 g/m*3 17.1 C 0 km/h
970 23-07-2019 08:45:00 17.2 C 13.18 g/m*3 17.2 C 0 km/h
971 23-07-2019 08:50:00 17.3 C 13.26 g/m*3 17.3 C 0 km/h
972 23-07-2019 08:55:00 17.4 C 13.34 g/m*3 17.4 C 0 km/h
973 23-07-2019 09:00:00 17.6 C 13.5 g/m*3 17.6 C 0 km/h
974 23-07-2019 09:05:00 17.7 C 13.43 g/m*3 17.7 C 0 km/h
975 23-07-2019 09:10:00 17.8 C 13.51 g/m*3 17.8 C 0 km/h
Sensor: Nr:Datum:Temp:Abs-Feuchte:Windchill:Wind:
Aussen-T/F 976 23-07-2019 09:15:00 18.1 C 13.75 g/m*3 18.1 C 0 km/h
977 23-07-2019 09:20:00 18.3 C 13.76 g/m*3 18.3 C 0 km/h
978 23-07-2019 09:25:00 18.6 C 14.01 g/m*3 18.6 C 0 km/h
979 23-07-2019 09:30:00 18.8 C 14.01 g/m*3 18.8 C 0 km/h
980 23-07-2019 09:35:00 19 C 14.18 g/m*3 19 C 0 km/h
981 23-07-2019 09:40:00 19.2 C 14.18 g/m*3 19.2 C 0 km/h
982 23-07-2019 09:45:00 19.5 C 14.27 g/m*3 19.5 C 0 km/h
983 23-07-2019 09:50:00 19.8 C 14.35 g/m*3 19.8 C 0 km/h
984 23-07-2019 09:55:00 20.1 C 14.43 g/m*3 20.1 C 0 km/h
985 23-07-2019 10:00:00 20.4 C 14.68 g/m*3 20.4 C 0 km/h
986 23-07-2019 10:05:00 20.7 C 14.58 g/m*3 20.7 C 0 km/h
987 23-07-2019 10:10:00 21.1 C 14.74 g/m*3 21.1 C 0 km/h
988 23-07-2019 10:15:00 21.3 C 14.73 g/m*3 21.3 C 0 km/h
989 23-07-2019 10:20:00 21.6 C 14.98 g/m*3 21.6 C 0 km/h
990 23-07-2019 10:25:00 21.9 C 14.86 g/m*3 21.9 C 0 km/h
991 23-07-2019 10:30:00 22.3 C 15.2 g/m*3 22.3 C 0 km/h
992 23-07-2019 10:35:00 22.7 C 15.36 g/m*3 22.7 C 0 km/h
993 23-07-2019 10:40:00 23.2 C 15.18 g/m*3 23.2 C 0 km/h
994 23-07-2019 10:45:00 23.8 C 14.2 g/m*3 23.8 C 8.1 km/h
995 23-07-2019 10:50:00 24.8 C 15.02 g/m*3 24.8 C 8.1 km/h
996 23-07-2019 10:55:00 25.3 C 14.75 g/m*3 25.3 C 3.2 km/h
997 23-07-2019 11:00:00 25.6 C 14.52 g/m*3 25.6 C 3.2 km/h
998 23-07-2019 11:05:00 25.9 C 14.04 g/m*3 25.9 C 4.8 km/h
999 23-07-2019 11:10:00 26.4 C 14.19 g/m*3 26.4 C 6.4 km/h
1000 23-07-2019 11:15:00 26.9 C 14.59 g/m*3 26.9 C 6.4 km/h
Sensor: Nr:Datum:Temp:Abs-Feuchte:Windchill:Wind:
Aussen-T/F 1001 23-07-2019 11:20:00 27.1 C 14.75 g/m*3 27.1 C 3.2 km/h
1002 23-07-2019 11:25:00 27.1 C 13.72 g/m*3 27.1 C 4.8 km/h
1003 23-07-2019 11:30:00 27.4 C 13.94 g/m*3 27.4 C 6.4 km/h
1004 23-07-2019 11:35:00 27.8 C 13.72 g/m*3 27.8 C 9.7 km/h
1005 23-07-2019 11:40:00 28.1 C 13.4 g/m*3 28.1 C 9.7 km/h
1006 23-07-2019 11:45:00 28.4 C 13.34 g/m*3 28.4 C 9.7 km/h
1007 23-07-2019 11:50:00 28.7 C 13.28 g/m*3 28.7 C 11.3 km/h
1008 23-07-2019 11:55:00 28.8 C 13.92 g/m*3 28.8 C 11.3 km/h
1009 23-07-2019 12:00:00 28.9 C 13.43 g/m*3 28.9 C 9.7 km/h
1010 23-07-2019 12:05:00 29.1 C 13 g/m*3 29.1 C 11.3 km/h
1011 23-07-2019 12:10:00 29.2 C 13.36 g/m*3 29.2 C 11.3 km/h
1012 23-07-2019 12:15:00 29.3 C 13.14 g/m*3 29.3 C 8.1 km/h
1013 23-07-2019 12:20:00 29.4 C 13.5 g/m*3 29.4 C 6.4 km/h
1014 23-07-2019 12:25:00 29.5 C 12.99 g/m*3 29.5 C 12.9 km/h
1015 23-07-2019 12:30:00 29.6 C 13.06 g/m*3 29.6 C 8.1 km/h
1016 23-07-2019 12:35:00 29.8 C 12.6 g/m*3 29.8 C 9.7 km/h
1017 23-07-2019 12:40:00 29.9 C 12.97 g/m*3 29.9 C 14.5 km/h
1018 23-07-2019 12:45:00 30 C 12.74 g/m*3 30 C 16.1 km/h
1019 23-07-2019 12:50:00 30.2 C 13.18 g/m*3 30.2 C 16.1 km/h
1020 23-07-2019 12:55:00 30.2 C 12.57 g/m*3 30.2 C 14.5 km/h
1021 23-07-2019 13:00:00 30.3 C 12.64 g/m*3 30.3 C 11.3 km/h
1022 23-07-2019 13:05:00 30.3 C 12.94 g/m*3 30.3 C 9.7 km/h
1023 23-07-2019 13:10:00 30.4 C 12.7 g/m*3 30.4 C 11.3 km/h
1024 23-07-2019 13:15:00 30.6 C 12.53 g/m*3 30.6 C 9.7 km/h
1025 23-07-2019 13:20:00 30.6 C 12.53 g/m*3 30.6 C 4.8 km/h
Sensor: Nr:Datum:Temp:Abs-Feuchte:Windchill:Wind:
Aussen-T/F 1026 23-07-2019 13:25:00 30.7 C 12.6 g/m*3 30.7 C 8.1 km/h
1027 23-07-2019 13:30:00 30.8 C 12.66 g/m*3 30.8 C 9.7 km/h
1028 23-07-2019 13:35:00 30.9 C 12.41 g/m*3 30.9 C 20.9 km/h
1029 23-07-2019 13:40:00 31.1 C 12.23 g/m*3 31.1 C 20.9 km/h
1030 23-07-2019 13:45:00 31.2 C 12.94 g/m*3 31.2 C 6.4 km/h
1031 23-07-2019 13:50:00 31.2 C 12.94 g/m*3 31.2 C 6.4 km/h
1032 23-07-2019 13:55:00 31.3 C 12.36 g/m*3 31.3 C 4.8 km/h
1033 23-07-2019 14:00:00 31.3 C 12.68 g/m*3 31.3 C 1.6 km/h
1034 23-07-2019 14:05:00 31.4 C 12.42 g/m*3 31.4 C 4.8 km/h
1035 23-07-2019 14:10:00 31.7 C 12.96 g/m*3 31.7 C 11.3 km/h
1036 23-07-2019 14:15:00 31.9 C 12.76 g/m*3 31.9 C 11.3 km/h
1037 23-07-2019 14:20:00 32.1 C 12.9 g/m*3 32.1 C 9.7 km/h
1038 23-07-2019 14:25:00 32.2 C 12.62 g/m*3 32.2 C 9.7 km/h
1039 23-07-2019 14:30:00 32.3 C 12.35 g/m*3 32.3 C 14.5 km/h
1040 23-07-2019 14:35:00 32.3 C 12.35 g/m*3 32.3 C 12.9 km/h
1041 23-07-2019 14:40:00 32.4 C 12.41 g/m*3 32.4 C 11.3 km/h
1042 23-07-2019 14:45:00 32.5 C 12.48 g/m*3 32.5 C 6.4 km/h
1043 23-07-2019 14:50:00 32.6 C 12.9 g/m*3 32.6 C 6.4 km/h
1044 23-07-2019 14:55:00 32.7 C 12.61 g/m*3 32.7 C 8.1 km/h
1045 23-07-2019 15:00:00 32.8 C 13.03 g/m*3 32.8 C 8.1 km/h
1046 23-07-2019 15:05:00 33.1 C 13.6 g/m*3 33.1 C 9.7 km/h
1047 23-07-2019 15:10:00 33.2 C 13.31 g/m*3 33.2 C 8.1 km/h
1048 23-07-2019 15:15:00 33.4 C 13.09 g/m*3 33.4 C 12.9 km/h
1049 23-07-2019 15:20:00 33.6 C 13.23 g/m*3 33.6 C 6.4 km/h
1050 23-07-2019 15:25:00 33.8 C 12.62 g/m*3 33.8 C 9.7 km/h
Sensor: Nr:Datum:Temp:Abs-Feuchte:Windchill:Wind:
Aussen-T/F 1051 23-07-2019 15:30:00 33.8 C 12.62 g/m*3 33.8 C 8.1 km/h
1052 23-07-2019 15:35:00 34 C 12.76 g/m*3 34 C 6.4 km/h
1053 23-07-2019 15:40:00 34.4 C 13.03 g/m*3 34.4 C 9.7 km/h
1054 23-07-2019 15:45:00 34.7 C 13.23 g/m*3 34.7 C 11.3 km/h
1055 23-07-2019 15:50:00 34.9 C 12.98 g/m*3 34.9 C 4.8 km/h
1056 23-07-2019 15:55:00 35.2 C 13.58 g/m*3 35.2 C 9.7 km/h
1057 23-07-2019 16:00:00 35.5 C 12.98 g/m*3 35.5 C 4.8 km/h
1058 23-07-2019 16:05:00 35.6 C 13.05 g/m*3 35.6 C 6.4 km/h
1059 23-07-2019 16:10:00 35.6 C 12.23 g/m*3 35.6 C 9.7 km/h
1060 23-07-2019 16:15:00 35.6 C 13.46 g/m*3 35.6 C 3.2 km/h
1061 23-07-2019 16:20:00 35.8 C 12.77 g/m*3 35.8 C 8.1 km/h
1062 23-07-2019 16:25:00 35.9 C 12.84 g/m*3 35.9 C 4.8 km/h
1063 23-07-2019 16:30:00 36.1 C 12.56 g/m*3 36.1 C 6.4 km/h
1064 23-07-2019 16:35:00 36 C 12.91 g/m*3 36 C 6.4 km/h
1065 23-07-2019 16:40:00 35.8 C 12.77 g/m*3 35.8 C 12.9 km/h
1066 23-07-2019 16:45:00 35.8 C 12.36 g/m*3 35.8 C 9.7 km/h
1067 23-07-2019 16:50:00 35.8 C 12.36 g/m*3 35.8 C 6.4 km/h
1068 23-07-2019 16:55:00 36.1 C 12.56 g/m*3 36.1 C 8.1 km/h
1069 23-07-2019 17:00:00 36.1 C 12.14 g/m*3 36.1 C 6.4 km/h
1070 23-07-2019 17:05:00 36.3 C 12.69 g/m*3 36.3 C 4.8 km/h
1071 23-07-2019 17:10:00 36.4 C 12.33 g/m*3 36.4 C 8.1 km/h
1072 23-07-2019 17:15:00 36.3 C 11.84 g/m*3 36.3 C 8.1 km/h
1073 23-07-2019 17:20:00 36.3 C 12.26 g/m*3 36.3 C 4.8 km/h
1074 23-07-2019 17:25:00 36.4 C 12.33 g/m*3 36.4 C 6.4 km/h
1075 23-07-2019 17:30:00 36.4 C 12.33 g/m*3 36.4 C 11.3 km/h
Sensor: Nr:Datum:Temp:Abs-Feuchte:Windchill:Wind:
Aussen-T/F 1076 23-07-2019 17:35:00 36.5 C 11.96 g/m*3 36.5 C 8.1 km/h
1077 23-07-2019 17:40:00 36.6 C 12.02 g/m*3 36.6 C 8.1 km/h
1078 23-07-2019 17:45:00 36.6 C 12.02 g/m*3 36.6 C 9.7 km/h
1079 23-07-2019 17:50:00 36.3 C 11.84 g/m*3 36.3 C 9.7 km/h
1080 23-07-2019 17:55:00 36.4 C 12.33 g/m*3 36.4 C 8.1 km/h
1081 23-07-2019 18:00:00 36.7 C 12.95 g/m*3 36.7 C 8.1 km/h
1082 23-07-2019 18:05:00 36.8 C 12.15 g/m*3 36.8 C 11.3 km/h
1083 23-07-2019 18:10:00 36.8 C 12.15 g/m*3 36.8 C 6.4 km/h
1084 23-07-2019 18:15:00 36.7 C 12.52 g/m*3 36.7 C 8.1 km/h
1085 23-07-2019 18:20:00 37 C 12.27 g/m*3 37 C 3.2 km/h
1086 23-07-2019 18:25:00 36.9 C 11.77 g/m*3 36.9 C 9.7 km/h
1087 23-07-2019 18:30:00 36.8 C 12.15 g/m*3 36.8 C 4.8 km/h
1088 23-07-2019 18:35:00 36.8 C 12.58 g/m*3 36.8 C 6.4 km/h
1089 23-07-2019 18:40:00 36.9 C 12.65 g/m*3 36.9 C 6.4 km/h
1090 23-07-2019 18:45:00 36.9 C 11.77 g/m*3 36.9 C 9.7 km/h
1091 23-07-2019 18:50:00 36.6 C 12.45 g/m*3 36.6 C 6.4 km/h
1092 23-07-2019 18:55:00 36.3 C 12.26 g/m*3 36.3 C 9.7 km/h
1093 23-07-2019 19:00:00 36.2 C 12.2 g/m*3 36.2 C 6.4 km/h
1094 23-07-2019 19:05:00 36.2 C 12.2 g/m*3 36.2 C 4.8 km/h
1095 23-07-2019 19:10:00 36.3 C 12.26 g/m*3 36.3 C 4.8 km/h
1096 23-07-2019 19:15:00 36.3 C 12.69 g/m*3 36.3 C 9.7 km/h
1097 23-07-2019 19:20:00 36.1 C 11.72 g/m*3 36.1 C 8.1 km/h
1098 23-07-2019 19:25:00 35.8 C 12.77 g/m*3 35.8 C 6.4 km/h
1099 23-07-2019 19:30:00 35.6 C 12.23 g/m*3 35.6 C 4.8 km/h
1100 23-07-2019 19:35:00 35.4 C 12.51 g/m*3 35.4 C 4.8 km/h
Sensor: Nr:Datum:Temp:Abs-Feuchte:Windchill:Wind:
Aussen-T/F 1101 23-07-2019 19:40:00 35.2 C 11.98 g/m*3 35.2 C 4.8 km/h
1102 23-07-2019 19:45:00 35 C 13.05 g/m*3 35 C 6.4 km/h
1103 23-07-2019 19:50:00 34.9 C 14.16 g/m*3 34.9 C 4.8 km/h
1104 23-07-2019 19:55:00 34.7 C 13.23 g/m*3 34.7 C 4.8 km/h
1105 23-07-2019 20:00:00 34.5 C 12.71 g/m*3 34.5 C 4.8 km/h
1106 23-07-2019 20:05:00 34.3 C 13.34 g/m*3 34.3 C 3.2 km/h
1107 23-07-2019 20:10:00 34.2 C 14.41 g/m*3 34.2 C 1.6 km/h
1108 23-07-2019 20:15:00 33.9 C 14.56 g/m*3 33.9 C 3.2 km/h
1109 23-07-2019 20:20:00 33.6 C 14.33 g/m*3 33.6 C 3.2 km/h
1110 23-07-2019 20:25:00 33.3 C 14.47 g/m*3 33.3 C 1.6 km/h
1111 23-07-2019 20:30:00 32.8 C 15.85 g/m*3 32.8 C 1.6 km/h
1112 23-07-2019 20:35:00 32.3 C 14.41 g/m*3 32.3 C 0 km/h
1113 23-07-2019 20:40:00 31.7 C 13.95 g/m*3 31.7 C 0 km/h
1114 23-07-2019 20:45:00 31.2 C 14.23 g/m*3 31.2 C 0 km/h
1115 23-07-2019 20:50:00 30.7 C 14.17 g/m*3 30.7 C 1.6 km/h
1116 23-07-2019 20:55:00 30.2 C 14.1 g/m*3 30.2 C 0 km/h
1117 23-07-2019 21:00:00 29.7 C 14.02 g/m*3 29.7 C 0 km/h
1118 23-07-2019 21:05:00 29.4 C 14.09 g/m*3 29.4 C 1.6 km/h
1119 23-07-2019 21:10:00 29.1 C 13.86 g/m*3 29.1 C 1.6 km/h
1120 23-07-2019 21:15:00 28.8 C 13.92 g/m*3 28.8 C 1.6 km/h
1121 23-07-2019 21:20:00 28.4 C 13.9 g/m*3 28.4 C 1.6 km/h
1122 23-07-2019 21:25:00 28.1 C 13.67 g/m*3 28.1 C 1.6 km/h
1123 23-07-2019 21:30:00 27.7 C 13.64 g/m*3 27.7 C 1.6 km/h
1124 23-07-2019 21:35:00 27.4 C 13.68 g/m*3 27.4 C 1.6 km/h
1125 23-07-2019 21:40:00 27.2 C 13.53 g/m*3 27.2 C 1.6 km/h
Sensor: Nr:Datum:Temp:Abs-Feuchte:Windchill:Wind:
Aussen-T/F 1126 23-07-2019 21:45:00 26.9 C 13.31 g/m*3 26.9 C 3.2 km/h
1127 23-07-2019 21:50:00 26.8 C 13.49 g/m*3 26.8 C 1.6 km/h
1128 23-07-2019 21:55:00 26.6 C 13.09 g/m*3 26.6 C 1.6 km/h
1129 23-07-2019 22:00:00 26.5 C 13.27 g/m*3 26.5 C 1.6 km/h
1130 23-07-2019 22:05:00 26.4 C 13.19 g/m*3 26.4 C 1.6 km/h
1131 23-07-2019 22:10:00 26.2 C 13.29 g/m*3 26.2 C 0 km/h
1132 23-07-2019 22:15:00 25.8 C 13.48 g/m*3 25.8 C 0 km/h
1133 23-07-2019 22:20:00 25.6 C 13.57 g/m*3 25.6 C 0 km/h
1134 23-07-2019 22:25:00 25.2 C 13.27 g/m*3 25.2 C 0 km/h
1135 23-07-2019 22:30:00 25 C 13.35 g/m*3 25 C 0 km/h
1136 23-07-2019 22:35:00 24.8 C 13.66 g/m*3 24.8 C 0 km/h
1137 23-07-2019 22:40:00 24.6 C 13.5 g/m*3 24.6 C 0 km/h
1138 23-07-2019 22:45:00 24.3 C 13.5 g/m*3 24.3 C 0 km/h
1139 23-07-2019 22:50:00 24.1 C 13.57 g/m*3 24.1 C 0 km/h
1140 23-07-2019 22:55:00 23.9 C 13.63 g/m*3 23.9 C 0 km/h
1141 23-07-2019 23:00:00 23.7 C 13.48 g/m*3 23.7 C 0 km/h
1142 23-07-2019 23:05:00 23.5 C 13.53 g/m*3 23.5 C 0 km/h
1143 23-07-2019 23:10:00 23.3 C 13.59 g/m*3 23.3 C 0 km/h
1144 23-07-2019 23:15:00 23.2 C 13.51 g/m*3 23.2 C 0 km/h
1145 23-07-2019 23:20:00 23.1 C 13.64 g/m*3 23.1 C 0 km/h
1146 23-07-2019 23:25:00 23 C 13.57 g/m*3 23 C 0 km/h
1147 23-07-2019 23:30:00 22.9 C 13.49 g/m*3 22.9 C 0 km/h
1148 23-07-2019 23:35:00 22.8 C 13.41 g/m*3 22.8 C 0 km/h
1149 23-07-2019 23:40:00 22.7 C 13.54 g/m*3 22.7 C 0 km/h
1150 23-07-2019 23:45:00 22.5 C 13.58 g/m*3 22.5 C 0 km/h
Sensor: Nr:Datum:Temp:Abs-Feuchte:Windchill:Wind:
Aussen-T/F 1151 23-07-2019 23:50:00 22.3 C 13.43 g/m*3 22.3 C 0 km/h
1152 23-07-2019 23:55:00 22.2 C 13.35 g/m*3 22.2 C 0 km/h
1153 24-07-2019 00:00:00 22.1 C 13.47 g/m*3 22.1 C 0 km/h
1154 24-07-2019 00:05:00 21.9 C 13.51 g/m*3 21.9 C 0 km/h
1155 24-07-2019 00:10:00 21.8 C 13.43 g/m*3 21.8 C 0 km/h
1156 24-07-2019 00:15:00 21.7 C 13.35 g/m*3 21.7 C 0 km/h
1157 24-07-2019 00:20:00 21.6 C 13.47 g/m*3 21.6 C 0 km/h
1158 24-07-2019 00:25:00 21.4 C 13.31 g/m*3 21.4 C 0 km/h
1159 24-07-2019 00:30:00 21.4 C 13.5 g/m*3 21.4 C 0 km/h
1160 24-07-2019 00:35:00 21.3 C 13.42 g/m*3 21.3 C 0 km/h
1161 24-07-2019 00:40:00 21.2 C 13.53 g/m*3 21.2 C 0 km/h
1162 24-07-2019 00:45:00 21.1 C 13.45 g/m*3 21.1 C 0 km/h
1163 24-07-2019 00:50:00 20.9 C 13.3 g/m*3 20.9 C 0 km/h
1164 24-07-2019 00:55:00 20.9 C 13.48 g/m*3 20.9 C 0 km/h
1165 24-07-2019 01:00:00 20.8 C 13.4 g/m*3 20.8 C 0 km/h
1166 24-07-2019 01:05:00 20.7 C 13.68 g/m*3 20.7 C 0 km/h
1167 24-07-2019 01:10:00 20.7 C 13.68 g/m*3 20.7 C 0 km/h
1168 24-07-2019 01:15:00 20.6 C 13.6 g/m*3 20.6 C 0 km/h
1169 24-07-2019 01:20:00 20.6 C 13.6 g/m*3 20.6 C 0 km/h
1170 24-07-2019 01:25:00 20.4 C 13.44 g/m*3 20.4 C 0 km/h
1171 24-07-2019 01:30:00 20.3 C 13.54 g/m*3 20.3 C 0 km/h
1172 24-07-2019 01:35:00 20.2 C 13.46 g/m*3 20.2 C 0 km/h
1173 24-07-2019 01:40:00 20.1 C 13.39 g/m*3 20.1 C 0 km/h
1174 24-07-2019 01:45:00 19.9 C 13.23 g/m*3 19.9 C 0 km/h
1175 24-07-2019 01:50:00 19.8 C 13.15 g/m*3 19.8 C 0 km/h
Sensor: Nr:Datum:Temp:Abs-Feuchte:Windchill:Wind:
Aussen-T/F 1176 24-07-2019 01:55:00 19.7 C 13.25 g/m*3 19.7 C 0 km/h
1177 24-07-2019 02:00:00 19.7 C 13.25 g/m*3 19.7 C 0 km/h
1178 24-07-2019 02:05:00 19.6 C 13.17 g/m*3 19.6 C 0 km/h
1179 24-07-2019 02:10:00 19.5 C 13.09 g/m*3 19.5 C 0 km/h
1180 24-07-2019 02:15:00 19.5 C 13.09 g/m*3 19.5 C 0 km/h
1181 24-07-2019 02:20:00 19.4 C 13.01 g/m*3 19.4 C 0 km/h
1182 24-07-2019 02:25:00 19.4 C 13.18 g/m*3 19.4 C 0 km/h
1183 24-07-2019 02:30:00 19.3 C 13.1 g/m*3 19.3 C 0 km/h
1184 24-07-2019 02:35:00 19.2 C 13.03 g/m*3 19.2 C 0 km/h
1185 24-07-2019 02:40:00 19.1 C 13.11 g/m*3 19.1 C 0 km/h
1186 24-07-2019 02:45:00 19.1 C 13.11 g/m*3 19.1 C 0 km/h
1187 24-07-2019 02:50:00 19 C 13.04 g/m*3 19 C 0 km/h
1188 24-07-2019 02:55:00 18.9 C 13.12 g/m*3 18.9 C 0 km/h
1189 24-07-2019 03:00:00 18.9 C 13.12 g/m*3 18.9 C 0 km/h
1190 24-07-2019 03:05:00 19.1 C 13.28 g/m*3 19.1 C 0 km/h
1191 24-07-2019 03:10:00 19.1 C 13.11 g/m*3 19.1 C 0 km/h
1192 24-07-2019 03:15:00 18.9 C 12.96 g/m*3 18.9 C 0 km/h
1193 24-07-2019 03:20:00 18.8 C 12.88 g/m*3 18.8 C 0 km/h
1194 24-07-2019 03:25:00 18.7 C 12.97 g/m*3 18.7 C 0 km/h
1195 24-07-2019 03:30:00 18.6 C 13.05 g/m*3 18.6 C 0 km/h
1196 24-07-2019 03:35:00 18.5 C 13.13 g/m*3 18.5 C 0 km/h
1197 24-07-2019 03:40:00 18.4 C 13.05 g/m*3 18.4 C 0 km/h
1198 24-07-2019 03:45:00 18.3 C 12.98 g/m*3 18.3 C 0 km/h
1199 24-07-2019 03:50:00 18.2 C 12.9 g/m*3 18.2 C 0 km/h
1200 24-07-2019 03:55:00 18.1 C 12.98 g/m*3 18.1 C 0 km/h
Sensor: Nr:Datum:Temp:Abs-Feuchte:Windchill:Wind:
Aussen-T/F 1201 24-07-2019 04:00:00 18.1 C 12.98 g/m*3 18.1 C 0 km/h
1202 24-07-2019 04:05:00 18 C 12.9 g/m*3 18 C 0 km/h
1203 24-07-2019 04:10:00 17.9 C 12.83 g/m*3 17.9 C 0 km/h
1204 24-07-2019 04:15:00 17.9 C 12.83 g/m*3 17.9 C 0 km/h
1205 24-07-2019 04:20:00 17.8 C 12.75 g/m*3 17.8 C 0 km/h
1206 24-07-2019 04:25:00 17.8 C 12.75 g/m*3 17.8 C 0 km/h
1207 24-07-2019 04:30:00 17.8 C 12.9 g/m*3 17.8 C 0 km/h
1208 24-07-2019 04:35:00 17.7 C 12.82 g/m*3 17.7 C 0 km/h
1209 24-07-2019 04:40:00 17.7 C 12.82 g/m*3 17.7 C 0 km/h
1210 24-07-2019 04:45:00 17.6 C 12.75 g/m*3 17.6 C 0 km/h
1211 24-07-2019 04:50:00 17.5 C 12.67 g/m*3 17.5 C 0 km/h
1212 24-07-2019 04:55:00 17.4 C 12.75 g/m*3 17.4 C 0 km/h
1213 24-07-2019 05:00:00 17.4 C 12.75 g/m*3 17.4 C 0 km/h
1214 24-07-2019 05:05:00 17.4 C 12.75 g/m*3 17.4 C 0 km/h
1215 24-07-2019 05:10:00 17.3 C 12.67 g/m*3 17.3 C 0 km/h
1216 24-07-2019 05:15:00 17.3 C 12.82 g/m*3 17.3 C 0 km/h
1217 24-07-2019 05:20:00 17.3 C 12.82 g/m*3 17.3 C 0 km/h
1218 24-07-2019 05:25:00 17.2 C 12.74 g/m*3 17.2 C 0 km/h
1219 24-07-2019 05:30:00 17.2 C 12.74 g/m*3 17.2 C 0 km/h
1220 24-07-2019 05:35:00 17.2 C 12.89 g/m*3 17.2 C 0 km/h
1221 24-07-2019 05:40:00 17.2 C 12.89 g/m*3 17.2 C 0 km/h
1222 24-07-2019 05:45:00 17.1 C 12.81 g/m*3 17.1 C 0 km/h
1223 24-07-2019 05:50:00 17.1 C 12.66 g/m*3 17.1 C 0 km/h
1224 24-07-2019 05:55:00 17.1 C 12.81 g/m*3 17.1 C 0 km/h
1225 24-07-2019 06:00:00 17.1 C 12.81 g/m*3 17.1 C 0 km/h
Sensor: Nr:Datum:Temp:Abs-Feuchte:Windchill:Wind:
Aussen-T/F 1226 24-07-2019 06:05:00 17.1 C 12.81 g/m*3 17.1 C 0 km/h
1227 24-07-2019 06:10:00 17.1 C 12.81 g/m*3 17.1 C 0 km/h
1228 24-07-2019 06:15:00 17.1 C 12.81 g/m*3 17.1 C 0 km/h
1229 24-07-2019 06:20:00 17 C 12.73 g/m*3 17 C 0 km/h
1230 24-07-2019 06:25:00 17.1 C 12.81 g/m*3 17.1 C 0 km/h
1231 24-07-2019 06:30:00 17.1 C 12.81 g/m*3 17.1 C 0 km/h
1232 24-07-2019 06:35:00 17 C 12.73 g/m*3 17 C 0 km/h
1233 24-07-2019 06:40:00 17 C 12.73 g/m*3 17 C 0 km/h
1234 24-07-2019 06:45:00 17.1 C 12.96 g/m*3 17.1 C 0 km/h
1235 24-07-2019 06:50:00 17.1 C 12.96 g/m*3 17.1 C 0 km/h
1236 24-07-2019 06:55:00 17.1 C 12.96 g/m*3 17.1 C 0 km/h
1237 24-07-2019 07:00:00 17.1 C 13.1 g/m*3 17.1 C 0 km/h
1238 24-07-2019 07:05:00 17.1 C 13.1 g/m*3 17.1 C 0 km/h
1239 24-07-2019 07:10:00 17.1 C 13.1 g/m*3 17.1 C 0 km/h
1240 24-07-2019 07:15:00 17.1 C 13.1 g/m*3 17.1 C 0 km/h
1241 24-07-2019 07:20:00 17.2 C 13.18 g/m*3 17.2 C 0 km/h
1242 24-07-2019 07:25:00 17.2 C 13.18 g/m*3 17.2 C 0 km/h
1243 24-07-2019 07:30:00 17.3 C 13.26 g/m*3 17.3 C 0 km/h
1244 24-07-2019 07:35:00 17.3 C 13.26 g/m*3 17.3 C 0 km/h
1245 24-07-2019 07:40:00 17.3 C 13.26 g/m*3 17.3 C 0 km/h
1246 24-07-2019 07:45:00 17.4 C 13.34 g/m*3 17.4 C 0 km/h
1247 24-07-2019 07:50:00 17.5 C 13.42 g/m*3 17.5 C 0 km/h
1248 24-07-2019 07:55:00 17.6 C 13.5 g/m*3 17.6 C 0 km/h
1249 24-07-2019 08:00:00 17.6 C 13.5 g/m*3 17.6 C 0 km/h
1250 24-07-2019 08:05:00 17.7 C 13.58 g/m*3 17.7 C 0 km/h
Sensor: Nr:Datum:Temp:Abs-Feuchte:Windchill:Wind:
Aussen-T/F 1251 24-07-2019 08:10:00 17.8 C 13.66 g/m*3 17.8 C 0 km/h
1252 24-07-2019 08:15:00 18 C 13.67 g/m*3 18 C 0 km/h
1253 24-07-2019 08:20:00 18.2 C 13.83 g/m*3 18.2 C 0 km/h
1254 24-07-2019 08:25:00 18.3 C 13.92 g/m*3 18.3 C 0 km/h
1255 24-07-2019 08:30:00 18.4 C 14 g/m*3 18.4 C 0 km/h
1256 24-07-2019 08:35:00 18.5 C 13.92 g/m*3 18.5 C 0 km/h
1257 24-07-2019 08:40:00 18.6 C 14.01 g/m*3 18.6 C 0 km/h
1258 24-07-2019 08:45:00 18.8 C 14.17 g/m*3 18.8 C 0 km/h
1259 24-07-2019 08:50:00 18.9 C 14.26 g/m*3 18.9 C 0 km/h
1260 24-07-2019 08:55:00 19.1 C 14.43 g/m*3 19.1 C 0 km/h
1261 24-07-2019 09:00:00 19.2 C 14.51 g/m*3 19.2 C 0 km/h
1262 24-07-2019 09:05:00 19.3 C 14.6 g/m*3 19.3 C 0 km/h
1263 24-07-2019 09:10:00 19.5 C 14.77 g/m*3 19.5 C 0 km/h
1264 24-07-2019 09:15:00 19.6 C 14.69 g/m*3 19.6 C 0 km/h
1265 24-07-2019 09:20:00 19.8 C 14.86 g/m*3 19.8 C 0 km/h
1266 24-07-2019 09:25:00 20.1 C 14.95 g/m*3 20.1 C 0 km/h
1267 24-07-2019 09:30:00 20.3 C 15.13 g/m*3 20.3 C 0 km/h
1268 24-07-2019 09:35:00 20.5 C 15.12 g/m*3 20.5 C 0 km/h
1269 24-07-2019 09:40:00 20.7 C 15.12 g/m*3 20.7 C 0 km/h
1270 24-07-2019 09:45:00 20.9 C 15.12 g/m*3 20.9 C 0 km/h
1271 24-07-2019 09:50:00 21.3 C 15.28 g/m*3 21.3 C 0 km/h
1272 24-07-2019 09:55:00 21.6 C 15.17 g/m*3 21.6 C 0 km/h
1273 24-07-2019 10:00:00 21.9 C 15.05 g/m*3 21.9 C 0 km/h
1274 24-07-2019 10:05:00 22.3 C 15.6 g/m*3 22.3 C 0 km/h
1275 24-07-2019 10:10:00 22.6 C 15.47 g/m*3 22.6 C 0 km/h
Sensor: Nr:Datum:Temp:Abs-Feuchte:Windchill:Wind:
Aussen-T/F 1276 24-07-2019 10:15:00 22.8 C 15.24 g/m*3 22.8 C 0 km/h
1277 24-07-2019 10:20:00 23.1 C 15.3 g/m*3 23.1 C 0 km/h
1278 24-07-2019 10:25:00 23.6 C 15.53 g/m*3 23.6 C 0 km/h
1279 24-07-2019 10:30:00 24 C 15.66 g/m*3 24 C 0 km/h
1280 24-07-2019 10:35:00 24.3 C 15.71 g/m*3 24.3 C 0 km/h
1281 24-07-2019 10:40:00 24.6 C 15.53 g/m*3 24.6 C 0 km/h
1282 24-07-2019 10:45:00 24.9 C 15.34 g/m*3 24.9 C 0 km/h
1283 24-07-2019 10:50:00 25.3 C 15.69 g/m*3 25.3 C 0 km/h
1284 24-07-2019 10:55:00 25.6 C 15.95 g/m*3 25.6 C 0 km/h
1285 24-07-2019 11:00:00 25.8 C 16.13 g/m*3 25.8 C 0 km/h
1286 24-07-2019 11:05:00 26 C 15.58 g/m*3 26 C 0 km/h
1287 24-07-2019 11:10:00 26.3 C 16.34 g/m*3 26.3 C 0 km/h
1288 24-07-2019 11:15:00 26.6 C 16.36 g/m*3 26.6 C 0 km/h
1289 24-07-2019 11:20:00 26.8 C 15.27 g/m*3 26.8 C 0 km/h
1290 24-07-2019 11:25:00 27.1 C 15.53 g/m*3 27.1 C 0 km/h
1291 24-07-2019 11:30:00 27.4 C 15.52 g/m*3 27.4 C 0 km/h
1292 24-07-2019 11:35:00 27.9 C 15.69 g/m*3 27.9 C 0 km/h
1293 24-07-2019 11:40:00 28.3 C 15.2 g/m*3 28.3 C 0 km/h
1294 24-07-2019 11:45:00 28.6 C 15.18 g/m*3 28.6 C 0 km/h
1295 24-07-2019 11:50:00 29 C 15.22 g/m*3 29 C 0 km/h
1296 24-07-2019 11:55:00 29.4 C 15.56 g/m*3 29.4 C 0 km/h
1297 24-07-2019 12:00:00 29.8 C 15.9 g/m*3 29.8 C 0 km/h
1298 24-07-2019 12:05:00 30.3 C 14.79 g/m*3 30.3 C 0 km/h
1299 24-07-2019 12:10:00 30.7 C 14.8 g/m*3 30.7 C 0 km/h
1300 24-07-2019 12:15:00 31.2 C 14.23 g/m*3 31.2 C 0 km/h
Sensor: Nr:Datum:Temp:Abs-Feuchte:Windchill:Wind:
Aussen-T/F 1301 24-07-2019 12:20:00 31.7 C 13.95 g/m*3 31.7 C 0 km/h
1302 24-07-2019 12:25:00 32.1 C 14.59 g/m*3 32.1 C 0 km/h
1303 24-07-2019 12:30:00 32.4 C 13.1 g/m*3 32.4 C 0 km/h
1304 24-07-2019 12:35:00 32.8 C 13.03 g/m*3 32.8 C 11.3 km/h
1305 24-07-2019 12:40:00 33 C 13.17 g/m*3 33 C 0 km/h
1306 24-07-2019 12:45:00 33.3 C 13.74 g/m*3 33.3 C 6.4 km/h
1307 24-07-2019 12:50:00 33.5 C 13.52 g/m*3 33.5 C 9.7 km/h
1308 24-07-2019 12:55:00 33.7 C 13.3 g/m*3 33.7 C 8.1 km/h
1309 24-07-2019 13:00:00 33.8 C 12.62 g/m*3 33.8 C 8.1 km/h
1310 24-07-2019 13:05:00 33.9 C 11.57 g/m*3 33.9 C 8.1 km/h
1311 24-07-2019 13:10:00 33.9 C 11.2 g/m*3 33.9 C 4.8 km/h
1312 24-07-2019 13:15:00 33.9 C 11.57 g/m*3 33.9 C 6.4 km/h
1313 24-07-2019 13:20:00 34 C 11.26 g/m*3 34 C 9.7 km/h
1314 24-07-2019 13:25:00 34.1 C 10.94 g/m*3 34.1 C 11.3 km/h
1315 24-07-2019 13:30:00 34.2 C 10.62 g/m*3 34.2 C 9.7 km/h
1316 24-07-2019 13:35:00 34.3 C 11.05 g/m*3 34.3 C 4.8 km/h
1317 24-07-2019 13:40:00 34.3 C 10.29 g/m*3 34.3 C 6.4 km/h
1318 24-07-2019 13:45:00 34.4 C 10.34 g/m*3 34.4 C 8.1 km/h
1319 24-07-2019 13:50:00 34.6 C 10.45 g/m*3 34.6 C 3.2 km/h
1320 24-07-2019 13:55:00 34.7 C 10.12 g/m*3 34.7 C 4.8 km/h
1321 24-07-2019 14:00:00 34.8 C 10.56 g/m*3 34.8 C 6.4 km/h
1322 24-07-2019 14:05:00 34.8 C 10.17 g/m*3 34.8 C 6.4 km/h
1323 24-07-2019 14:10:00 34.9 C 10.62 g/m*3 34.9 C 8.1 km/h
1324 24-07-2019 14:15:00 35 C 10.67 g/m*3 35 C 4.8 km/h
1325 24-07-2019 14:20:00 35.1 C 10.33 g/m*3 35.1 C 6.4 km/h
Sensor: Nr:Datum:Temp:Abs-Feuchte:Windchill:Wind:
Aussen-T/F 1326 24-07-2019 14:25:00 35.3 C 10.84 g/m*3 35.3 C 6.4 km/h
1327 24-07-2019 14:30:00 35.3 C 10.44 g/m*3 35.3 C 6.4 km/h
1328 24-07-2019 14:35:00 35.5 C 10.55 g/m*3 35.5 C 4.8 km/h
1329 24-07-2019 14:40:00 35.6 C 11.42 g/m*3 35.6 C 4.8 km/h
1330 24-07-2019 14:45:00 35.8 C 11.13 g/m*3 35.8 C 4.8 km/h
1331 24-07-2019 14:50:00 35.8 C 11.13 g/m*3 35.8 C 4.8 km/h
1332 24-07-2019 14:55:00 35.9 C 11.6 g/m*3 35.9 C 11.3 km/h
1333 24-07-2019 15:00:00 35.9 C 11.6 g/m*3 35.9 C 4.8 km/h
1334 24-07-2019 15:05:00 36.1 C 12.56 g/m*3 36.1 C 6.4 km/h
1335 24-07-2019 15:10:00 36.2 C 11.78 g/m*3 36.2 C 8.1 km/h
1336 24-07-2019 15:15:00 36.3 C 11.42 g/m*3 36.3 C 9.7 km/h
1337 24-07-2019 15:20:00 36.3 C 10.99 g/m*3 36.3 C 8.1 km/h
1338 24-07-2019 15:25:00 36.4 C 10.63 g/m*3 36.4 C 3.2 km/h
1339 24-07-2019 15:30:00 36.8 C 10.85 g/m*3 36.8 C 4.8 km/h
1340 24-07-2019 15:35:00 37.2 C 10.19 g/m*3 37.2 C 4.8 km/h
1341 24-07-2019 15:40:00 37.4 C 10.74 g/m*3 37.4 C 6.4 km/h
1342 24-07-2019 15:45:00 37.9 C 11.93 g/m*3 37.9 C 4.8 km/h
1343 24-07-2019 15:50:00 38.4 C 11.77 g/m*3 38.4 C 3.2 km/h
1344 24-07-2019 15:55:00 38.8 C 12.01 g/m*3 38.8 C 8.1 km/h
1345 24-07-2019 16:00:00 39.2 C 11.27 g/m*3 39.2 C 6.4 km/h
1346 24-07-2019 16:05:00 39.3 C 10.84 g/m*3 39.3 C 6.4 km/h
1347 24-07-2019 16:10:00 39.4 C 11.39 g/m*3 39.4 C 8.1 km/h
1348 24-07-2019 16:15:00 39.4 C 12.38 g/m*3 39.4 C 11.3 km/h
1349 24-07-2019 16:20:00 39.5 C 12.44 g/m*3 39.5 C 9.7 km/h
1350 24-07-2019 16:25:00 39.7 C 12.06 g/m*3 39.7 C 6.4 km/h
Sensor: Nr:Datum:Temp:Abs-Feuchte:Windchill:Wind:
Aussen-T/F 1351 24-07-2019 16:30:00 39.8 C 11.11 g/m*3 39.8 C 3.2 km/h
1352 24-07-2019 16:35:00 39.7 C 11.06 g/m*3 39.7 C 6.4 km/h
1353 24-07-2019 16:40:00 39.6 C 11 g/m*3 39.6 C 4.8 km/h
1354 24-07-2019 16:45:00 39.7 C 11.56 g/m*3 39.7 C 3.2 km/h
1355 24-07-2019 16:50:00 39.9 C 11.17 g/m*3 39.9 C 6.4 km/h
1356 24-07-2019 16:55:00 39.9 C 12.19 g/m*3 39.9 C 4.8 km/h
1357 24-07-2019 17:00:00 39.9 C 11.68 g/m*3 39.9 C 6.4 km/h
1358 24-07-2019 17:05:00 40.1 C 13.85 g/m*3 40.1 C 4.8 km/h
1359 24-07-2019 17:10:00 39.9 C 10.66 g/m*3 39.9 C 8.1 km/h
1360 24-07-2019 17:15:00 39.9 C 11.68 g/m*3 39.9 C 4.8 km/h
1361 24-07-2019 17:20:00 40 C 11.23 g/m*3 40 C 4.8 km/h
1362 24-07-2019 17:25:00 39.9 C 11.17 g/m*3 39.9 C 8.1 km/h
1363 24-07-2019 17:30:00 39.8 C 11.11 g/m*3 39.8 C 11.3 km/h
1364 24-07-2019 17:35:00 39.5 C 11.45 g/m*3 39.5 C 9.7 km/h
1365 24-07-2019 17:40:00 39.3 C 10.84 g/m*3 39.3 C 12.9 km/h
1366 24-07-2019 17:45:00 39 C 11.16 g/m*3 39 C 14.5 km/h
1367 24-07-2019 17:50:00 38.9 C 11.1 g/m*3 38.9 C 14.5 km/h
1368 24-07-2019 17:55:00 39.1 C 11.71 g/m*3 39.1 C 8.1 km/h
1369 24-07-2019 18:00:00 39.4 C 11.39 g/m*3 39.4 C 6.4 km/h
1370 24-07-2019 18:05:00 39.6 C 12 g/m*3 39.6 C 4.8 km/h
1371 24-07-2019 18:10:00 39.8 C 11.11 g/m*3 39.8 C 6.4 km/h
1372 24-07-2019 18:15:00 39.8 C 11.11 g/m*3 39.8 C 11.3 km/h
1373 24-07-2019 18:20:00 39.4 C 10.89 g/m*3 39.4 C 11.3 km/h
1374 24-07-2019 18:25:00 39.2 C 11.27 g/m*3 39.2 C 12.9 km/h
1375 24-07-2019 18:30:00 39.2 C 10.78 g/m*3 39.2 C 11.3 km/h
Sensor: Nr:Datum:Temp:Abs-Feuchte:Windchill:Wind:
Aussen-T/F 1376 24-07-2019 18:35:00 39.2 C 11.27 g/m*3 39.2 C 9.7 km/h
1377 24-07-2019 18:40:00 39.1 C 11.22 g/m*3 39.1 C 8.1 km/h
1378 24-07-2019 18:45:00 39.1 C 10.73 g/m*3 39.1 C 8.1 km/h
1379 24-07-2019 18:50:00 39.1 C 11.22 g/m*3 39.1 C 11.3 km/h
1380 24-07-2019 18:55:00 38.9 C 11.1 g/m*3 38.9 C 11.3 km/h
1381 24-07-2019 19:00:00 38.8 C 10.57 g/m*3 38.8 C 11.3 km/h
1382 24-07-2019 19:05:00 38.7 C 10.99 g/m*3 38.7 C 11.3 km/h
1383 24-07-2019 19:10:00 38.6 C 12.84 g/m*3 38.6 C 9.7 km/h
1384 24-07-2019 19:15:00 38.7 C 12.43 g/m*3 38.7 C 4.8 km/h
1385 24-07-2019 19:20:00 38.8 C 11.05 g/m*3 38.8 C 8.1 km/h
1386 24-07-2019 19:25:00 38.8 C 13.45 g/m*3 38.8 C 6.4 km/h
1387 24-07-2019 19:30:00 38.7 C 13.86 g/m*3 38.7 C 1.6 km/h
1388 24-07-2019 19:35:00 38.7 C 14.34 g/m*3 38.7 C 1.6 km/h
1389 24-07-2019 19:40:00 38.4 C 14.59 g/m*3 38.4 C 0 km/h
1390 24-07-2019 19:45:00 38.2 C 13.98 g/m*3 38.2 C 0 km/h
1391 24-07-2019 19:50:00 37.9 C 14.23 g/m*3 37.9 C 1.6 km/h
1392 24-07-2019 19:55:00 37.6 C 14.01 g/m*3 37.6 C 1.6 km/h
1393 24-07-2019 20:00:00 37.1 C 14.98 g/m*3 37.1 C 0 km/h
1394 24-07-2019 20:05:00 36.4 C 14.03 g/m*3 36.4 C 0 km/h
1395 24-07-2019 20:10:00 35.6 C 13.87 g/m*3 35.6 C 0 km/h
1396 24-07-2019 20:15:00 34.8 C 13.69 g/m*3 34.8 C 1.6 km/h
1397 24-07-2019 20:20:00 33.9 C 14.18 g/m*3 33.9 C 0 km/h
1398 24-07-2019 20:25:00 33.1 C 14.31 g/m*3 33.1 C 0 km/h
1399 24-07-2019 20:30:00 32.4 C 14.48 g/m*3 32.4 C 0 km/h
1400 24-07-2019 20:35:00 31.7 C 14.62 g/m*3 31.7 C 1.6 km/h
Sensor: Nr:Datum:Temp:Abs-Feuchte:Windchill:Wind:
Aussen-T/F 1401 24-07-2019 20:40:00 31.2 C 14.23 g/m*3 31.2 C 0 km/h
1402 24-07-2019 20:45:00 30.8 C 14.25 g/m*3 30.8 C 0 km/h
1403 24-07-2019 20:50:00 30.4 C 13.94 g/m*3 30.4 C 1.6 km/h
1404 24-07-2019 20:55:00 30.2 C 14.1 g/m*3 30.2 C 0 km/h
1405 24-07-2019 21:00:00 29.9 C 14.18 g/m*3 29.9 C 1.6 km/h
1406 24-07-2019 21:05:00 29.7 C 14.02 g/m*3 29.7 C 0 km/h
1407 24-07-2019 21:10:00 29.4 C 14.09 g/m*3 29.4 C 0 km/h
1408 24-07-2019 21:15:00 29.2 C 13.94 g/m*3 29.2 C 0 km/h
1409 24-07-2019 21:20:00 29 C 14.07 g/m*3 29 C 1.6 km/h
1410 24-07-2019 21:25:00 28.8 C 13.92 g/m*3 28.8 C 1.6 km/h
1411 24-07-2019 21:30:00 28.7 C 13.85 g/m*3 28.7 C 1.6 km/h
1412 24-07-2019 21:35:00 28.5 C 13.97 g/m*3 28.5 C 1.6 km/h
1413 24-07-2019 21:40:00 28.3 C 13.55 g/m*3 28.3 C 1.6 km/h
1414 24-07-2019 21:45:00 28.2 C 13.75 g/m*3 28.2 C 1.6 km/h
1415 24-07-2019 21:50:00 28.1 C 13.67 g/m*3 28.1 C 1.6 km/h
1416 24-07-2019 21:55:00 28.1 C 13.67 g/m*3 28.1 C 1.6 km/h
1417 24-07-2019 22:00:00 27.9 C 13.52 g/m*3 27.9 C 1.6 km/h
1418 24-07-2019 22:05:00 27.8 C 13.72 g/m*3 27.8 C 1.6 km/h
1419 24-07-2019 22:10:00 27.8 C 13.72 g/m*3 27.8 C 1.6 km/h
1420 24-07-2019 22:15:00 27.7 C 13.64 g/m*3 27.7 C 0 km/h
1421 24-07-2019 22:20:00 27.6 C 13.57 g/m*3 27.6 C 1.6 km/h
1422 24-07-2019 22:25:00 27.4 C 13.68 g/m*3 27.4 C 1.6 km/h
1423 24-07-2019 22:30:00 27.3 C 13.61 g/m*3 27.3 C 0 km/h
1424 24-07-2019 22:35:00 27.2 C 13.79 g/m*3 27.2 C 0 km/h
1425 24-07-2019 22:40:00 27.1 C 13.72 g/m*3 27.1 C 0 km/h
Sensor: Nr:Datum:Temp:Abs-Feuchte:Windchill:Wind:
Aussen-T/F 1426 24-07-2019 22:45:00 27 C 13.64 g/m*3 27 C 0 km/h
1427 24-07-2019 22:50:00 26.9 C 13.56 g/m*3 26.9 C 0 km/h
1428 24-07-2019 22:55:00 26.8 C 13.74 g/m*3 26.8 C 0 km/h
1429 24-07-2019 23:00:00 26.8 C 13.74 g/m*3 26.8 C 0 km/h
1430 24-07-2019 23:05:00 26.6 C 13.84 g/m*3 26.6 C 0 km/h
1431 24-07-2019 23:10:00 26.4 C 13.94 g/m*3 26.4 C 0 km/h
1432 24-07-2019 23:15:00 26.2 C 14.03 g/m*3 26.2 C 0 km/h
1433 24-07-2019 23:20:00 25.9 C 14.04 g/m*3 25.9 C 0 km/h
1434 24-07-2019 23:25:00 25.7 C 13.89 g/m*3 25.7 C 0 km/h
1435 24-07-2019 23:30:00 25.4 C 13.65 g/m*3 25.4 C 0 km/h
1436 24-07-2019 23:35:00 25.2 C 13.5 g/m*3 25.2 C 0 km/h
1437 24-07-2019 23:40:00 25 C 13.81 g/m*3 25 C 0 km/h
1438 24-07-2019 23:45:00 24.8 C 13.88 g/m*3 24.8 C 0 km/h
1439 24-07-2019 23:50:00 24.6 C 13.95 g/m*3 24.6 C 0 km/h
1440 24-07-2019 23:55:00 24.4 C 14.02 g/m*3 24.4 C 0 km/h
1441 25-07-2019 00:00:00 24.3 C 13.72 g/m*3 24.3 C 0 km/h
1442 25-07-2019 00:05:00 24 C 13.27 g/m*3 24 C 0 km/h
1443 25-07-2019 00:10:00 23.9 C 13.63 g/m*3 23.9 C 0 km/h
1444 25-07-2019 00:15:00 23.9 C 13.63 g/m*3 23.9 C 0 km/h
1445 25-07-2019 00:20:00 23.8 C 13.55 g/m*3 23.8 C 0 km/h
1446 25-07-2019 00:25:00 23.7 C 13.26 g/m*3 23.7 C 0 km/h
1447 25-07-2019 00:30:00 23.6 C 13.19 g/m*3 23.6 C 0 km/h
1448 25-07-2019 00:35:00 23.6 C 13.61 g/m*3 23.6 C 0 km/h
1449 25-07-2019 00:40:00 23.4 C 13.46 g/m*3 23.4 C 0 km/h
1450 25-07-2019 00:45:00 23.3 C 13.17 g/m*3 23.3 C 0 km/h
Sensor: Nr:Datum:Temp:Abs-Feuchte:Windchill:Wind:
Aussen-T/F 1451 25-07-2019 00:50:00 23.4 C 13.46 g/m*3 23.4 C 0 km/h
1452 25-07-2019 00:55:00 23.3 C 13.8 g/m*3 23.3 C 0 km/h
1453 25-07-2019 01:00:00 23.2 C 13.51 g/m*3 23.2 C 0 km/h
1454 25-07-2019 01:05:00 23.1 C 13.44 g/m*3 23.1 C 0 km/h
1455 25-07-2019 01:10:00 22.9 C 13.49 g/m*3 22.9 C 0 km/h
1456 25-07-2019 01:15:00 22.7 C 13.33 g/m*3 22.7 C 0 km/h
1457 25-07-2019 01:20:00 22.6 C 13.46 g/m*3 22.6 C 0 km/h
1458 25-07-2019 01:25:00 22.4 C 13.11 g/m*3 22.4 C 0 km/h
1459 25-07-2019 01:30:00 22.3 C 13.23 g/m*3 22.3 C 0 km/h
1460 25-07-2019 01:35:00 22.3 C 12.83 g/m*3 22.3 C 0 km/h
1461 25-07-2019 01:40:00 22.3 C 13.43 g/m*3 22.3 C 0 km/h
1462 25-07-2019 01:45:00 22.3 C 13.43 g/m*3 22.3 C 0 km/h
1463 25-07-2019 01:50:00 22.2 C 13.35 g/m*3 22.2 C 0 km/h
1464 25-07-2019 01:55:00 22.1 C 13.27 g/m*3 22.1 C 0 km/h
1465 25-07-2019 02:00:00 22 C 13.39 g/m*3 22 C 0 km/h
1466 25-07-2019 02:05:00 21.9 C 13.51 g/m*3 21.9 C 0 km/h
1467 25-07-2019 02:10:00 21.8 C 13.43 g/m*3 21.8 C 0 km/h
1468 25-07-2019 02:15:00 21.7 C 13.35 g/m*3 21.7 C 0 km/h
1469 25-07-2019 02:20:00 21.7 C 13.35 g/m*3 21.7 C 0 km/h
1470 25-07-2019 02:25:00 21.7 C 13.54 g/m*3 21.7 C 0 km/h
1471 25-07-2019 02:30:00 21.6 C 13.28 g/m*3 21.6 C 0 km/h
1472 25-07-2019 02:35:00 21.5 C 13.2 g/m*3 21.5 C 0 km/h
1473 25-07-2019 02:40:00 21.4 C 13.31 g/m*3 21.4 C 0 km/h
1474 25-07-2019 02:45:00 21.4 C 13.31 g/m*3 21.4 C 0 km/h
1475 25-07-2019 02:50:00 21.3 C 13.42 g/m*3 21.3 C 0 km/h
Sensor: Nr:Datum:Temp:Abs-Feuchte:Windchill:Wind:
Aussen-T/F 1476 25-07-2019 02:55:00 21.2 C 13.34 g/m*3 21.2 C 0 km/h
1477 25-07-2019 03:00:00 21.2 C 13.34 g/m*3 21.2 C 0 km/h
1478 25-07-2019 03:05:00 21.2 C 13.53 g/m*3 21.2 C 0 km/h
1479 25-07-2019 03:10:00 21.2 C 13.53 g/m*3 21.2 C 0 km/h
1480 25-07-2019 03:15:00 21.1 C 13.45 g/m*3 21.1 C 0 km/h
1481 25-07-2019 03:20:00 20.9 C 13.48 g/m*3 20.9 C 0 km/h
1482 25-07-2019 03:25:00 20.8 C 13.4 g/m*3 20.8 C 0 km/h
1483 25-07-2019 03:30:00 20.8 C 13.4 g/m*3 20.8 C 0 km/h
1484 25-07-2019 03:35:00 20.8 C 13.4 g/m*3 20.8 C 0 km/h
1485 25-07-2019 03:40:00 20.8 C 13.4 g/m*3 20.8 C 0 km/h
1486 25-07-2019 03:45:00 20.7 C 13.5 g/m*3 20.7 C 0 km/h
1487 25-07-2019 03:50:00 20.6 C 13.42 g/m*3 20.6 C 0 km/h
1488 25-07-2019 03:55:00 20.6 C 13.6 g/m*3 20.6 C 0 km/h
1489 25-07-2019 04:00:00 20.4 C 13.44 g/m*3 20.4 C 0 km/h
1490 25-07-2019 04:05:00 20.3 C 13.37 g/m*3 20.3 C 0 km/h
1491 25-07-2019 04:10:00 20.2 C 13.46 g/m*3 20.2 C 0 km/h
1492 25-07-2019 04:15:00 20.1 C 13.39 g/m*3 20.1 C 0 km/h
1493 25-07-2019 04:20:00 19.9 C 13.4 g/m*3 19.9 C 0 km/h
1494 25-07-2019 04:25:00 20.1 C 13.56 g/m*3 20.1 C 0 km/h
1495 25-07-2019 04:30:00 20.1 C 13.56 g/m*3 20.1 C 0 km/h
1496 25-07-2019 04:35:00 20.1 C 13.56 g/m*3 20.1 C 0 km/h
1497 25-07-2019 04:40:00 20.1 C 13.56 g/m*3 20.1 C 0 km/h
1498 25-07-2019 04:45:00 19.9 C 13.57 g/m*3 19.9 C 0 km/h
1499 25-07-2019 04:50:00 19.9 C 13.57 g/m*3 19.9 C 0 km/h
1500 25-07-2019 04:55:00 19.8 C 13.49 g/m*3 19.8 C 0 km/h
Sensor: Nr:Datum:Temp:Abs-Feuchte:Windchill:Wind:
Aussen-T/F 1501 25-07-2019 05:00:00 19.7 C 13.41 g/m*3 19.7 C 0 km/h
1502 25-07-2019 05:05:00 19.6 C 13.34 g/m*3 19.6 C 0 km/h
1503 25-07-2019 05:10:00 19.6 C 13.51 g/m*3 19.6 C 0 km/h
1504 25-07-2019 05:15:00 19.4 C 13.35 g/m*3 19.4 C 0 km/h
1505 25-07-2019 05:20:00 19.4 C 13.35 g/m*3 19.4 C 0 km/h
1506 25-07-2019 05:25:00 19.3 C 13.27 g/m*3 19.3 C 0 km/h
1507 25-07-2019 05:30:00 19.3 C 13.27 g/m*3 19.3 C 0 km/h
1508 25-07-2019 05:35:00 19.3 C 13.27 g/m*3 19.3 C 0 km/h
1509 25-07-2019 05:40:00 19.2 C 13.19 g/m*3 19.2 C 0 km/h
1510 25-07-2019 05:45:00 19.2 C 13.19 g/m*3 19.2 C 0 km/h
1511 25-07-2019 05:50:00 19.2 C 13.36 g/m*3 19.2 C 0 km/h
1512 25-07-2019 05:55:00 19.1 C 13.28 g/m*3 19.1 C 0 km/h
1513 25-07-2019 06:00:00 19.1 C 13.44 g/m*3 19.1 C 0 km/h
1514 25-07-2019 06:05:00 19.1 C 13.44 g/m*3 19.1 C 0 km/h
1515 25-07-2019 06:10:00 19.1 C 13.44 g/m*3 19.1 C 0 km/h
1516 25-07-2019 06:15:00 19.2 C 13.52 g/m*3 19.2 C 0 km/h
1517 25-07-2019 06:20:00 19.2 C 13.52 g/m*3 19.2 C 0 km/h
1518 25-07-2019 06:25:00 19.1 C 13.44 g/m*3 19.1 C 0 km/h
1519 25-07-2019 06:30:00 19.2 C 13.52 g/m*3 19.2 C 0 km/h
1520 25-07-2019 06:35:00 19.2 C 13.52 g/m*3 19.2 C 0 km/h
1521 25-07-2019 06:40:00 19.2 C 13.52 g/m*3 19.2 C 0 km/h
1522 25-07-2019 06:45:00 19.3 C 13.77 g/m*3 19.3 C 0 km/h
1523 25-07-2019 06:50:00 19.3 C 13.77 g/m*3 19.3 C 0 km/h
1524 25-07-2019 06:55:00 19.3 C 13.77 g/m*3 19.3 C 0 km/h
1525 25-07-2019 07:00:00 19.3 C 13.77 g/m*3 19.3 C 0 km/h
Sensor: Nr:Datum:Temp:Abs-Feuchte:Windchill:Wind:
Aussen-T/F 1526 25-07-2019 07:05:00 19.3 C 13.77 g/m*3 19.3 C 0 km/h
1527 25-07-2019 07:10:00 19.4 C 14.01 g/m*3 19.4 C 0 km/h
1528 25-07-2019 07:15:00 19.4 C 14.01 g/m*3 19.4 C 0 km/h
1529 25-07-2019 07:20:00 19.4 C 14.01 g/m*3 19.4 C 0 km/h
1530 25-07-2019 07:25:00 19.5 C 14.1 g/m*3 19.5 C 0 km/h
1531 25-07-2019 07:30:00 19.6 C 14.18 g/m*3 19.6 C 0 km/h
1532 25-07-2019 07:35:00 19.6 C 14.18 g/m*3 19.6 C 0 km/h
1533 25-07-2019 07:40:00 19.7 C 14.26 g/m*3 19.7 C 0 km/h
1534 25-07-2019 07:45:00 19.8 C 14.35 g/m*3 19.8 C 0 km/h
1535 25-07-2019 07:50:00 19.8 C 14.35 g/m*3 19.8 C 0 km/h
1536 25-07-2019 07:55:00 19.9 C 14.43 g/m*3 19.9 C 0 km/h
1537 25-07-2019 08:00:00 20 C 14.34 g/m*3 20 C 0 km/h
1538 25-07-2019 08:05:00 20.1 C 14.6 g/m*3 20.1 C 0 km/h
1539 25-07-2019 08:10:00 20.2 C 14.51 g/m*3 20.2 C 0 km/h
1540 25-07-2019 08:15:00 20.3 C 14.42 g/m*3 20.3 C 0 km/h
1541 25-07-2019 08:20:00 20.5 C 14.77 g/m*3 20.5 C 0 km/h
1542 25-07-2019 08:25:00 20.7 C 14.94 g/m*3 20.7 C 0 km/h
1543 25-07-2019 08:30:00 20.8 C 15.03 g/m*3 20.8 C 0 km/h
1544 25-07-2019 08:35:00 20.9 C 14.93 g/m*3 20.9 C 0 km/h
1545 25-07-2019 08:40:00 21.1 C 15.29 g/m*3 21.1 C 0 km/h
1546 25-07-2019 08:45:00 21.2 C 15.38 g/m*3 21.2 C 0 km/h
1547 25-07-2019 08:50:00 21.4 C 15.37 g/m*3 21.4 C 0 km/h
1548 25-07-2019 08:55:00 21.6 C 15.55 g/m*3 21.6 C 0 km/h
1549 25-07-2019 09:00:00 21.7 C 15.45 g/m*3 21.7 C 0 km/h
1550 25-07-2019 09:05:00 21.8 C 15.16 g/m*3 21.8 C 0 km/h
Sensor: Nr:Datum:Temp:Abs-Feuchte:Windchill:Wind:
Aussen-T/F 1551 25-07-2019 09:10:00 22.1 C 15.81 g/m*3 22.1 C 0 km/h
1552 25-07-2019 09:15:00 22.2 C 15.9 g/m*3 22.2 C 0 km/h
1553 25-07-2019 09:20:00 22.3 C 15.4 g/m*3 22.3 C 0 km/h
1554 25-07-2019 09:25:00 22.6 C 15.67 g/m*3 22.6 C 0 km/h
1555 25-07-2019 09:30:00 22.8 C 15.65 g/m*3 22.8 C 0 km/h
1556 25-07-2019 09:35:00 23.1 C 15.92 g/m*3 23.1 C 0 km/h
1557 25-07-2019 09:40:00 23.3 C 15.68 g/m*3 23.3 C 0 km/h
1558 25-07-2019 09:45:00 23.5 C 15.65 g/m*3 23.5 C 0 km/h
1559 25-07-2019 09:50:00 23.7 C 15.4 g/m*3 23.7 C 0 km/h
1560 25-07-2019 09:55:00 24 C 15.23 g/m*3 24 C 0 km/h
1561 25-07-2019 10:00:00 24.3 C 15.49 g/m*3 24.3 C 0 km/h
1562 25-07-2019 10:05:00 24.6 C 15.98 g/m*3 24.6 C 0 km/h
1563 25-07-2019 10:10:00 24.9 C 16.02 g/m*3 24.9 C 0 km/h
1564 25-07-2019 10:15:00 25.1 C 15.97 g/m*3 25.1 C 0 km/h
1565 25-07-2019 10:20:00 25.3 C 15.92 g/m*3 25.3 C 0 km/h
1566 25-07-2019 10:25:00 25.6 C 16.43 g/m*3 25.6 C 0 km/h
1567 25-07-2019 10:30:00 25.9 C 16.22 g/m*3 25.9 C 0 km/h
1568 25-07-2019 10:35:00 26.2 C 16 g/m*3 26.2 C 0 km/h
1569 25-07-2019 10:40:00 26.6 C 15.86 g/m*3 26.6 C 0 km/h
1570 25-07-2019 10:45:00 26.9 C 15.87 g/m*3 26.9 C 0 km/h
1571 25-07-2019 10:50:00 27.2 C 16.39 g/m*3 27.2 C 0 km/h
1572 25-07-2019 10:55:00 27.5 C 16.67 g/m*3 27.5 C 0 km/h
1573 25-07-2019 11:00:00 27.8 C 16.41 g/m*3 27.8 C 0 km/h
1574 25-07-2019 11:05:00 28.2 C 16.5 g/m*3 28.2 C 0 km/h
1575 25-07-2019 11:10:00 28.6 C 15.74 g/m*3 28.6 C 1.6 km/h
Sensor: Nr:Datum:Temp:Abs-Feuchte:Windchill:Wind:
Aussen-T/F 1576 25-07-2019 11:15:00 29.1 C 16.75 g/m*3 29.1 C 0 km/h
1577 25-07-2019 11:20:00 29.4 C 15.85 g/m*3 29.4 C 0 km/h
1578 25-07-2019 11:25:00 29.8 C 16.5 g/m*3 29.8 C 0 km/h
1579 25-07-2019 11:30:00 30.1 C 16.46 g/m*3 30.1 C 3.2 km/h
1580 25-07-2019 11:35:00 30.5 C 16.51 g/m*3 30.5 C 3.2 km/h
1581 25-07-2019 11:40:00 30.8 C 15.83 g/m*3 30.8 C 3.2 km/h
1582 25-07-2019 11:45:00 31.2 C 15.53 g/m*3 31.2 C 1.6 km/h
1583 25-07-2019 11:50:00 31.6 C 15.53 g/m*3 31.6 C 3.2 km/h
1584 25-07-2019 11:55:00 32.1 C 14.93 g/m*3 32.1 C 4.8 km/h
1585 25-07-2019 12:00:00 32.6 C 14.29 g/m*3 32.6 C 4.8 km/h
1586 25-07-2019 12:05:00 33 C 14.24 g/m*3 33 C 3.2 km/h
1587 25-07-2019 12:10:00 33.4 C 13.82 g/m*3 33.4 C 4.8 km/h
1588 25-07-2019 12:15:00 33.8 C 14.11 g/m*3 33.8 C 1.6 km/h
1589 25-07-2019 12:20:00 34.3 C 13.34 g/m*3 34.3 C 11.3 km/h
1590 25-07-2019 12:25:00 34.7 C 13.62 g/m*3 34.7 C 8.1 km/h
1591 25-07-2019 12:30:00 34.9 C 13.76 g/m*3 34.9 C 9.7 km/h
1592 25-07-2019 12:35:00 35.2 C 13.18 g/m*3 35.2 C 11.3 km/h
1593 25-07-2019 12:40:00 35.3 C 13.25 g/m*3 35.3 C 9.7 km/h
1594 25-07-2019 12:45:00 35.5 C 13.39 g/m*3 35.5 C 9.7 km/h
1595 25-07-2019 12:50:00 35.7 C 13.53 g/m*3 35.7 C 9.7 km/h
1596 25-07-2019 12:55:00 35.9 C 12.84 g/m*3 35.9 C 12.9 km/h
1597 25-07-2019 13:00:00 36 C 13.32 g/m*3 36 C 12.9 km/h
1598 25-07-2019 13:05:00 36.1 C 13.39 g/m*3 36.1 C 11.3 km/h
1599 25-07-2019 13:10:00 36.2 C 13.46 g/m*3 36.2 C 11.3 km/h
1600 25-07-2019 13:15:00 36.3 C 13.53 g/m*3 36.3 C 8.1 km/h
Sensor: Nr:Datum:Temp:Abs-Feuchte:Windchill:Wind:
Aussen-T/F 1601 25-07-2019 13:20:00 36.3 C 12.69 g/m*3 36.3 C 8.1 km/h
1602 25-07-2019 13:25:00 36.4 C 13.18 g/m*3 36.4 C 6.4 km/h
1603 25-07-2019 13:30:00 36.4 C 13.18 g/m*3 36.4 C 8.1 km/h
1604 25-07-2019 13:35:00 36.6 C 13.31 g/m*3 36.6 C 8.1 km/h
1605 25-07-2019 13:40:00 36.7 C 13.38 g/m*3 36.7 C 9.7 km/h
1606 25-07-2019 13:45:00 36.8 C 13.02 g/m*3 36.8 C 8.1 km/h
1607 25-07-2019 13:50:00 36.9 C 13.52 g/m*3 36.9 C 8.1 km/h
1608 25-07-2019 13:55:00 36.9 C 12.65 g/m*3 36.9 C 8.1 km/h
1609 25-07-2019 14:00:00 36.9 C 13.08 g/m*3 36.9 C 8.1 km/h
1610 25-07-2019 14:05:00 37.1 C 13.22 g/m*3 37.1 C 4.8 km/h
1611 25-07-2019 14:10:00 37.2 C 12.84 g/m*3 37.2 C 14.5 km/h
1612 25-07-2019 14:15:00 37.3 C 13.35 g/m*3 37.3 C 14.5 km/h
1613 25-07-2019 14:20:00 37.4 C 12.97 g/m*3 37.4 C 8.1 km/h
1614 25-07-2019 14:25:00 37.4 C 12.08 g/m*3 37.4 C 6.4 km/h
1615 25-07-2019 14:30:00 37.4 C 13.42 g/m*3 37.4 C 4.8 km/h
1616 25-07-2019 14:35:00 37.6 C 12.66 g/m*3 37.6 C 6.4 km/h
1617 25-07-2019 14:40:00 37.6 C 13.11 g/m*3 37.6 C 6.4 km/h
1618 25-07-2019 14:45:00 37.7 C 12.27 g/m*3 37.7 C 6.4 km/h
1619 25-07-2019 14:50:00 37.7 C 13.17 g/m*3 37.7 C 6.4 km/h
1620 25-07-2019 14:55:00 37.8 C 12.79 g/m*3 37.8 C 6.4 km/h
1621 25-07-2019 15:00:00 37.9 C 12.85 g/m*3 37.9 C 8.1 km/h
1622 25-07-2019 15:05:00 38.2 C 13.05 g/m*3 38.2 C 6.4 km/h
1623 25-07-2019 15:10:00 38.3 C 13.11 g/m*3 38.3 C 4.8 km/h
1624 25-07-2019 15:15:00 38.5 C 12.77 g/m*3 38.5 C 12.9 km/h
1625 25-07-2019 15:20:00 38.7 C 12.43 g/m*3 38.7 C 9.7 km/h
Sensor: Nr:Datum:Temp:Abs-Feuchte:Windchill:Wind:
Aussen-T/F 1626 25-07-2019 15:25:00 38.8 C 12.49 g/m*3 38.8 C 6.4 km/h
1627 25-07-2019 15:30:00 38.9 C 12.55 g/m*3 38.9 C 12.9 km/h
1628 25-07-2019 15:35:00 38.7 C 12.43 g/m*3 38.7 C 9.7 km/h
1629 25-07-2019 15:40:00 38.8 C 12.49 g/m*3 38.8 C 11.3 km/h
1630 25-07-2019 15:45:00 39.2 C 12.25 g/m*3 39.2 C 11.3 km/h
1631 25-07-2019 15:50:00 39.6 C 13 g/m*3 39.6 C 6.4 km/h
1632 25-07-2019 15:55:00 39.9 C 12.19 g/m*3 39.9 C 8.1 km/h
1633 25-07-2019 16:00:00 40.1 C 11.8 g/m*3 40.1 C 6.4 km/h
1634 25-07-2019 16:05:00 40.2 C 12.37 g/m*3 40.2 C 11.3 km/h
1635 25-07-2019 16:10:00 40.2 C 12.89 g/m*3 40.2 C 8.1 km/h
1636 25-07-2019 16:15:00 40.3 C 11.91 g/m*3 40.3 C 9.7 km/h
1637 25-07-2019 16:20:00 40.4 C 12.49 g/m*3 40.4 C 11.3 km/h
1638 25-07-2019 16:25:00 40.4 C 13.01 g/m*3 40.4 C 11.3 km/h
1639 25-07-2019 16:30:00 40.4 C 11.97 g/m*3 40.4 C 17.7 km/h
1640 25-07-2019 16:35:00 40.3 C 11.91 g/m*3 40.3 C 17.7 km/h
1641 25-07-2019 16:40:00 40 C 11.74 g/m*3 40 C 12.9 km/h
1642 25-07-2019 16:45:00 39.9 C 11.68 g/m*3 39.9 C 16.1 km/h
1643 25-07-2019 16:50:00 39.9 C 12.69 g/m*3 39.9 C 8.1 km/h
1644 25-07-2019 16:55:00 39.7 C 11.56 g/m*3 39.7 C 12.9 km/h
1645 25-07-2019 17:00:00 39.8 C 12.12 g/m*3 39.8 C 9.7 km/h
1646 25-07-2019 17:05:00 39.9 C 12.19 g/m*3 39.9 C 11.3 km/h
1647 25-07-2019 17:10:00 40.3 C 11.91 g/m*3 40.3 C 11.3 km/h
1648 25-07-2019 17:15:00 40.3 C 11.4 g/m*3 40.3 C 12.9 km/h
1649 25-07-2019 17:20:00 40.1 C 11.28 g/m*3 40.1 C 14.5 km/h
1650 25-07-2019 17:25:00 39.9 C 11.17 g/m*3 39.9 C 17.7 km/h
Sensor: Nr:Datum:Temp:Abs-Feuchte:Windchill:Wind:
Aussen-T/F 1651 25-07-2019 17:30:00 39.6 C 11 g/m*3 39.6 C 20.9 km/h
1652 25-07-2019 17:35:00 39.5 C 10.95 g/m*3 39.5 C 20.9 km/h
1653 25-07-2019 17:40:00 39.5 C 10.95 g/m*3 39.5 C 9.7 km/h
1654 25-07-2019 17:45:00 39.5 C 10.95 g/m*3 39.5 C 14.5 km/h
1655 25-07-2019 17:50:00 39.6 C 11.5 g/m*3 39.6 C 9.7 km/h
1656 25-07-2019 17:55:00 39.7 C 11.56 g/m*3 39.7 C 6.4 km/h
1657 25-07-2019 18:00:00 39.6 C 11.5 g/m*3 39.6 C 9.7 km/h
1658 25-07-2019 18:05:00 39.4 C 11.39 g/m*3 39.4 C 8.1 km/h
1659 25-07-2019 18:10:00 39.4 C 10.89 g/m*3 39.4 C 9.7 km/h
1660 25-07-2019 18:15:00 39.4 C 11.39 g/m*3 39.4 C 8.1 km/h
1661 25-07-2019 18:20:00 39.3 C 10.84 g/m*3 39.3 C 17.7 km/h
1662 25-07-2019 18:25:00 39.3 C 11.33 g/m*3 39.3 C 9.7 km/h
1663 25-07-2019 18:30:00 39.2 C 11.27 g/m*3 39.2 C 9.7 km/h
1664 25-07-2019 18:35:00 39.1 C 11.22 g/m*3 39.1 C 8.1 km/h
1665 25-07-2019 18:40:00 38.8 C 11.05 g/m*3 38.8 C 12.9 km/h
1666 25-07-2019 18:45:00 38.6 C 11.41 g/m*3 38.6 C 8.1 km/h
1667 25-07-2019 18:50:00 38.6 C 11.41 g/m*3 38.6 C 11.3 km/h
1668 25-07-2019 18:55:00 38.4 C 13.65 g/m*3 38.4 C 8.1 km/h
1669 25-07-2019 19:00:00 38.3 C 11.71 g/m*3 38.3 C 8.1 km/h
1670 25-07-2019 19:05:00 38.2 C 14.45 g/m*3 38.2 C 1.6 km/h
1671 25-07-2019 19:10:00 38 C 12.92 g/m*3 38 C 9.7 km/h
1672 25-07-2019 19:15:00 37.8 C 15.07 g/m*3 37.8 C 1.6 km/h
1673 25-07-2019 19:20:00 37.4 C 14.32 g/m*3 37.4 C 0 km/h
1674 25-07-2019 19:25:00 37 C 14.46 g/m*3 37 C 0 km/h
1675 25-07-2019 19:30:00 36.6 C 14.17 g/m*3 36.6 C 0 km/h
Sensor: Nr:Datum:Temp:Abs-Feuchte:Windchill:Wind:
Aussen-T/F 1676 25-07-2019 19:35:00 36.2 C 14.72 g/m*3 36.2 C 1.6 km/h
1677 25-07-2019 19:40:00 35.7 C 14.76 g/m*3 35.7 C 0 km/h
1678 25-07-2019 19:45:00 35.3 C 15.66 g/m*3 35.3 C 0 km/h
1679 25-07-2019 19:50:00 34.9 C 14.94 g/m*3 34.9 C 0 km/h
1680 25-07-2019 19:55:00 34.6 C 14.71 g/m*3 34.6 C 0 km/h
1681 25-07-2019 20:00:00 34.3 C 15.63 g/m*3 34.3 C 0 km/h
1682 25-07-2019 20:05:00 33.9 C 15.3 g/m*3 33.9 C 0 km/h
1683 25-07-2019 20:10:00 33.7 C 14.77 g/m*3 33.7 C 0 km/h
1684 25-07-2019 20:15:00 33.4 C 14.54 g/m*3 33.4 C 0 km/h
1685 25-07-2019 20:20:00 33.2 C 15.11 g/m*3 33.2 C 0 km/h
1686 25-07-2019 20:25:00 32.9 C 14.52 g/m*3 32.9 C 0 km/h
1687 25-07-2019 20:30:00 32.7 C 14.72 g/m*3 32.7 C 0 km/h
1688 25-07-2019 20:35:00 32.4 C 14.48 g/m*3 32.4 C 0 km/h
1689 25-07-2019 20:40:00 32.2 C 14.67 g/m*3 32.2 C 0 km/h
1690 25-07-2019 20:45:00 31.9 C 14.44 g/m*3 31.9 C 0 km/h
1691 25-07-2019 20:50:00 31.7 C 14.62 g/m*3 31.7 C 0 km/h
1692 25-07-2019 20:55:00 31.5 C 14.13 g/m*3 31.5 C 0 km/h
1693 25-07-2019 21:00:00 31.3 C 14.31 g/m*3 31.3 C 0 km/h
1694 25-07-2019 21:05:00 31.1 C 14.16 g/m*3 31.1 C 1.6 km/h
1695 25-07-2019 21:10:00 30.9 C 14.32 g/m*3 30.9 C 1.6 km/h
1696 25-07-2019 21:15:00 30.7 C 13.86 g/m*3 30.7 C 1.6 km/h
1697 25-07-2019 21:20:00 30.5 C 13.71 g/m*3 30.5 C 1.6 km/h
1698 25-07-2019 21:25:00 30.3 C 13.87 g/m*3 30.3 C 1.6 km/h
1699 25-07-2019 21:30:00 30.2 C 13.79 g/m*3 30.2 C 1.6 km/h
1700 25-07-2019 21:35:00 30.1 C 13.72 g/m*3 30.1 C 1.6 km/h
Sensor: Nr:Datum:Temp:Abs-Feuchte:Windchill:Wind:
Aussen-T/F 1701 25-07-2019 21:40:00 29.9 C 13.57 g/m*3 29.9 C 1.6 km/h
1702 25-07-2019 21:45:00 29.8 C 13.5 g/m*3 29.8 C 1.6 km/h
1703 25-07-2019 21:50:00 29.7 C 13.43 g/m*3 29.7 C 1.6 km/h
1704 25-07-2019 21:55:00 29.6 C 13.35 g/m*3 29.6 C 1.6 km/h
1705 25-07-2019 22:00:00 29.4 C 13.21 g/m*3 29.4 C 1.6 km/h
1706 25-07-2019 22:05:00 29.3 C 13.43 g/m*3 29.3 C 1.6 km/h
1707 25-07-2019 22:10:00 29.2 C 13.36 g/m*3 29.2 C 1.6 km/h
1708 25-07-2019 22:15:00 29.1 C 13.57 g/m*3 29.1 C 0 km/h
1709 25-07-2019 22:20:00 28.9 C 13.14 g/m*3 28.9 C 1.6 km/h
1710 25-07-2019 22:25:00 28.8 C 13.64 g/m*3 28.8 C 0 km/h
1711 25-07-2019 22:30:00 28.7 C 13.56 g/m*3 28.7 C 1.6 km/h
1712 25-07-2019 22:35:00 28.5 C 13.42 g/m*3 28.5 C 1.6 km/h
1713 25-07-2019 22:40:00 28.4 C 13.34 g/m*3 28.4 C 0 km/h
1714 25-07-2019 22:45:00 28.3 C 13.27 g/m*3 28.3 C 1.6 km/h
1715 25-07-2019 22:50:00 28.3 C 13.55 g/m*3 28.3 C 1.6 km/h
1716 25-07-2019 22:55:00 28.2 C 13.2 g/m*3 28.2 C 0 km/h
1717 25-07-2019 23:00:00 28.1 C 13.4 g/m*3 28.1 C 1.6 km/h
1718 25-07-2019 23:05:00 28 C 13.05 g/m*3 28 C 1.6 km/h
1719 25-07-2019 23:10:00 27.9 C 13.25 g/m*3 27.9 C 1.6 km/h
1720 25-07-2019 23:15:00 27.8 C 12.91 g/m*3 27.8 C 1.6 km/h
1721 25-07-2019 23:20:00 27.8 C 13.18 g/m*3 27.8 C 1.6 km/h
1722 25-07-2019 23:25:00 27.7 C 13.37 g/m*3 27.7 C 0 km/h
1723 25-07-2019 23:30:00 27.6 C 13.04 g/m*3 27.6 C 0 km/h
1724 25-07-2019 23:35:00 27.4 C 13.16 g/m*3 27.4 C 0 km/h
1725 25-07-2019 23:40:00 27.3 C 13.08 g/m*3 27.3 C 1.6 km/h
Sensor: Nr:Datum:Temp:Abs-Feuchte:Windchill:Wind:
Aussen-T/F 1726 25-07-2019 23:45:00 27.2 C 13.01 g/m*3 27.2 C 0 km/h
1727 25-07-2019 23:50:00 27.1 C 13.2 g/m*3 27.1 C 0 km/h
1728 25-07-2019 23:55:00 26.9 C 13.56 g/m*3 26.9 C 1.6 km/h
1729 26-07-2019 00:00:00 26.8 C 13.49 g/m*3 26.8 C 0 km/h
1730 26-07-2019 00:05:00 26.7 C 13.42 g/m*3 26.7 C 0 km/h
1731 26-07-2019 00:10:00 26.5 C 13.02 g/m*3 26.5 C 0 km/h
1732 26-07-2019 00:15:00 26.4 C 13.19 g/m*3 26.4 C 0 km/h
1733 26-07-2019 00:20:00 26.3 C 13.12 g/m*3 26.3 C 0 km/h
1734 26-07-2019 00:25:00 26.2 C 13.29 g/m*3 26.2 C 0 km/h
1735 26-07-2019 00:30:00 26.1 C 13.22 g/m*3 26.1 C 0 km/h
1736 26-07-2019 00:35:00 26 C 12.9 g/m*3 26 C 0 km/h
1737 26-07-2019 00:40:00 25.9 C 13.07 g/m*3 25.9 C 0 km/h
1738 26-07-2019 00:45:00 25.9 C 13.07 g/m*3 25.9 C 0 km/h
1739 26-07-2019 00:50:00 25.8 C 13 g/m*3 25.8 C 0 km/h
1740 26-07-2019 00:55:00 25.7 C 12.93 g/m*3 25.7 C 0 km/h
1741 26-07-2019 01:00:00 25.6 C 12.86 g/m*3 25.6 C 0 km/h
1742 26-07-2019 01:05:00 25.5 C 13.02 g/m*3 25.5 C 0 km/h
1743 26-07-2019 01:10:00 25.4 C 12.71 g/m*3 25.4 C 0 km/h
1744 26-07-2019 01:15:00 25.3 C 13.11 g/m*3 25.3 C 0 km/h
1745 26-07-2019 01:20:00 25.2 C 13.04 g/m*3 25.2 C 0 km/h
1746 26-07-2019 01:25:00 25.2 C 13.27 g/m*3 25.2 C 0 km/h
1747 26-07-2019 01:30:00 25.1 C 12.96 g/m*3 25.1 C 0 km/h
1748 26-07-2019 01:35:00 24.9 C 13.28 g/m*3 24.9 C 0 km/h
1749 26-07-2019 01:40:00 24.8 C 13.43 g/m*3 24.8 C 0 km/h
1750 26-07-2019 01:45:00 24.6 C 13.5 g/m*3 24.6 C 0 km/h
Sensor: Nr:Datum:Temp:Abs-Feuchte:Windchill:Wind:
Aussen-T/F 1751 26-07-2019 01:50:00 24.3 C 13.28 g/m*3 24.3 C 0 km/h
1752 26-07-2019 01:55:00 24.1 C 13.13 g/m*3 24.1 C 0 km/h
1753 26-07-2019 02:00:00 23.8 C 13.34 g/m*3 23.8 C 0 km/h
1754 26-07-2019 02:05:00 23.6 C 13.61 g/m*3 23.6 C 0 km/h
1755 26-07-2019 02:10:00 23.3 C 13.59 g/m*3 23.3 C 0 km/h
1756 26-07-2019 02:15:00 23 C 13.57 g/m*3 23 C 0 km/h
1757 26-07-2019 02:20:00 22.8 C 13.61 g/m*3 22.8 C 0 km/h
1758 26-07-2019 02:25:00 22.6 C 13.66 g/m*3 22.6 C 0 km/h
1759 26-07-2019 02:30:00 22.3 C 13.62 g/m*3 22.3 C 0 km/h
1760 26-07-2019 02:35:00 22.2 C 13.55 g/m*3 22.2 C 0 km/h
1761 26-07-2019 02:40:00 21.9 C 13.31 g/m*3 21.9 C 0 km/h
1762 26-07-2019 02:45:00 21.7 C 12.97 g/m*3 21.7 C 0 km/h
1763 26-07-2019 02:50:00 21.6 C 13.09 g/m*3 21.6 C 0 km/h
1764 26-07-2019 02:55:00 21.4 C 12.75 g/m*3 21.4 C 0 km/h
1765 26-07-2019 03:00:00 21.3 C 13.05 g/m*3 21.3 C 0 km/h
1766 26-07-2019 03:05:00 21.2 C 13.16 g/m*3 21.2 C 0 km/h
1767 26-07-2019 03:10:00 21.2 C 13.16 g/m*3 21.2 C 0 km/h
1768 26-07-2019 03:15:00 21.1 C 12.9 g/m*3 21.1 C 0 km/h
1769 26-07-2019 03:20:00 21.1 C 13.08 g/m*3 21.1 C 0 km/h
1770 26-07-2019 03:25:00 21 C 13.01 g/m*3 21 C 0 km/h
1771 26-07-2019 03:30:00 21 C 13.19 g/m*3 21 C 0 km/h
1772 26-07-2019 03:35:00 20.9 C 13.11 g/m*3 20.9 C 0 km/h
1773 26-07-2019 03:40:00 20.8 C 13.04 g/m*3 20.8 C 0 km/h
1774 26-07-2019 03:45:00 20.8 C 13.04 g/m*3 20.8 C 0 km/h
1775 26-07-2019 03:50:00 20.8 C 13.4 g/m*3 20.8 C 0 km/h
Sensor: Nr:Datum:Temp:Abs-Feuchte:Windchill:Wind:
Aussen-T/F 1776 26-07-2019 03:55:00 20.7 C 13.32 g/m*3 20.7 C 0 km/h
1777 26-07-2019 04:00:00 20.7 C 13.32 g/m*3 20.7 C 0 km/h
1778 26-07-2019 04:05:00 20.6 C 13.42 g/m*3 20.6 C 0 km/h
1779 26-07-2019 04:10:00 20.4 C 13.27 g/m*3 20.4 C 0 km/h
1780 26-07-2019 04:15:00 20.3 C 13.19 g/m*3 20.3 C 0 km/h
1781 26-07-2019 04:20:00 20.3 C 13.37 g/m*3 20.3 C 0 km/h
1782 26-07-2019 04:25:00 20.2 C 13.46 g/m*3 20.2 C 0 km/h
1783 26-07-2019 04:30:00 20.1 C 13.39 g/m*3 20.1 C 0 km/h
1784 26-07-2019 04:35:00 19.9 C 13.23 g/m*3 19.9 C 0 km/h
1785 26-07-2019 04:40:00 19.9 C 13.4 g/m*3 19.9 C 0 km/h
1786 26-07-2019 04:45:00 19.8 C 13.32 g/m*3 19.8 C 0 km/h
1787 26-07-2019 04:50:00 19.7 C 13.25 g/m*3 19.7 C 0 km/h
1788 26-07-2019 04:55:00 19.6 C 13.34 g/m*3 19.6 C 0 km/h
1789 26-07-2019 05:00:00 19.6 C 13.34 g/m*3 19.6 C 0 km/h
1790 26-07-2019 05:05:00 19.5 C 13.09 g/m*3 19.5 C 0 km/h
1791 26-07-2019 05:10:00 19.4 C 13.01 g/m*3 19.4 C 0 km/h
1792 26-07-2019 05:15:00 19.3 C 12.94 g/m*3 19.3 C 0 km/h
1793 26-07-2019 05:20:00 19.3 C 13.1 g/m*3 19.3 C 0 km/h
1794 26-07-2019 05:25:00 19.3 C 12.94 g/m*3 19.3 C 0 km/h
1795 26-07-2019 05:30:00 19.3 C 13.27 g/m*3 19.3 C 0 km/h
1796 26-07-2019 05:35:00 19.3 C 13.27 g/m*3 19.3 C 0 km/h
1797 26-07-2019 05:40:00 19.2 C 13.19 g/m*3 19.2 C 0 km/h
1798 26-07-2019 05:45:00 19.2 C 13.19 g/m*3 19.2 C 0 km/h
1799 26-07-2019 05:50:00 19.1 C 12.95 g/m*3 19.1 C 0 km/h
1800 26-07-2019 05:55:00 19 C 12.87 g/m*3 19 C 0 km/h
Sensor: Nr:Datum:Temp:Abs-Feuchte:Windchill:Wind:
Aussen-T/F 1801 26-07-2019 06:00:00 18.9 C 12.96 g/m*3 18.9 C 0 km/h
1802 26-07-2019 06:05:00 19 C 12.87 g/m*3 19 C 0 km/h
1803 26-07-2019 06:10:00 19 C 12.87 g/m*3 19 C 0 km/h
1804 26-07-2019 06:15:00 18.9 C 12.96 g/m*3 18.9 C 0 km/h
1805 26-07-2019 06:20:00 18.9 C 12.96 g/m*3 18.9 C 0 km/h
1806 26-07-2019 06:25:00 18.9 C 12.96 g/m*3 18.9 C 0 km/h
1807 26-07-2019 06:30:00 18.9 C 12.96 g/m*3 18.9 C 0 km/h
1808 26-07-2019 06:35:00 18.9 C 13.12 g/m*3 18.9 C 0 km/h
1809 26-07-2019 06:40:00 18.9 C 13.12 g/m*3 18.9 C 0 km/h
1810 26-07-2019 06:45:00 19 C 13.2 g/m*3 19 C 0 km/h
1811 26-07-2019 06:50:00 19.1 C 13.28 g/m*3 19.1 C 0 km/h
1812 26-07-2019 06:55:00 19.1 C 13.44 g/m*3 19.1 C 0 km/h
1813 26-07-2019 07:00:00 19.2 C 13.69 g/m*3 19.2 C 0 km/h
1814 26-07-2019 07:05:00 19.3 C 13.77 g/m*3 19.3 C 0 km/h
1815 26-07-2019 07:10:00 19.3 C 13.77 g/m*3 19.3 C 0 km/h
1816 26-07-2019 07:15:00 19.4 C 13.85 g/m*3 19.4 C 0 km/h
1817 26-07-2019 07:20:00 19.4 C 13.68 g/m*3 19.4 C 0 km/h
1818 26-07-2019 07:25:00 19.5 C 13.93 g/m*3 19.5 C 0 km/h
1819 26-07-2019 07:30:00 19.6 C 14.01 g/m*3 19.6 C 0 km/h
1820 26-07-2019 07:35:00 19.7 C 14.09 g/m*3 19.7 C 0 km/h
1821 26-07-2019 07:40:00 19.8 C 14.18 g/m*3 19.8 C 0 km/h
1822 26-07-2019 07:45:00 19.9 C 14.09 g/m*3 19.9 C 0 km/h
1823 26-07-2019 07:50:00 20.1 C 14.08 g/m*3 20.1 C 0 km/h
1824 26-07-2019 07:55:00 20.2 C 14.16 g/m*3 20.2 C 0 km/h
1825 26-07-2019 08:00:00 20.4 C 14.33 g/m*3 20.4 C 0 km/h
Sensor: Nr:Datum:Temp:Abs-Feuchte:Windchill:Wind:
Aussen-T/F 1826 26-07-2019 08:05:00 20.5 C 14.59 g/m*3 20.5 C 0 km/h
1827 26-07-2019 08:10:00 20.6 C 14.5 g/m*3 20.6 C 0 km/h
1828 26-07-2019 08:15:00 20.7 C 14.76 g/m*3 20.7 C 0 km/h
1829 26-07-2019 08:20:00 20.8 C 14.67 g/m*3 20.8 C 0 km/h
1830 26-07-2019 08:25:00 20.9 C 14.57 g/m*3 20.9 C 0 km/h
1831 26-07-2019 08:30:00 21.1 C 14.56 g/m*3 21.1 C 0 km/h
1832 26-07-2019 08:35:00 21.3 C 14.73 g/m*3 21.3 C 0 km/h
1833 26-07-2019 08:40:00 21.5 C 14.71 g/m*3 21.5 C 0 km/h
1834 26-07-2019 08:45:00 21.7 C 15.07 g/m*3 21.7 C 0 km/h
1835 26-07-2019 08:50:00 21.9 C 15.44 g/m*3 21.9 C 0 km/h
1836 26-07-2019 08:55:00 21.9 C 15.05 g/m*3 21.9 C 0 km/h
1837 26-07-2019 09:00:00 22.1 C 14.84 g/m*3 22.1 C 0 km/h
1838 26-07-2019 09:05:00 22.3 C 15.01 g/m*3 22.3 C 0 km/h
1839 26-07-2019 09:10:00 22.4 C 14.7 g/m*3 22.4 C 0 km/h
1840 26-07-2019 09:15:00 22.7 C 14.75 g/m*3 22.7 C 0 km/h
1841 26-07-2019 09:20:00 22.9 C 15.12 g/m*3 22.9 C 0 km/h
1842 26-07-2019 09:25:00 23.1 C 14.47 g/m*3 23.1 C 0 km/h
1843 26-07-2019 09:30:00 23.4 C 14.72 g/m*3 23.4 C 1.6 km/h
1844 26-07-2019 09:35:00 23.7 C 14.33 g/m*3 23.7 C 0 km/h
1845 26-07-2019 09:40:00 24.2 C 14.74 g/m*3 24.2 C 1.6 km/h
1846 26-07-2019 09:45:00 24.6 C 14.85 g/m*3 24.6 C 0 km/h
1847 26-07-2019 09:50:00 25 C 13.35 g/m*3 25 C 4.8 km/h
1848 26-07-2019 09:55:00 25.7 C 14.36 g/m*3 25.7 C 4.8 km/h
1849 26-07-2019 10:00:00 25.9 C 14.53 g/m*3 25.9 C 1.6 km/h
1850 26-07-2019 10:05:00 26.3 C 14.36 g/m*3 26.3 C 8.1 km/h
Sensor: Nr:Datum:Temp:Abs-Feuchte:Windchill:Wind:
Aussen-T/F 1851 26-07-2019 10:10:00 26.4 C 14.19 g/m*3 26.4 C 1.6 km/h
1852 26-07-2019 10:15:00 26.8 C 14 g/m*3 26.8 C 6.4 km/h
1853 26-07-2019 10:20:00 27.2 C 14.05 g/m*3 27.2 C 4.8 km/h
1854 26-07-2019 10:25:00 27.6 C 12.77 g/m*3 27.6 C 6.4 km/h
1855 26-07-2019 10:30:00 28.4 C 12.79 g/m*3 28.4 C 9.7 km/h
1856 26-07-2019 10:35:00 29.1 C 13.28 g/m*3 29.1 C 9.7 km/h
1857 26-07-2019 10:40:00 29.6 C 13.06 g/m*3 29.6 C 9.7 km/h
1858 26-07-2019 10:45:00 30.1 C 13.11 g/m*3 30.1 C 9.7 km/h
1859 26-07-2019 10:50:00 30.5 C 13.08 g/m*3 30.5 C 6.4 km/h
1860 26-07-2019 10:55:00 30.8 C 12.98 g/m*3 30.8 C 6.4 km/h
1861 26-07-2019 11:00:00 31 C 12.48 g/m*3 31 C 6.4 km/h
1862 26-07-2019 11:05:00 31.2 C 12.62 g/m*3 31.2 C 4.8 km/h
1863 26-07-2019 11:10:00 31.4 C 13.41 g/m*3 31.4 C 3.2 km/h
1864 26-07-2019 11:15:00 31.5 C 13.15 g/m*3 31.5 C 3.2 km/h
1865 26-07-2019 11:20:00 31.7 C 12.96 g/m*3 31.7 C 6.4 km/h
1866 26-07-2019 11:25:00 31.9 C 13.43 g/m*3 31.9 C 6.4 km/h
1867 26-07-2019 11:30:00 32.1 C 12.9 g/m*3 32.1 C 1.6 km/h
1868 26-07-2019 11:35:00 32.3 C 13.72 g/m*3 32.3 C 3.2 km/h
1869 26-07-2019 11:40:00 32.6 C 13.59 g/m*3 32.6 C 4.8 km/h
1870 26-07-2019 11:45:00 32.8 C 13.03 g/m*3 32.8 C 3.2 km/h
1871 26-07-2019 11:50:00 32.9 C 13.1 g/m*3 32.9 C 6.4 km/h
1872 26-07-2019 11:55:00 33.2 C 13.31 g/m*3 33.2 C 3.2 km/h
1873 26-07-2019 12:00:00 33.4 C 13.09 g/m*3 33.4 C 4.8 km/h
1874 26-07-2019 12:05:00 33.6 C 12.86 g/m*3 33.6 C 6.4 km/h
1875 26-07-2019 12:10:00 33.7 C 13.67 g/m*3 33.7 C 6.4 km/h
Sensor: Nr:Datum:Temp:Abs-Feuchte:Windchill:Wind:
Aussen-T/F 1876 26-07-2019 12:15:00 33.8 C 13 g/m*3 33.8 C 9.7 km/h
1877 26-07-2019 12:20:00 34.1 C 13.2 g/m*3 34.1 C 8.1 km/h
1878 26-07-2019 12:25:00 34.2 C 13.65 g/m*3 34.2 C 6.4 km/h
1879 26-07-2019 12:30:00 34.3 C 12.96 g/m*3 34.3 C 6.4 km/h
1880 26-07-2019 12:35:00 34.5 C 13.1 g/m*3 34.5 C 9.7 km/h
1881 26-07-2019 12:40:00 34.8 C 13.3 g/m*3 34.8 C 12.9 km/h
1882 26-07-2019 12:45:00 35.1 C 13.11 g/m*3 35.1 C 12.9 km/h
1883 26-07-2019 12:50:00 35.3 C 13.25 g/m*3 35.3 C 11.3 km/h
1884 26-07-2019 12:55:00 35.4 C 12.92 g/m*3 35.4 C 11.3 km/h
1885 26-07-2019 13:00:00 35.5 C 12.98 g/m*3 35.5 C 12.9 km/h
1886 26-07-2019 13:05:00 35.6 C 12.64 g/m*3 35.6 C 12.9 km/h
1887 26-07-2019 13:10:00 35.7 C 12.71 g/m*3 35.7 C 9.7 km/h
1888 26-07-2019 13:15:00 35.7 C 13.12 g/m*3 35.7 C 8.1 km/h
1889 26-07-2019 13:20:00 35.8 C 13.19 g/m*3 35.8 C 6.4 km/h
1890 26-07-2019 13:25:00 35.8 C 12.77 g/m*3 35.8 C 8.1 km/h
1891 26-07-2019 13:30:00 35.9 C 12.43 g/m*3 35.9 C 9.7 km/h
1892 26-07-2019 13:35:00 36.1 C 12.97 g/m*3 36.1 C 8.1 km/h
1893 26-07-2019 13:40:00 36.2 C 13.04 g/m*3 36.2 C 11.3 km/h
1894 26-07-2019 13:45:00 36.4 C 13.18 g/m*3 36.4 C 9.7 km/h
1895 26-07-2019 13:50:00 36.6 C 12.88 g/m*3 36.6 C 9.7 km/h
1896 26-07-2019 13:55:00 36.8 C 12.58 g/m*3 36.8 C 8.1 km/h
1897 26-07-2019 14:00:00 36.9 C 12.65 g/m*3 36.9 C 9.7 km/h
1898 26-07-2019 14:05:00 36.9 C 12.21 g/m*3 36.9 C 9.7 km/h
1899 26-07-2019 14:10:00 36.8 C 12.15 g/m*3 36.8 C 8.1 km/h
1900 26-07-2019 14:15:00 36.9 C 12.21 g/m*3 36.9 C 4.8 km/h
Sensor: Nr:Datum:Temp:Abs-Feuchte:Windchill:Wind:
Aussen-T/F 1901 26-07-2019 14:20:00 37.1 C 12.78 g/m*3 37.1 C 6.4 km/h
1902 26-07-2019 14:25:00 37.4 C 12.08 g/m*3 37.4 C 11.3 km/h
1903 26-07-2019 14:30:00 37.6 C 11.75 g/m*3 37.6 C 8.1 km/h
1904 26-07-2019 14:35:00 37.8 C 11.87 g/m*3 37.8 C 6.4 km/h
1905 26-07-2019 14:40:00 37.8 C 11.87 g/m*3 37.8 C 6.4 km/h
1906 26-07-2019 14:45:00 37.7 C 10.9 g/m*3 37.7 C 6.4 km/h
1907 26-07-2019 14:50:00 37.7 C 11.81 g/m*3 37.7 C 3.2 km/h
1908 26-07-2019 14:55:00 37.7 C 10.9 g/m*3 37.7 C 4.8 km/h
1909 26-07-2019 15:00:00 38.1 C 11.59 g/m*3 38.1 C 6.4 km/h
1910 26-07-2019 15:05:00 38.3 C 11.71 g/m*3 38.3 C 11.3 km/h
1911 26-07-2019 15:10:00 38.6 C 11.41 g/m*3 38.6 C 9.7 km/h
1912 26-07-2019 15:15:00 38.7 C 11.95 g/m*3 38.7 C 8.1 km/h
1913 26-07-2019 15:20:00 38.3 C 12.65 g/m*3 38.3 C 27.4 km/h
1914 26-07-2019 15:25:00 37.3 C 13.35 g/m*3 37.3 C 19.3 km/h
1915 26-07-2019 15:30:00 36.8 C 13.02 g/m*3 36.8 C 9.7 km/h
1916 26-07-2019 15:35:00 36.3 C 13.11 g/m*3 36.3 C 14.5 km/h
1917 26-07-2019 15:40:00 35.9 C 12.84 g/m*3 35.9 C 16.1 km/h
1918 26-07-2019 15:45:00 35.6 C 13.05 g/m*3 35.6 C 12.9 km/h
1919 26-07-2019 15:50:00 35.7 C 12.3 g/m*3 35.7 C 14.5 km/h
1920 26-07-2019 15:55:00 35.6 C 12.23 g/m*3 35.6 C 12.9 km/h
1921 26-07-2019 16:00:00 35.4 C 12.51 g/m*3 35.4 C 11.3 km/h
1922 26-07-2019 16:05:00 35.3 C 12.85 g/m*3 35.3 C 8.1 km/h
1923 26-07-2019 16:10:00 35.4 C 12.92 g/m*3 35.4 C 6.4 km/h
1924 26-07-2019 16:15:00 35.4 C 12.51 g/m*3 35.4 C 6.4 km/h
1925 26-07-2019 16:20:00 35.5 C 12.98 g/m*3 35.5 C 3.2 km/h
Sensor: Nr:Datum:Temp:Abs-Feuchte:Windchill:Wind:
Aussen-T/F 1926 26-07-2019 16:25:00 35.6 C 15.09 g/m*3 35.6 C 0 km/h
1927 26-07-2019 16:30:00 35.6 C 15.91 g/m*3 35.6 C 1.6 km/h
1928 26-07-2019 16:35:00 35.6 C 16.31 g/m*3 35.6 C 0 km/h
1929 26-07-2019 16:40:00 35.3 C 12.85 g/m*3 35.3 C 11.3 km/h
1930 26-07-2019 16:45:00 34.9 C 13.37 g/m*3 34.9 C 8.1 km/h
1931 26-07-2019 16:50:00 34.8 C 13.69 g/m*3 34.8 C 3.2 km/h
1932 26-07-2019 16:55:00 34.6 C 12.78 g/m*3 34.6 C 9.7 km/h
1933 26-07-2019 17:00:00 34.2 C 13.27 g/m*3 34.2 C 12.9 km/h
1934 26-07-2019 17:05:00 34.1 C 15.84 g/m*3 34.1 C 0 km/h
1935 26-07-2019 17:10:00 33.5 C 14.25 g/m*3 33.5 C 8.1 km/h
1936 26-07-2019 17:15:00 32.9 C 14.16 g/m*3 32.9 C 8.1 km/h
1937 26-07-2019 17:20:00 32.6 C 14.64 g/m*3 32.6 C 3.2 km/h
1938 26-07-2019 17:25:00 32.4 C 15.17 g/m*3 32.4 C 0 km/h
1939 26-07-2019 17:30:00 32.2 C 15.35 g/m*3 32.2 C 6.4 km/h
1940 26-07-2019 17:35:00 31.9 C 15.45 g/m*3 31.9 C 4.8 km/h
1941 26-07-2019 17:40:00 31.8 C 14.36 g/m*3 31.8 C 9.7 km/h
1942 26-07-2019 17:45:00 31.7 C 14.62 g/m*3 31.7 C 4.8 km/h
1943 26-07-2019 17:50:00 31.4 C 14.71 g/m*3 31.4 C 8.1 km/h
1944 26-07-2019 17:55:00 31.3 C 14.31 g/m*3 31.3 C 6.4 km/h
1945 26-07-2019 18:00:00 31.2 C 14.56 g/m*3 31.2 C 3.2 km/h
1946 26-07-2019 18:05:00 31.1 C 14.48 g/m*3 31.1 C 6.4 km/h
1947 26-07-2019 18:10:00 30.9 C 14.01 g/m*3 30.9 C 6.4 km/h
1948 26-07-2019 18:15:00 30.9 C 14.01 g/m*3 30.9 C 9.7 km/h
1949 26-07-2019 18:20:00 30.8 C 13.93 g/m*3 30.8 C 14.5 km/h
1950 26-07-2019 18:25:00 30.7 C 14.17 g/m*3 30.7 C 16.1 km/h
Sensor: Nr:Datum:Temp:Abs-Feuchte:Windchill:Wind:
Aussen-T/F 1951 26-07-2019 18:30:00 30.6 C 14.09 g/m*3 30.6 C 11.3 km/h
1952 26-07-2019 18:35:00 30.3 C 14.18 g/m*3 30.3 C 6.4 km/h
1953 26-07-2019 18:40:00 30.1 C 14.02 g/m*3 30.1 C 12.9 km/h
1954 26-07-2019 18:45:00 29.7 C 13.72 g/m*3 29.7 C 11.3 km/h
1955 26-07-2019 18:50:00 29.6 C 14.24 g/m*3 29.6 C 6.4 km/h
1956 26-07-2019 18:55:00 29.4 C 14.09 g/m*3 29.4 C 9.7 km/h
1957 26-07-2019 19:00:00 29.3 C 14.31 g/m*3 29.3 C 4.8 km/h
1958 26-07-2019 19:05:00 29.3 C 14.6 g/m*3 29.3 C 0 km/h
1959 26-07-2019 19:10:00 29.2 C 14.52 g/m*3 29.2 C 0 km/h
1960 26-07-2019 19:15:00 29.1 C 14.44 g/m*3 29.1 C 0 km/h
1961 26-07-2019 19:20:00 29.1 C 15.02 g/m*3 29.1 C 0 km/h
1962 26-07-2019 19:25:00 28.9 C 14.57 g/m*3 28.9 C 0 km/h
1963 26-07-2019 19:30:00 28.8 C 15.06 g/m*3 28.8 C 0 km/h
1964 26-07-2019 19:35:00 28.7 C 14.98 g/m*3 28.7 C 0 km/h
1965 26-07-2019 19:40:00 28.6 C 15.18 g/m*3 28.6 C 0 km/h
1966 26-07-2019 19:45:00 28.4 C 15.01 g/m*3 28.4 C 0 km/h
1967 26-07-2019 19:50:00 28.3 C 14.93 g/m*3 28.3 C 0 km/h
1968 26-07-2019 19:55:00 28.2 C 15.4 g/m*3 28.2 C 0 km/h
1969 26-07-2019 20:00:00 28.1 C 15.31 g/m*3 28.1 C 0 km/h
1970 26-07-2019 20:05:00 28 C 15.23 g/m*3 28 C 0 km/h
1971 26-07-2019 20:10:00 27.9 C 15.42 g/m*3 27.9 C 0 km/h
1972 26-07-2019 20:15:00 27.8 C 15.33 g/m*3 27.8 C 0 km/h
1973 26-07-2019 20:20:00 27.7 C 15.51 g/m*3 27.7 C 0 km/h
1974 26-07-2019 20:25:00 27.6 C 15.16 g/m*3 27.6 C 0 km/h
1975 26-07-2019 20:30:00 27.5 C 15.61 g/m*3 27.5 C 0 km/h
Sensor: Nr:Datum:Temp:Abs-Feuchte:Windchill:Wind:
Aussen-T/F 1976 26-07-2019 20:35:00 27.4 C 15 g/m*3 27.4 C 0 km/h
1977 26-07-2019 20:40:00 27.2 C 15.35 g/m*3 27.2 C 0 km/h
1978 26-07-2019 20:45:00 27.1 C 15.27 g/m*3 27.1 C 0 km/h
1979 26-07-2019 20:50:00 27.1 C 15.27 g/m*3 27.1 C 0 km/h
1980 26-07-2019 20:55:00 26.9 C 15.1 g/m*3 26.9 C 0 km/h
1981 26-07-2019 21:00:00 26.8 C 15.02 g/m*3 26.8 C 0 km/h
1982 26-07-2019 21:05:00 26.7 C 14.93 g/m*3 26.7 C 0 km/h
1983 26-07-2019 21:10:00 26.7 C 14.93 g/m*3 26.7 C 0 km/h
1984 26-07-2019 21:15:00 26.6 C 15.1 g/m*3 26.6 C 0 km/h
1985 26-07-2019 21:20:00 26.4 C 14.69 g/m*3 26.4 C 0 km/h
1986 26-07-2019 21:25:00 26.3 C 14.61 g/m*3 26.3 C 0 km/h
1987 26-07-2019 21:30:00 26.2 C 14.52 g/m*3 26.2 C 0 km/h
1988 26-07-2019 21:35:00 26.2 C 14.52 g/m*3 26.2 C 1.6 km/h
1989 26-07-2019 21:40:00 26.1 C 14.44 g/m*3 26.1 C 1.6 km/h
1990 26-07-2019 21:45:00 26.1 C 14.69 g/m*3 26.1 C 0 km/h
1991 26-07-2019 21:50:00 26 C 14.61 g/m*3 26 C 0 km/h
1992 26-07-2019 21:55:00 25.9 C 14.53 g/m*3 25.9 C 1.6 km/h
1993 26-07-2019 22:00:00 25.9 C 14.53 g/m*3 25.9 C 1.6 km/h
1994 26-07-2019 22:05:00 25.8 C 14.69 g/m*3 25.8 C 0 km/h
1995 26-07-2019 22:10:00 25.7 C 14.6 g/m*3 25.7 C 0 km/h
1996 26-07-2019 22:15:00 25.7 C 14.6 g/m*3 25.7 C 1.6 km/h
1997 26-07-2019 22:20:00 25.7 C 14.84 g/m*3 25.7 C 0 km/h
1998 26-07-2019 22:25:00 25.7 C 14.84 g/m*3 25.7 C 0 km/h
1999 26-07-2019 22:30:00 25.6 C 15 g/m*3 25.6 C 0 km/h
2000 26-07-2019 22:35:00 25.4 C 14.83 g/m*3 25.4 C 0 km/h
Sensor: Nr:Datum:Temp:Abs-Feuchte:Windchill:Wind:
Aussen-T/F 2001 26-07-2019 22:40:00 25.3 C 14.51 g/m*3 25.3 C 0 km/h
2002 26-07-2019 22:45:00 25.2 C 14.67 g/m*3 25.2 C 0 km/h
2003 26-07-2019 22:50:00 25.1 C 14.58 g/m*3 25.1 C 0 km/h
2004 26-07-2019 22:55:00 24.9 C 14.65 g/m*3 24.9 C 0 km/h
2005 26-07-2019 23:00:00 24.8 C 14.8 g/m*3 24.8 C 0 km/h
2006 26-07-2019 23:05:00 24.8 C 14.8 g/m*3 24.8 C 0 km/h
2007 26-07-2019 23:10:00 24.7 C 14.94 g/m*3 24.7 C 0 km/h
2008 26-07-2019 23:15:00 24.6 C 14.85 g/m*3 24.6 C 0 km/h
2009 26-07-2019 23:20:00 24.5 C 14.99 g/m*3 24.5 C 0 km/h
2010 26-07-2019 23:25:00 24.4 C 14.91 g/m*3 24.4 C 0 km/h
2011 26-07-2019 23:30:00 24.3 C 14.83 g/m*3 24.3 C 0 km/h
2012 26-07-2019 23:35:00 24.2 C 14.74 g/m*3 24.2 C 0 km/h
2013 26-07-2019 23:40:00 24.2 C 14.74 g/m*3 24.2 C 0 km/h
2014 26-07-2019 23:45:00 24.1 C 14.88 g/m*3 24.1 C 3.2 km/h
2015 26-07-2019 23:50:00 23.9 C 14.71 g/m*3 23.9 C 0 km/h
2016 26-07-2019 23:55:00 23.8 C 14.63 g/m*3 23.8 C 0 km/h
2017 27-07-2019 00:00:00 23.6 C 14.68 g/m*3 23.6 C 0 km/h
2018 27-07-2019 00:05:00 23.4 C 14.51 g/m*3 23.4 C 0 km/h
2019 27-07-2019 00:10:00 23.3 C 14.43 g/m*3 23.3 C 0 km/h
2020 27-07-2019 00:15:00 23.3 C 14.64 g/m*3 23.3 C 0 km/h
2021 27-07-2019 00:20:00 23.2 C 14.55 g/m*3 23.2 C 0 km/h
2022 27-07-2019 00:25:00 23.2 C 14.55 g/m*3 23.2 C 0 km/h
2023 27-07-2019 00:30:00 23.1 C 14.47 g/m*3 23.1 C 1.6 km/h
2024 27-07-2019 00:35:00 23.1 C 14.68 g/m*3 23.1 C 4.8 km/h
2025 27-07-2019 00:40:00 23 C 14.59 g/m*3 23 C 0 km/h
Sensor: Nr:Datum:Temp:Abs-Feuchte:Windchill:Wind:
Aussen-T/F 2026 27-07-2019 00:45:00 22.9 C 14.51 g/m*3 22.9 C 0 km/h
2027 27-07-2019 00:50:00 22.9 C 14.51 g/m*3 22.9 C 0 km/h
2028 27-07-2019 00:55:00 22.8 C 14.63 g/m*3 22.8 C 0 km/h
2029 27-07-2019 01:00:00 22.8 C 14.63 g/m*3 22.8 C 0 km/h
2030 27-07-2019 01:05:00 22.7 C 14.55 g/m*3 22.7 C 0 km/h
2031 27-07-2019 01:10:00 22.7 C 14.75 g/m*3 22.7 C 0 km/h
2032 27-07-2019 01:15:00 22.6 C 14.66 g/m*3 22.6 C 0 km/h
2033 27-07-2019 01:20:00 22.7 C 14.95 g/m*3 22.7 C 0 km/h
2034 27-07-2019 01:25:00 22.7 C 14.75 g/m*3 22.7 C 0 km/h
2035 27-07-2019 01:30:00 22.7 C 14.75 g/m*3 22.7 C 0 km/h
2036 27-07-2019 01:35:00 22.7 C 14.75 g/m*3 22.7 C 0 km/h
2037 27-07-2019 01:40:00 22.7 C 14.95 g/m*3 22.7 C 0 km/h
2038 27-07-2019 01:45:00 22.6 C 14.87 g/m*3 22.6 C 0 km/h
2039 27-07-2019 01:50:00 22.4 C 14.7 g/m*3 22.4 C 0 km/h
2040 27-07-2019 01:55:00 22.3 C 14.61 g/m*3 22.3 C 0 km/h
2041 27-07-2019 02:00:00 22.3 C 14.61 g/m*3 22.3 C 0 km/h
2042 27-07-2019 02:05:00 22.3 C 14.41 g/m*3 22.3 C 0 km/h
2043 27-07-2019 02:10:00 22.3 C 14.41 g/m*3 22.3 C 0 km/h
2044 27-07-2019 02:15:00 22.3 C 14.81 g/m*3 22.3 C 0 km/h
2045 27-07-2019 02:20:00 22.4 C 14.89 g/m*3 22.4 C 0 km/h
2046 27-07-2019 02:25:00 22.4 C 15.09 g/m*3 22.4 C 0 km/h
2047 27-07-2019 02:30:00 22.4 C 15.09 g/m*3 22.4 C 0 km/h
2048 27-07-2019 02:35:00 22.4 C 15.09 g/m*3 22.4 C 0 km/h
2049 27-07-2019 02:40:00 22.3 C 15.01 g/m*3 22.3 C 0 km/h
2050 27-07-2019 02:45:00 22.3 C 15.01 g/m*3 22.3 C 0 km/h
Sensor: Nr:Datum:Temp:Abs-Feuchte:Windchill:Wind:
Aussen-T/F 2051 27-07-2019 02:50:00 22.3 C 15.01 g/m*3 22.3 C 0 km/h
2052 27-07-2019 02:55:00 22.3 C 15.01 g/m*3 22.3 C 0 km/h
2053 27-07-2019 03:00:00 22.3 C 15.01 g/m*3 22.3 C 0 km/h
2054 27-07-2019 03:05:00 22.3 C 15.01 g/m*3 22.3 C 1.6 km/h
2055 27-07-2019 03:10:00 22.3 C 14.61 g/m*3 22.3 C 1.6 km/h
2056 27-07-2019 03:15:00 22.4 C 14.7 g/m*3 22.4 C 0 km/h
2057 27-07-2019 03:20:00 22.5 C 14.58 g/m*3 22.5 C 0 km/h
2058 27-07-2019 03:25:00 22.6 C 14.46 g/m*3 22.6 C 0 km/h
2059 27-07-2019 03:30:00 22.6 C 14.26 g/m*3 22.6 C 0 km/h
2060 27-07-2019 03:35:00 22.8 C 14.02 g/m*3 22.8 C 3.2 km/h
2061 27-07-2019 03:40:00 23.2 C 15.59 g/m*3 23.2 C 1.6 km/h
2062 27-07-2019 03:45:00 23.1 C 16.12 g/m*3 23.1 C 0 km/h
2063 27-07-2019 03:50:00 22.7 C 15.96 g/m*3 22.7 C 3.2 km/h
2064 27-07-2019 03:55:00 22.3 C 15.8 g/m*3 22.3 C 3.2 km/h
2065 27-07-2019 04:00:00 21.9 C 16.02 g/m*3 21.9 C 0 km/h
2066 27-07-2019 04:05:00 21.7 C 16.02 g/m*3 21.7 C 0 km/h
2067 27-07-2019 04:10:00 21.4 C 15.94 g/m*3 21.4 C 0 km/h
2068 27-07-2019 04:15:00 21.1 C 15.66 g/m*3 21.1 C 0 km/h
2069 27-07-2019 04:20:00 20.9 C 15.66 g/m*3 20.9 C 0 km/h
2070 27-07-2019 04:25:00 20.8 C 15.75 g/m*3 20.8 C 0 km/h
2071 27-07-2019 04:30:00 20.7 C 15.66 g/m*3 20.7 C 0 km/h
2072 27-07-2019 04:35:00 20.6 C 15.57 g/m*3 20.6 C 0 km/h
2073 27-07-2019 04:40:00 20.5 C 15.66 g/m*3 20.5 C 0 km/h
2074 27-07-2019 04:45:00 20.4 C 15.57 g/m*3 20.4 C 0 km/h
2075 27-07-2019 04:50:00 20.4 C 15.57 g/m*3 20.4 C 0 km/h
Sensor: Nr:Datum:Temp:Abs-Feuchte:Windchill:Wind:
Aussen-T/F 2076 27-07-2019 04:55:00 20.4 C 15.74 g/m*3 20.4 C 0 km/h
2077 27-07-2019 05:00:00 20.4 C 15.57 g/m*3 20.4 C 0 km/h
2078 27-07-2019 05:05:00 20.4 C 15.57 g/m*3 20.4 C 0 km/h
2079 27-07-2019 05:10:00 20.3 C 15.65 g/m*3 20.3 C 0 km/h
2080 27-07-2019 05:15:00 20.3 C 15.65 g/m*3 20.3 C 0 km/h
2081 27-07-2019 05:20:00 20.3 C 15.65 g/m*3 20.3 C 0 km/h
2082 27-07-2019 05:25:00 20.3 C 15.65 g/m*3 20.3 C 0 km/h
2083 27-07-2019 05:30:00 20.2 C 15.56 g/m*3 20.2 C 0 km/h
2084 27-07-2019 05:35:00 20.3 C 15.65 g/m*3 20.3 C 0 km/h
2085 27-07-2019 05:40:00 20.2 C 15.56 g/m*3 20.2 C 0 km/h
2086 27-07-2019 05:45:00 20.2 C 15.56 g/m*3 20.2 C 0 km/h
2087 27-07-2019 05:50:00 20.2 C 15.56 g/m*3 20.2 C 0 km/h
2088 27-07-2019 05:55:00 20.2 C 15.39 g/m*3 20.2 C 0 km/h
2089 27-07-2019 06:00:00 20.2 C 15.39 g/m*3 20.2 C 0 km/h
2090 27-07-2019 06:05:00 20.3 C 15.65 g/m*3 20.3 C 0 km/h
2091 27-07-2019 06:10:00 20.3 C 15.48 g/m*3 20.3 C 0 km/h
2092 27-07-2019 06:15:00 20.3 C 15.65 g/m*3 20.3 C 0 km/h
2093 27-07-2019 06:20:00 20.3 C 15.48 g/m*3 20.3 C 0 km/h
2094 27-07-2019 06:25:00 20.4 C 15.74 g/m*3 20.4 C 0 km/h
2095 27-07-2019 06:30:00 20.6 C 15.93 g/m*3 20.6 C 3.2 km/h
2096 27-07-2019 06:35:00 20.7 C 16.02 g/m*3 20.7 C 0 km/h
2097 27-07-2019 06:40:00 20.7 C 15.84 g/m*3 20.7 C 0 km/h
2098 27-07-2019 06:45:00 20.8 C 15.93 g/m*3 20.8 C 0 km/h
2099 27-07-2019 06:50:00 20.8 C 16.12 g/m*3 20.8 C 0 km/h
2100 27-07-2019 06:55:00 20.9 C 16.21 g/m*3 20.9 C 0 km/h
Sensor: Nr:Datum:Temp:Abs-Feuchte:Windchill:Wind:
Aussen-T/F 2101 27-07-2019 07:00:00 20.9 C 16.21 g/m*3 20.9 C 0 km/h
2102 27-07-2019 07:05:00 21 C 16.3 g/m*3 21 C 0 km/h
2103 27-07-2019 07:10:00 20.9 C 16.03 g/m*3 20.9 C 0 km/h
2104 27-07-2019 07:15:00 21 C 16.3 g/m*3 21 C 0 km/h
2105 27-07-2019 07:20:00 21.1 C 16.21 g/m*3 21.1 C 0 km/h
2106 27-07-2019 07:25:00 21.2 C 16.31 g/m*3 21.2 C 0 km/h
2107 27-07-2019 07:30:00 21.3 C 16.59 g/m*3 21.3 C 0 km/h
2108 27-07-2019 07:35:00 21.4 C 16.69 g/m*3 21.4 C 0 km/h
2109 27-07-2019 07:40:00 21.4 C 16.5 g/m*3 21.4 C 0 km/h
2110 27-07-2019 07:45:00 21.5 C 16.59 g/m*3 21.5 C 0 km/h
2111 27-07-2019 07:50:00 21.6 C 16.5 g/m*3 21.6 C 0 km/h
2112 27-07-2019 07:55:00 21.7 C 16.41 g/m*3 21.7 C 0 km/h
2113 27-07-2019 08:00:00 21.8 C 16.5 g/m*3 21.8 C 0 km/h
2114 27-07-2019 08:05:00 21.9 C 16.6 g/m*3 21.9 C 0 km/h
2115 27-07-2019 08:10:00 22.1 C 16.79 g/m*3 22.1 C 1.6 km/h
2116 27-07-2019 08:15:00 22.1 C 16.4 g/m*3 22.1 C 0 km/h
2117 27-07-2019 08:20:00 22.2 C 16.3 g/m*3 22.2 C 1.6 km/h
2118 27-07-2019 08:25:00 22.3 C 16.19 g/m*3 22.3 C 0 km/h
2119 27-07-2019 08:30:00 22.5 C 16.18 g/m*3 22.5 C 3.2 km/h
2120 27-07-2019 08:35:00 22.8 C 16.26 g/m*3 22.8 C 1.6 km/h
2121 27-07-2019 08:40:00 23 C 16.03 g/m*3 23 C 4.8 km/h
2122 27-07-2019 08:45:00 23.2 C 16.22 g/m*3 23.2 C 1.6 km/h
2123 27-07-2019 08:50:00 23.4 C 16.19 g/m*3 23.4 C 3.2 km/h
2124 27-07-2019 08:55:00 23.6 C 16.16 g/m*3 23.6 C 1.6 km/h
2125 27-07-2019 09:00:00 23.8 C 16.35 g/m*3 23.8 C 1.6 km/h
Sensor: Nr:Datum:Temp:Abs-Feuchte:Windchill:Wind:
Aussen-T/F 2126 27-07-2019 09:05:00 24.1 C 16.63 g/m*3 24.1 C 4.8 km/h
2127 27-07-2019 09:10:00 24.3 C 16.82 g/m*3 24.3 C 3.2 km/h
2128 27-07-2019 09:15:00 24.4 C 16.47 g/m*3 24.4 C 1.6 km/h
2129 27-07-2019 09:20:00 24.6 C 16.43 g/m*3 24.6 C 0 km/h
2130 27-07-2019 09:25:00 24.8 C 16.62 g/m*3 24.8 C 1.6 km/h
2131 27-07-2019 09:30:00 24.9 C 16.71 g/m*3 24.9 C 4.8 km/h
2132 27-07-2019 09:35:00 25.1 C 16.9 g/m*3 25.1 C 3.2 km/h
2133 27-07-2019 09:40:00 25.1 C 16.67 g/m*3 25.1 C 6.4 km/h
2134 27-07-2019 09:45:00 25.2 C 16.76 g/m*3 25.2 C 6.4 km/h
2135 27-07-2019 09:50:00 25.2 C 16.76 g/m*3 25.2 C 4.8 km/h
2136 27-07-2019 09:55:00 25.2 C 16.76 g/m*3 25.2 C 4.8 km/h
2137 27-07-2019 10:00:00 25.2 C 16.76 g/m*3 25.2 C 6.4 km/h
2138 27-07-2019 10:05:00 25.3 C 16.62 g/m*3 25.3 C 8.1 km/h
2139 27-07-2019 10:10:00 25.3 C 16.62 g/m*3 25.3 C 9.7 km/h
2140 27-07-2019 10:15:00 25.3 C 18.73 g/m*3 25.3 C 6.4 km/h
2141 27-07-2019 10:20:00 25 C 18.88 g/m*3 25 C 0 km/h
2142 27-07-2019 10:25:00 24.7 C 19.01 g/m*3 24.7 C 0 km/h
2143 27-07-2019 10:30:00 24.4 C 18.92 g/m*3 24.4 C 0 km/h
2144 27-07-2019 10:35:00 24.2 C 18.92 g/m*3 24.2 C 0 km/h
2145 27-07-2019 10:40:00 24.1 C 19.04 g/m*3 24.1 C 0 km/h
2146 27-07-2019 10:45:00 24.1 C 19.25 g/m*3 24.1 C 0 km/h
2147 27-07-2019 10:50:00 24.1 C 19.04 g/m*3 24.1 C 0 km/h
2148 27-07-2019 10:55:00 24 C 18.93 g/m*3 24 C 0 km/h
2149 27-07-2019 11:00:00 24 C 19.15 g/m*3 24 C 0 km/h
2150 27-07-2019 11:05:00 24.1 C 19.25 g/m*3 24.1 C 0 km/h
Sensor: Nr:Datum:Temp:Abs-Feuchte:Windchill:Wind:
Aussen-T/F 2151 27-07-2019 11:10:00 24.1 C 19.25 g/m*3 24.1 C 0 km/h
2152 27-07-2019 11:15:00 24.1 C 19.25 g/m*3 24.1 C 0 km/h
2153 27-07-2019 11:20:00 24.2 C 19.36 g/m*3 24.2 C 0 km/h
2154 27-07-2019 11:25:00 24.2 C 19.36 g/m*3 24.2 C 0 km/h
2155 27-07-2019 11:30:00 24.2 C 19.14 g/m*3 24.2 C 0 km/h
2156 27-07-2019 11:35:00 24 C 18.49 g/m*3 24 C 0 km/h
2157 27-07-2019 11:40:00 23.9 C 18.39 g/m*3 23.9 C 1.6 km/h
2158 27-07-2019 11:45:00 23.7 C 18.18 g/m*3 23.7 C 0 km/h
2159 27-07-2019 11:50:00 23.5 C 17.76 g/m*3 23.5 C 3.2 km/h
2160 27-07-2019 11:55:00 23.3 C 17.77 g/m*3 23.3 C 1.6 km/h
2161 27-07-2019 12:00:00 23.2 C 17.67 g/m*3 23.2 C 1.6 km/h
2162 27-07-2019 12:05:00 23.2 C 18.09 g/m*3 23.2 C 0 km/h
2163 27-07-2019 12:10:00 23.2 C 18.29 g/m*3 23.2 C 0 km/h
2164 27-07-2019 12:15:00 23.2 C 18.29 g/m*3 23.2 C 0 km/h
2165 27-07-2019 12:20:00 23.2 C 17.88 g/m*3 23.2 C 3.2 km/h
2166 27-07-2019 12:25:00 23.3 C 17.77 g/m*3 23.3 C 3.2 km/h
2167 27-07-2019 12:30:00 23.5 C 17.76 g/m*3 23.5 C 1.6 km/h
2168 27-07-2019 12:35:00 23.8 C 17.42 g/m*3 23.8 C 1.6 km/h
2169 27-07-2019 12:40:00 24.1 C 17.5 g/m*3 24.1 C 1.6 km/h
2170 27-07-2019 12:45:00 24.4 C 18.25 g/m*3 24.4 C 4.8 km/h
2171 27-07-2019 12:50:00 24.8 C 17.75 g/m*3 24.8 C 3.2 km/h
2172 27-07-2019 12:55:00 25.1 C 18.06 g/m*3 25.1 C 3.2 km/h
2173 27-07-2019 13:00:00 25.3 C 17.56 g/m*3 25.3 C 4.8 km/h
2174 27-07-2019 13:05:00 25.5 C 17.99 g/m*3 25.5 C 6.4 km/h
2175 27-07-2019 13:10:00 25.7 C 17.72 g/m*3 25.7 C 1.6 km/h
Sensor: Nr:Datum:Temp:Abs-Feuchte:Windchill:Wind:
Aussen-T/F 2176 27-07-2019 13:15:00 26 C 18.26 g/m*3 26 C 4.8 km/h
2177 27-07-2019 13:20:00 26.2 C 18.22 g/m*3 26.2 C 8.1 km/h
2178 27-07-2019 13:25:00 26.2 C 18.22 g/m*3 26.2 C 12.9 km/h
2179 27-07-2019 13:30:00 26.1 C 18.36 g/m*3 26.1 C 8.1 km/h
2180 27-07-2019 13:35:00 26.2 C 18.46 g/m*3 26.2 C 4.8 km/h
2181 27-07-2019 13:40:00 26.2 C 18.22 g/m*3 26.2 C 3.2 km/h
2182 27-07-2019 13:45:00 26.2 C 17.73 g/m*3 26.2 C 4.8 km/h
2183 27-07-2019 13:50:00 26.2 C 17.23 g/m*3 26.2 C 6.4 km/h
2184 27-07-2019 13:55:00 26.2 C 17.73 g/m*3 26.2 C 4.8 km/h
2185 27-07-2019 14:00:00 26.2 C 16.99 g/m*3 26.2 C 8.1 km/h
2186 27-07-2019 14:05:00 26.1 C 17.14 g/m*3 26.1 C 3.2 km/h
2187 27-07-2019 14:10:00 25.9 C 16.95 g/m*3 25.9 C 6.4 km/h
2188 27-07-2019 14:15:00 25.9 C 16.46 g/m*3 25.9 C 4.8 km/h
2189 27-07-2019 14:20:00 25.8 C 16.85 g/m*3 25.8 C 1.6 km/h
2190 27-07-2019 14:25:00 25.7 C 16.52 g/m*3 25.7 C 3.2 km/h
2191 27-07-2019 14:30:00 25.6 C 16.9 g/m*3 25.6 C 4.8 km/h
2192 27-07-2019 14:35:00 25.5 C 16.81 g/m*3 25.5 C 4.8 km/h
2193 27-07-2019 14:40:00 25.5 C 17.28 g/m*3 25.5 C 4.8 km/h
2194 27-07-2019 14:45:00 25.5 C 17.28 g/m*3 25.5 C 3.2 km/h
2195 27-07-2019 14:50:00 25.5 C 17.76 g/m*3 25.5 C 4.8 km/h
2196 27-07-2019 14:55:00 25.5 C 17.52 g/m*3 25.5 C 6.4 km/h
2197 27-07-2019 15:00:00 25.3 C 17.32 g/m*3 25.3 C 8.1 km/h
2198 27-07-2019 15:05:00 25.1 C 17.13 g/m*3 25.1 C 11.3 km/h
2199 27-07-2019 15:10:00 24.8 C 16.84 g/m*3 24.8 C 8.1 km/h
2200 27-07-2019 15:15:00 24.7 C 16.98 g/m*3 24.7 C 3.2 km/h
Sensor: Nr:Datum:Temp:Abs-Feuchte:Windchill:Wind:
Aussen-T/F 2201 27-07-2019 15:20:00 24.7 C 16.98 g/m*3 24.7 C 4.8 km/h
2202 27-07-2019 15:25:00 24.8 C 17.07 g/m*3 24.8 C 3.2 km/h
2203 27-07-2019 15:30:00 24.8 C 16.84 g/m*3 24.8 C 6.4 km/h
2204 27-07-2019 15:35:00 25 C 17.03 g/m*3 25 C 9.7 km/h
2205 27-07-2019 15:40:00 25.1 C 17.13 g/m*3 25.1 C 8.1 km/h
2206 27-07-2019 15:45:00 25.2 C 16.99 g/m*3 25.2 C 8.1 km/h
2207 27-07-2019 15:50:00 25.4 C 17.19 g/m*3 25.4 C 8.1 km/h
2208 27-07-2019 15:55:00 25.6 C 17.62 g/m*3 25.6 C 8.1 km/h
2209 27-07-2019 16:00:00 25.8 C 17.33 g/m*3 25.8 C 11.3 km/h
2210 27-07-2019 16:05:00 26.1 C 17.14 g/m*3 26.1 C 12.9 km/h
2211 27-07-2019 16:10:00 26.2 C 16.74 g/m*3 26.2 C 9.7 km/h
2212 27-07-2019 16:15:00 26.2 C 16.49 g/m*3 26.2 C 12.9 km/h
2213 27-07-2019 16:20:00 26.2 C 16.74 g/m*3 26.2 C 12.9 km/h
2214 27-07-2019 16:25:00 26.3 C 16.83 g/m*3 26.3 C 9.7 km/h
2215 27-07-2019 16:30:00 26.3 C 16.59 g/m*3 26.3 C 11.3 km/h
2216 27-07-2019 16:35:00 26.2 C 16.49 g/m*3 26.2 C 9.7 km/h
2217 27-07-2019 16:40:00 25.9 C 16.46 g/m*3 25.9 C 8.1 km/h
2218 27-07-2019 16:45:00 25.7 C 16.04 g/m*3 25.7 C 12.9 km/h
2219 27-07-2019 16:50:00 25.5 C 16.34 g/m*3 25.5 C 12.9 km/h
2220 27-07-2019 16:55:00 25.2 C 16.53 g/m*3 25.2 C 14.5 km/h
2221 27-07-2019 17:00:00 24.9 C 16.71 g/m*3 24.9 C 12.9 km/h
2222 27-07-2019 17:05:00 24.6 C 16.66 g/m*3 24.6 C 12.9 km/h
2223 27-07-2019 17:10:00 24.5 C 17.01 g/m*3 24.5 C 9.7 km/h
2224 27-07-2019 17:15:00 24.5 C 17.23 g/m*3 24.5 C 6.4 km/h
2225 27-07-2019 17:20:00 24.5 C 17.23 g/m*3 24.5 C 6.4 km/h
Sensor: Nr:Datum:Temp:Abs-Feuchte:Windchill:Wind:
Aussen-T/F 2226 27-07-2019 17:25:00 24.5 C 17.23 g/m*3 24.5 C 8.1 km/h
2227 27-07-2019 17:30:00 24.4 C 16.91 g/m*3 24.4 C 8.1 km/h
2228 27-07-2019 17:35:00 24.4 C 16.91 g/m*3 24.4 C 8.1 km/h
2229 27-07-2019 17:40:00 24.4 C 17.14 g/m*3 24.4 C 6.4 km/h
2230 27-07-2019 17:45:00 24.4 C 16.91 g/m*3 24.4 C 4.8 km/h
2231 27-07-2019 17:50:00 24.4 C 16.91 g/m*3 24.4 C 4.8 km/h
2232 27-07-2019 17:55:00 24.4 C 16.91 g/m*3 24.4 C 6.4 km/h
2233 27-07-2019 18:00:00 24.4 C 17.14 g/m*3 24.4 C 6.4 km/h
2234 27-07-2019 18:05:00 24.4 C 17.14 g/m*3 24.4 C 6.4 km/h
2235 27-07-2019 18:10:00 24.4 C 16.91 g/m*3 24.4 C 4.8 km/h
2236 27-07-2019 18:15:00 24.6 C 17.33 g/m*3 24.6 C 4.8 km/h
2237 27-07-2019 18:20:00 24.8 C 17.3 g/m*3 24.8 C 8.1 km/h
2238 27-07-2019 18:25:00 25.1 C 17.36 g/m*3 25.1 C 4.8 km/h
2239 27-07-2019 18:30:00 25.4 C 17.66 g/m*3 25.4 C 6.4 km/h
2240 27-07-2019 18:35:00 25.3 C 17.56 g/m*3 25.3 C 6.4 km/h
2241 27-07-2019 18:40:00 25.3 C 17.56 g/m*3 25.3 C 6.4 km/h
2242 27-07-2019 18:45:00 25.2 C 17.46 g/m*3 25.2 C 6.4 km/h
2243 27-07-2019 18:50:00 25.1 C 17.36 g/m*3 25.1 C 6.4 km/h
2244 27-07-2019 18:55:00 24.9 C 17.4 g/m*3 24.9 C 8.1 km/h
2245 27-07-2019 19:00:00 24.7 C 17.43 g/m*3 24.7 C 9.7 km/h
2246 27-07-2019 19:05:00 24.5 C 17.23 g/m*3 24.5 C 8.1 km/h
2247 27-07-2019 19:10:00 24.3 C 16.82 g/m*3 24.3 C 8.1 km/h
2248 27-07-2019 19:15:00 24.1 C 16.85 g/m*3 24.1 C 9.7 km/h
2249 27-07-2019 19:20:00 23.9 C 17.09 g/m*3 23.9 C 6.4 km/h
2250 27-07-2019 19:25:00 23.8 C 17.42 g/m*3 23.8 C 9.7 km/h
Sensor: Nr:Datum:Temp:Abs-Feuchte:Windchill:Wind:
Aussen-T/F 2251 27-07-2019 19:30:00 23.7 C 17.54 g/m*3 23.7 C 4.8 km/h
2252 27-07-2019 19:35:00 23.6 C 17.65 g/m*3 23.6 C 4.8 km/h
2253 27-07-2019 19:40:00 23.4 C 17.66 g/m*3 23.4 C 4.8 km/h
2254 27-07-2019 19:45:00 23.4 C 17.66 g/m*3 23.4 C 4.8 km/h
2255 27-07-2019 19:50:00 23.4 C 17.87 g/m*3 23.4 C 4.8 km/h
2256 27-07-2019 19:55:00 23.3 C 17.56 g/m*3 23.3 C 8.1 km/h
2257 27-07-2019 20:00:00 23.2 C 17.46 g/m*3 23.2 C 6.4 km/h
2258 27-07-2019 20:05:00 23.1 C 17.57 g/m*3 23.1 C 6.4 km/h
2259 27-07-2019 20:10:00 23.1 C 17.57 g/m*3 23.1 C 4.8 km/h
2260 27-07-2019 20:15:00 23 C 17.47 g/m*3 23 C 3.2 km/h
2261 27-07-2019 20:20:00 23 C 17.47 g/m*3 23 C 6.4 km/h
2262 27-07-2019 20:25:00 22.9 C 17.37 g/m*3 22.9 C 6.4 km/h
2263 27-07-2019 20:30:00 22.8 C 17.27 g/m*3 22.8 C 4.8 km/h
2264 27-07-2019 20:35:00 22.8 C 17.27 g/m*3 22.8 C 4.8 km/h
2265 27-07-2019 20:40:00 22.8 C 17.27 g/m*3 22.8 C 6.4 km/h
2266 27-07-2019 20:45:00 22.7 C 17.17 g/m*3 22.7 C 6.4 km/h
2267 27-07-2019 20:50:00 22.6 C 17.08 g/m*3 22.6 C 4.8 km/h
2268 27-07-2019 20:55:00 22.6 C 17.08 g/m*3 22.6 C 8.1 km/h
2269 27-07-2019 21:00:00 22.4 C 16.88 g/m*3 22.4 C 6.4 km/h
2270 27-07-2019 21:05:00 22.4 C 16.88 g/m*3 22.4 C 6.4 km/h
2271 27-07-2019 21:10:00 22.3 C 16.78 g/m*3 22.3 C 4.8 km/h
2272 27-07-2019 21:15:00 22.3 C 16.78 g/m*3 22.3 C 4.8 km/h
2273 27-07-2019 21:20:00 22.2 C 16.88 g/m*3 22.2 C 4.8 km/h
2274 27-07-2019 21:25:00 22.1 C 16.79 g/m*3 22.1 C 8.1 km/h
2275 27-07-2019 21:30:00 22.1 C 16.79 g/m*3 22.1 C 9.7 km/h
Sensor: Nr:Datum:Temp:Abs-Feuchte:Windchill:Wind:
Aussen-T/F 2276 27-07-2019 21:35:00 21.9 C 16.6 g/m*3 21.9 C 6.4 km/h
2277 27-07-2019 21:40:00 21.9 C 16.6 g/m*3 21.9 C 8.1 km/h
2278 27-07-2019 21:45:00 21.8 C 16.5 g/m*3 21.8 C 3.2 km/h
2279 27-07-2019 21:50:00 21.8 C 16.5 g/m*3 21.8 C 9.7 km/h
2280 27-07-2019 21:55:00 21.7 C 16.41 g/m*3 21.7 C 11.3 km/h
2281 27-07-2019 22:00:00 21.7 C 16.41 g/m*3 21.7 C 8.1 km/h
2282 27-07-2019 22:05:00 21.6 C 16.5 g/m*3 21.6 C 9.7 km/h
2283 27-07-2019 22:10:00 21.6 C 16.5 g/m*3 21.6 C 8.1 km/h
2284 27-07-2019 22:15:00 21.6 C 16.5 g/m*3 21.6 C 8.1 km/h
2285 27-07-2019 22:20:00 21.5 C 16.41 g/m*3 21.5 C 12.9 km/h
2286 27-07-2019 22:25:00 21.4 C 16.31 g/m*3 21.4 C 6.4 km/h
2287 27-07-2019 22:30:00 21.4 C 16.31 g/m*3 21.4 C 4.8 km/h
2288 27-07-2019 22:35:00 21.4 C 16.31 g/m*3 21.4 C 9.7 km/h
2289 27-07-2019 22:40:00 21.3 C 16.22 g/m*3 21.3 C 8.1 km/h
2290 27-07-2019 22:45:00 21.3 C 16.4 g/m*3 21.3 C 8.1 km/h
2291 27-07-2019 22:50:00 21.3 C 16.4 g/m*3 21.3 C 6.4 km/h
2292 27-07-2019 22:55:00 21.3 C 16.4 g/m*3 21.3 C 4.8 km/h
2293 27-07-2019 23:00:00 21.3 C 16.4 g/m*3 21.3 C 8.1 km/h
2294 27-07-2019 23:05:00 21.2 C 16.31 g/m*3 21.2 C 6.4 km/h
2295 27-07-2019 23:10:00 21.2 C 16.31 g/m*3 21.2 C 8.1 km/h
2296 27-07-2019 23:15:00 21.2 C 16.49 g/m*3 21.2 C 4.8 km/h
2297 27-07-2019 23:20:00 21.2 C 16.49 g/m*3 21.2 C 1.6 km/h
2298 27-07-2019 23:25:00 21.2 C 16.49 g/m*3 21.2 C 3.2 km/h
2299 27-07-2019 23:30:00 21.1 C 16.4 g/m*3 21.1 C 0 km/h
2300 27-07-2019 23:35:00 21.1 C 16.4 g/m*3 21.1 C 0 km/h
Sensor: Nr:Datum:Temp:Abs-Feuchte:Windchill:Wind:
Aussen-T/F 2301 27-07-2019 23:40:00 21.1 C 16.4 g/m*3 21.1 C 1.6 km/h
2302 27-07-2019 23:45:00 21.1 C 16.4 g/m*3 21.1 C 0 km/h
2303 27-07-2019 23:50:00 21 C 16.3 g/m*3 21 C 0 km/h
2304 27-07-2019 23:55:00 21 C 16.3 g/m*3 21 C 4.8 km/h
2305 28-07-2019 00:00:00 20.9 C 16.21 g/m*3 20.9 C 3.2 km/h
2306 28-07-2019 00:05:00 20.9 C 16.39 g/m*3 20.9 C 3.2 km/h
2307 28-07-2019 00:10:00 20.9 C 16.39 g/m*3 20.9 C 1.6 km/h
2308 28-07-2019 00:15:00 20.9 C 16.39 g/m*3 20.9 C 4.8 km/h
2309 28-07-2019 00:20:00 20.8 C 16.3 g/m*3 20.8 C 1.6 km/h
2310 28-07-2019 00:25:00 20.8 C 16.3 g/m*3 20.8 C 1.6 km/h
2311 28-07-2019 00:30:00 20.8 C 16.3 g/m*3 20.8 C 3.2 km/h
2312 28-07-2019 00:35:00 20.8 C 16.3 g/m*3 20.8 C 4.8 km/h
2313 28-07-2019 00:40:00 20.8 C 16.3 g/m*3 20.8 C 0 km/h
2314 28-07-2019 00:45:00 20.8 C 16.3 g/m*3 20.8 C 3.2 km/h
2315 28-07-2019 00:50:00 20.8 C 16.3 g/m*3 20.8 C 4.8 km/h
2316 28-07-2019 00:55:00 20.8 C 16.3 g/m*3 20.8 C 1.6 km/h
2317 28-07-2019 01:00:00 20.8 C 16.3 g/m*3 20.8 C 6.4 km/h
2318 28-07-2019 01:05:00 20.7 C 16.2 g/m*3 20.7 C 3.2 km/h
2319 28-07-2019 01:10:00 20.7 C 16.2 g/m*3 20.7 C 3.2 km/h
2320 28-07-2019 01:15:00 20.7 C 16.2 g/m*3 20.7 C 4.8 km/h
2321 28-07-2019 01:20:00 20.7 C 16.2 g/m*3 20.7 C 3.2 km/h
2322 28-07-2019 01:25:00 20.7 C 16.2 g/m*3 20.7 C 4.8 km/h
2323 28-07-2019 01:30:00 20.7 C 16.2 g/m*3 20.7 C 3.2 km/h
2324 28-07-2019 01:35:00 20.7 C 16.2 g/m*3 20.7 C 0 km/h
2325 28-07-2019 01:40:00 20.7 C 16.2 g/m*3 20.7 C 0 km/h
Sensor: Nr:Datum:Temp:Abs-Feuchte:Windchill:Wind:
Aussen-T/F 2326 28-07-2019 01:45:00 20.7 C 16.2 g/m*3 20.7 C 0 km/h
2327 28-07-2019 01:50:00 20.7 C 16.2 g/m*3 20.7 C 0 km/h
2328 28-07-2019 01:55:00 20.7 C 16.2 g/m*3 20.7 C 4.8 km/h
2329 28-07-2019 02:00:00 20.7 C 16.2 g/m*3 20.7 C 4.8 km/h
2330 28-07-2019 02:05:00 20.7 C 16.2 g/m*3 20.7 C 3.2 km/h
2331 28-07-2019 02:10:00 20.7 C 16.2 g/m*3 20.7 C 1.6 km/h
2332 28-07-2019 02:15:00 20.7 C 16.2 g/m*3 20.7 C 0 km/h
2333 28-07-2019 02:20:00 20.7 C 16.2 g/m*3 20.7 C 3.2 km/h
2334 28-07-2019 02:25:00 20.7 C 16.2 g/m*3 20.7 C 3.2 km/h
2335 28-07-2019 02:30:00 20.7 C 16.2 g/m*3 20.7 C 0 km/h
2336 28-07-2019 02:35:00 20.7 C 16.2 g/m*3 20.7 C 3.2 km/h
2337 28-07-2019 02:40:00 20.7 C 16.2 g/m*3 20.7 C 1.6 km/h
2338 28-07-2019 02:45:00 20.7 C 16.2 g/m*3 20.7 C 0 km/h
2339 28-07-2019 02:50:00 20.7 C 16.2 g/m*3 20.7 C 0 km/h
2340 28-07-2019 02:55:00 20.7 C 16.2 g/m*3 20.7 C 0 km/h
2341 28-07-2019 03:00:00 20.7 C 16.2 g/m*3 20.7 C 0 km/h
2342 28-07-2019 03:05:00 20.7 C 16.2 g/m*3 20.7 C 0 km/h
2343 28-07-2019 03:10:00 20.7 C 16.2 g/m*3 20.7 C 1.6 km/h
2344 28-07-2019 03:15:00 20.7 C 16.2 g/m*3 20.7 C 0 km/h
2345 28-07-2019 03:20:00 20.7 C 16.2 g/m*3 20.7 C 1.6 km/h
2346 28-07-2019 03:25:00 20.7 C 16.2 g/m*3 20.7 C 0 km/h
2347 28-07-2019 03:30:00 20.7 C 16.2 g/m*3 20.7 C 0 km/h
2348 28-07-2019 03:35:00 20.7 C 16.2 g/m*3 20.7 C 0 km/h
2349 28-07-2019 03:40:00 20.7 C 16.2 g/m*3 20.7 C 0 km/h
2350 28-07-2019 03:45:00 20.7 C 16.2 g/m*3 20.7 C 0 km/h
Sensor: Nr:Datum:Temp:Abs-Feuchte:Windchill:Wind:
Aussen-T/F 2351 28-07-2019 03:50:00 20.6 C 16.11 g/m*3 20.6 C 1.6 km/h
2352 28-07-2019 03:55:00 20.6 C 16.11 g/m*3 20.6 C 0 km/h
2353 28-07-2019 04:00:00 20.7 C 16.2 g/m*3 20.7 C 0 km/h
2354 28-07-2019 04:05:00 20.6 C 16.11 g/m*3 20.6 C 0 km/h
2355 28-07-2019 04:10:00 20.6 C 16.29 g/m*3 20.6 C 6.4 km/h
2356 28-07-2019 04:15:00 20.6 C 16.29 g/m*3 20.6 C 1.6 km/h
2357 28-07-2019 04:20:00 20.6 C 16.29 g/m*3 20.6 C 3.2 km/h
2358 28-07-2019 04:25:00 20.6 C 16.29 g/m*3 20.6 C 0 km/h
2359 28-07-2019 04:30:00 20.6 C 16.29 g/m*3 20.6 C 0 km/h
2360 28-07-2019 04:35:00 20.6 C 16.29 g/m*3 20.6 C 0 km/h
2361 28-07-2019 04:40:00 20.6 C 16.29 g/m*3 20.6 C 0 km/h
2362 28-07-2019 04:45:00 20.6 C 16.29 g/m*3 20.6 C 0 km/h
2363 28-07-2019 04:50:00 20.6 C 16.29 g/m*3 20.6 C 0 km/h
2364 28-07-2019 04:55:00 20.6 C 16.29 g/m*3 20.6 C 0 km/h
2365 28-07-2019 05:00:00 20.6 C 16.29 g/m*3 20.6 C 0 km/h
2366 28-07-2019 05:05:00 20.6 C 16.29 g/m*3 20.6 C 4.8 km/h
2367 28-07-2019 05:10:00 20.6 C 16.29 g/m*3 20.6 C 3.2 km/h
2368 28-07-2019 05:15:00 20.6 C 16.29 g/m*3 20.6 C 4.8 km/h
2369 28-07-2019 05:20:00 20.6 C 16.29 g/m*3 20.6 C 6.4 km/h
2370 28-07-2019 05:25:00 20.6 C 16.29 g/m*3 20.6 C 1.6 km/h
2371 28-07-2019 05:30:00 20.5 C 16.19 g/m*3 20.5 C 1.6 km/h
2372 28-07-2019 05:35:00 20.5 C 16.19 g/m*3 20.5 C 1.6 km/h
2373 28-07-2019 05:40:00 20.5 C 16.19 g/m*3 20.5 C 3.2 km/h
2374 28-07-2019 05:45:00 20.5 C 16.19 g/m*3 20.5 C 0 km/h
2375 28-07-2019 05:50:00 20.5 C 16.19 g/m*3 20.5 C 0 km/h
Sensor: Nr:Datum:Temp:Abs-Feuchte:Windchill:Wind:
Aussen-T/F 2376 28-07-2019 05:55:00 20.5 C 16.19 g/m*3 20.5 C 0 km/h
2377 28-07-2019 06:00:00 20.5 C 16.19 g/m*3 20.5 C 3.2 km/h
2378 28-07-2019 06:05:00 20.5 C 16.19 g/m*3 20.5 C 0 km/h
2379 28-07-2019 06:10:00 20.5 C 16.19 g/m*3 20.5 C 0 km/h
2380 28-07-2019 06:15:00 20.5 C 16.19 g/m*3 20.5 C 0 km/h
2381 28-07-2019 06:20:00 20.5 C 16.19 g/m*3 20.5 C 0 km/h
2382 28-07-2019 06:25:00 20.5 C 16.19 g/m*3 20.5 C 1.6 km/h
2383 28-07-2019 06:30:00 20.5 C 16.19 g/m*3 20.5 C 4.8 km/h
2384 28-07-2019 06:35:00 20.6 C 16.29 g/m*3 20.6 C 3.2 km/h
2385 28-07-2019 06:40:00 20.6 C 16.29 g/m*3 20.6 C 4.8 km/h
2386 28-07-2019 06:45:00 20.6 C 16.29 g/m*3 20.6 C 3.2 km/h
2387 28-07-2019 06:50:00 20.6 C 16.29 g/m*3 20.6 C 1.6 km/h
2388 28-07-2019 06:55:00 20.6 C 16.29 g/m*3 20.6 C 3.2 km/h
2389 28-07-2019 07:00:00 20.6 C 16.29 g/m*3 20.6 C 4.8 km/h
2390 28-07-2019 07:05:00 20.7 C 16.38 g/m*3 20.7 C 3.2 km/h
2391 28-07-2019 07:10:00 20.7 C 16.38 g/m*3 20.7 C 6.4 km/h
2392 28-07-2019 07:15:00 20.7 C 16.2 g/m*3 20.7 C 9.7 km/h
2393 28-07-2019 07:20:00 20.7 C 16.2 g/m*3 20.7 C 8.1 km/h
2394 28-07-2019 07:25:00 20.7 C 16.2 g/m*3 20.7 C 6.4 km/h
2395 28-07-2019 07:30:00 20.7 C 16.2 g/m*3 20.7 C 12.9 km/h
2396 28-07-2019 07:35:00 20.7 C 16.2 g/m*3 20.7 C 12.9 km/h
2397 28-07-2019 07:40:00 20.7 C 16.2 g/m*3 20.7 C 8.1 km/h
2398 28-07-2019 07:45:00 20.7 C 16.02 g/m*3 20.7 C 4.8 km/h
2399 28-07-2019 07:50:00 20.7 C 16.02 g/m*3 20.7 C 4.8 km/h
2400 28-07-2019 07:55:00 20.7 C 16.02 g/m*3 20.7 C 9.7 km/h
Sensor: Nr:Datum:Temp:Abs-Feuchte:Windchill:Wind:
Aussen-T/F 2401 28-07-2019 08:00:00 20.7 C 16.02 g/m*3 20.7 C 11.3 km/h
2402 28-07-2019 08:05:00 20.7 C 16.02 g/m*3 20.7 C 4.8 km/h
2403 28-07-2019 08:10:00 20.8 C 16.12 g/m*3 20.8 C 6.4 km/h
2404 28-07-2019 08:15:00 20.8 C 16.12 g/m*3 20.8 C 8.1 km/h
2405 28-07-2019 08:20:00 20.7 C 16.02 g/m*3 20.7 C 11.3 km/h
2406 28-07-2019 08:25:00 20.7 C 16.02 g/m*3 20.7 C 8.1 km/h
2407 28-07-2019 08:30:00 20.7 C 16.02 g/m*3 20.7 C 6.4 km/h
2408 28-07-2019 08:35:00 20.7 C 16.02 g/m*3 20.7 C 8.1 km/h
2409 28-07-2019 08:40:00 20.7 C 16.02 g/m*3 20.7 C 9.7 km/h
2410 28-07-2019 08:45:00 20.7 C 16.02 g/m*3 20.7 C 9.7 km/h
2411 28-07-2019 08:50:00 20.7 C 16.02 g/m*3 20.7 C 8.1 km/h
2412 28-07-2019 08:55:00 20.7 C 16.2 g/m*3 20.7 C 8.1 km/h
2413 28-07-2019 09:00:00 20.6 C 16.11 g/m*3 20.6 C 4.8 km/h
2414 28-07-2019 09:05:00 20.6 C 16.11 g/m*3 20.6 C 8.1 km/h
2415 28-07-2019 09:10:00 20.6 C 16.11 g/m*3 20.6 C 6.4 km/h
2416 28-07-2019 09:15:00 20.6 C 16.11 g/m*3 20.6 C 8.1 km/h
2417 28-07-2019 09:20:00 20.5 C 16.01 g/m*3 20.5 C 8.1 km/h
2418 28-07-2019 09:25:00 20.4 C 15.92 g/m*3 20.4 C 8.1 km/h
2419 28-07-2019 09:30:00 20.4 C 15.92 g/m*3 20.4 C 6.4 km/h
2420 28-07-2019 09:35:00 20.3 C 15.83 g/m*3 20.3 C 11.3 km/h
2421 28-07-2019 09:40:00 20.3 C 16 g/m*3 20.3 C 9.7 km/h
2422 28-07-2019 09:45:00 20.3 C 16 g/m*3 20.3 C 9.7 km/h
2423 28-07-2019 09:50:00 20.3 C 16 g/m*3 20.3 C 9.7 km/h
2424 28-07-2019 09:55:00 20.2 C 15.91 g/m*3 20.2 C 9.7 km/h
2425 28-07-2019 10:00:00 20.2 C 15.91 g/m*3 20.2 C 8.1 km/h
Sensor: Nr:Datum:Temp:Abs-Feuchte:Windchill:Wind:
Aussen-T/F 2426 28-07-2019 10:05:00 20.2 C 15.91 g/m*3 20.2 C 6.4 km/h
2427 28-07-2019 10:10:00 20.2 C 15.91 g/m*3 20.2 C 4.8 km/h
2428 28-07-2019 10:15:00 20.2 C 15.91 g/m*3 20.2 C 11.3 km/h
2429 28-07-2019 10:20:00 20.1 C 15.82 g/m*3 20.1 C 6.4 km/h
2430 28-07-2019 10:25:00 20.1 C 15.99 g/m*3 20.1 C 11.3 km/h
2431 28-07-2019 10:30:00 19.9 C 15.81 g/m*3 19.9 C 9.7 km/h
2432 28-07-2019 10:35:00 19.9 C 15.81 g/m*3 19.9 C 11.3 km/h
2433 28-07-2019 10:40:00 19.9 C 15.81 g/m*3 19.9 C 9.7 km/h
2434 28-07-2019 10:45:00 19.9 C 15.98 g/m*3 19.9 C 8.1 km/h
2435 28-07-2019 10:50:00 19.8 C 15.89 g/m*3 19.8 C 6.4 km/h
2436 28-07-2019 10:55:00 19.9 C 15.98 g/m*3 19.9 C 3.2 km/h
2437 28-07-2019 11:00:00 19.8 C 15.89 g/m*3 19.8 C 4.8 km/h
2438 28-07-2019 11:05:00 19.8 C 15.89 g/m*3 19.8 C 6.4 km/h
2439 28-07-2019 11:10:00 19.8 C 15.89 g/m*3 19.8 C 3.2 km/h
2440 28-07-2019 11:15:00 19.8 C 15.89 g/m*3 19.8 C 4.8 km/h
2441 28-07-2019 11:20:00 19.9 C 15.98 g/m*3 19.9 C 1.6 km/h
2442 28-07-2019 11:25:00 19.9 C 15.98 g/m*3 19.9 C 4.8 km/h
2443 28-07-2019 11:30:00 20.1 C 15.99 g/m*3 20.1 C 6.4 km/h
2444 28-07-2019 11:35:00 20.2 C 16.09 g/m*3 20.2 C 8.1 km/h
2445 28-07-2019 11:40:00 20.3 C 16 g/m*3 20.3 C 8.1 km/h
2446 28-07-2019 11:45:00 20.4 C 15.92 g/m*3 20.4 C 12.9 km/h
2447 28-07-2019 11:50:00 20.4 C 15.92 g/m*3 20.4 C 4.8 km/h
2448 28-07-2019 11:55:00 20.6 C 15.93 g/m*3 20.6 C 4.8 km/h
2449 28-07-2019 12:00:00 20.6 C 15.93 g/m*3 20.6 C 8.1 km/h
2450 28-07-2019 12:05:00 20.5 C 15.84 g/m*3 20.5 C 9.7 km/h
Sensor: Nr:Datum:Temp:Abs-Feuchte:Windchill:Wind:
Aussen-T/F 2451 28-07-2019 12:10:00 20.5 C 15.84 g/m*3 20.5 C 6.4 km/h
2452 28-07-2019 12:15:00 20.5 C 15.66 g/m*3 20.5 C 9.7 km/h
2453 28-07-2019 12:20:00 20.5 C 15.66 g/m*3 20.5 C 8.1 km/h
2454 28-07-2019 12:25:00 20.5 C 15.66 g/m*3 20.5 C 1.6 km/h
2455 28-07-2019 12:30:00 20.4 C 15.39 g/m*3 20.4 C 8.1 km/h
2456 28-07-2019 12:35:00 20.5 C 15.48 g/m*3 20.5 C 6.4 km/h
2457 28-07-2019 12:40:00 20.6 C 15.75 g/m*3 20.6 C 6.4 km/h
2458 28-07-2019 12:45:00 20.5 C 15.48 g/m*3 20.5 C 8.1 km/h
2459 28-07-2019 12:50:00 20.5 C 15.48 g/m*3 20.5 C 9.7 km/h
2460 28-07-2019 12:55:00 20.5 C 15.48 g/m*3 20.5 C 11.3 km/h
2461 28-07-2019 13:00:00 20.5 C 15.48 g/m*3 20.5 C 4.8 km/h
2462 28-07-2019 13:05:00 20.6 C 15.57 g/m*3 20.6 C 4.8 km/h
2463 28-07-2019 13:10:00 20.5 C 15.3 g/m*3 20.5 C 9.7 km/h
2464 28-07-2019 13:15:00 20.5 C 15.3 g/m*3 20.5 C 3.2 km/h
2465 28-07-2019 13:20:00 20.4 C 15.21 g/m*3 20.4 C 8.1 km/h
2466 28-07-2019 13:25:00 20.4 C 15.39 g/m*3 20.4 C 8.1 km/h
2467 28-07-2019 13:30:00 20.4 C 15.39 g/m*3 20.4 C 4.8 km/h
2468 28-07-2019 13:35:00 20.3 C 15.3 g/m*3 20.3 C 8.1 km/h
2469 28-07-2019 13:40:00 20.2 C 15.39 g/m*3 20.2 C 6.4 km/h
2470 28-07-2019 13:45:00 20.1 C 15.47 g/m*3 20.1 C 8.1 km/h
2471 28-07-2019 13:50:00 19.9 C 15.29 g/m*3 19.9 C 8.1 km/h
2472 28-07-2019 13:55:00 19.9 C 15.29 g/m*3 19.9 C 3.2 km/h
2473 28-07-2019 14:00:00 19.9 C 15.29 g/m*3 19.9 C 4.8 km/h
2474 28-07-2019 14:05:00 19.9 C 15.29 g/m*3 19.9 C 4.8 km/h
2475 28-07-2019 14:10:00 19.9 C 15.46 g/m*3 19.9 C 4.8 km/h
Sensor: Nr:Datum:Temp:Abs-Feuchte:Windchill:Wind:
Aussen-T/F 2476 28-07-2019 14:15:00 19.9 C 15.46 g/m*3 19.9 C 8.1 km/h
2477 28-07-2019 14:20:00 19.9 C 15.46 g/m*3 19.9 C 9.7 km/h
2478 28-07-2019 14:25:00 20 C 15.38 g/m*3 20 C 4.8 km/h
2479 28-07-2019 14:30:00 20.1 C 15.47 g/m*3 20.1 C 4.8 km/h
2480 28-07-2019 14:35:00 20.1 C 15.47 g/m*3 20.1 C 6.4 km/h
2481 28-07-2019 14:40:00 20.1 C 15.47 g/m*3 20.1 C 6.4 km/h
2482 28-07-2019 14:45:00 20.1 C 15.47 g/m*3 20.1 C 9.7 km/h
2483 28-07-2019 14:50:00 20 C 15.38 g/m*3 20 C 9.7 km/h
2484 28-07-2019 14:55:00 19.9 C 15.29 g/m*3 19.9 C 4.8 km/h
2485 28-07-2019 15:00:00 20 C 15.38 g/m*3 20 C 3.2 km/h
2486 28-07-2019 15:05:00 19.9 C 15.29 g/m*3 19.9 C 9.7 km/h
2487 28-07-2019 15:10:00 19.9 C 15.12 g/m*3 19.9 C 8.1 km/h
2488 28-07-2019 15:15:00 19.9 C 15.12 g/m*3 19.9 C 12.9 km/h
2489 28-07-2019 15:20:00 19.9 C 15.29 g/m*3 19.9 C 3.2 km/h
2490 28-07-2019 15:25:00 19.9 C 15.12 g/m*3 19.9 C 6.4 km/h
2491 28-07-2019 15:30:00 19.9 C 15.12 g/m*3 19.9 C 11.3 km/h
2492 28-07-2019 15:35:00 19.9 C 15.12 g/m*3 19.9 C 8.1 km/h
2493 28-07-2019 15:40:00 19.9 C 15.12 g/m*3 19.9 C 8.1 km/h
2494 28-07-2019 15:45:00 19.9 C 15.12 g/m*3 19.9 C 6.4 km/h
2495 28-07-2019 15:50:00 19.9 C 15.12 g/m*3 19.9 C 9.7 km/h
2496 28-07-2019 15:55:00 19.9 C 14.95 g/m*3 19.9 C 6.4 km/h
2497 28-07-2019 16:00:00 19.9 C 15.12 g/m*3 19.9 C 1.6 km/h
2498 28-07-2019 16:05:00 19.9 C 14.95 g/m*3 19.9 C 6.4 km/h
2499 28-07-2019 16:10:00 19.9 C 14.95 g/m*3 19.9 C 8.1 km/h
2500 28-07-2019 16:15:00 19.9 C 14.95 g/m*3 19.9 C 6.4 km/h
Sensor: Nr:Datum:Temp:Abs-Feuchte:Windchill:Wind:
Aussen-T/F 2501 28-07-2019 16:20:00 19.8 C 14.86 g/m*3 19.8 C 12.9 km/h
2502 28-07-2019 16:25:00 19.8 C 15.03 g/m*3 19.8 C 3.2 km/h
2503 28-07-2019 16:30:00 19.8 C 15.03 g/m*3 19.8 C 8.1 km/h
2504 28-07-2019 16:35:00 19.8 C 15.03 g/m*3 19.8 C 6.4 km/h
2505 28-07-2019 16:40:00 19.8 C 15.03 g/m*3 19.8 C 4.8 km/h
2506 28-07-2019 16:45:00 19.7 C 14.94 g/m*3 19.7 C 8.1 km/h
2507 28-07-2019 16:50:00 19.7 C 14.94 g/m*3 19.7 C 0 km/h
2508 28-07-2019 16:55:00 19.8 C 15.03 g/m*3 19.8 C 4.8 km/h
2509 28-07-2019 17:00:00 19.7 C 14.94 g/m*3 19.7 C 9.7 km/h
2510 28-07-2019 17:05:00 19.8 C 15.2 g/m*3 19.8 C 0 km/h
2511 28-07-2019 17:10:00 19.7 C 15.11 g/m*3 19.7 C 4.8 km/h
2512 28-07-2019 17:15:00 19.6 C 15.02 g/m*3 19.6 C 8.1 km/h
2513 28-07-2019 17:20:00 19.4 C 14.85 g/m*3 19.4 C 8.1 km/h
2514 28-07-2019 17:25:00 19.4 C 15.02 g/m*3 19.4 C 0 km/h
2515 28-07-2019 17:30:00 19.4 C 15.02 g/m*3 19.4 C 3.2 km/h
2516 28-07-2019 17:35:00 19.3 C 14.93 g/m*3 19.3 C 4.8 km/h
2517 28-07-2019 17:40:00 19.3 C 14.93 g/m*3 19.3 C 3.2 km/h
2518 28-07-2019 17:45:00 19.3 C 15.09 g/m*3 19.3 C 0 km/h
2519 28-07-2019 17:50:00 19.3 C 15.09 g/m*3 19.3 C 0 km/h
2520 28-07-2019 17:55:00 19.3 C 15.26 g/m*3 19.3 C 1.6 km/h
2521 28-07-2019 18:00:00 19.2 C 15.01 g/m*3 19.2 C 4.8 km/h
2522 28-07-2019 18:05:00 19.2 C 15.01 g/m*3 19.2 C 3.2 km/h
2523 28-07-2019 18:10:00 19.2 C 15.01 g/m*3 19.2 C 1.6 km/h
2524 28-07-2019 18:15:00 19.3 C 15.09 g/m*3 19.3 C 4.8 km/h
2525 28-07-2019 18:20:00 19.2 C 14.84 g/m*3 19.2 C 6.4 km/h
Sensor: Nr:Datum:Temp:Abs-Feuchte:Windchill:Wind:
Aussen-T/F 2526 28-07-2019 18:25:00 19.2 C 14.84 g/m*3 19.2 C 4.8 km/h
2527 28-07-2019 18:30:00 19.2 C 14.84 g/m*3 19.2 C 9.7 km/h
2528 28-07-2019 18:35:00 19.2 C 14.84 g/m*3 19.2 C 1.6 km/h
2529 28-07-2019 18:40:00 19.1 C 14.75 g/m*3 19.1 C 3.2 km/h
2530 28-07-2019 18:45:00 19.1 C 14.75 g/m*3 19.1 C 1.6 km/h
2531 28-07-2019 18:50:00 19.1 C 14.75 g/m*3 19.1 C 0 km/h
2532 28-07-2019 18:55:00 19.1 C 14.92 g/m*3 19.1 C 0 km/h
2533 28-07-2019 19:00:00 19.1 C 14.92 g/m*3 19.1 C 0 km/h
2534 28-07-2019 19:05:00 19.1 C 14.92 g/m*3 19.1 C 0 km/h
2535 28-07-2019 19:10:00 19 C 14.83 g/m*3 19 C 1.6 km/h
2536 28-07-2019 19:15:00 18.9 C 14.74 g/m*3 18.9 C 1.6 km/h
2537 28-07-2019 19:20:00 18.9 C 14.74 g/m*3 18.9 C 0 km/h
2538 28-07-2019 19:25:00 18.9 C 14.9 g/m*3 18.9 C 0 km/h
2539 28-07-2019 19:30:00 18.9 C 14.9 g/m*3 18.9 C 0 km/h
2540 28-07-2019 19:35:00 18.8 C 14.82 g/m*3 18.8 C 0 km/h
2541 28-07-2019 19:40:00 18.8 C 14.82 g/m*3 18.8 C 0 km/h
2542 28-07-2019 19:45:00 18.7 C 14.73 g/m*3 18.7 C 0 km/h
2543 28-07-2019 19:50:00 18.7 C 14.73 g/m*3 18.7 C 0 km/h
2544 28-07-2019 19:55:00 18.7 C 14.73 g/m*3 18.7 C 0 km/h
2545 28-07-2019 20:00:00 18.7 C 14.73 g/m*3 18.7 C 0 km/h
2546 28-07-2019 20:05:00 18.7 C 14.73 g/m*3 18.7 C 0 km/h
2547 28-07-2019 20:10:00 18.6 C 14.64 g/m*3 18.6 C 0 km/h
2548 28-07-2019 20:15:00 18.6 C 14.8 g/m*3 18.6 C 0 km/h
2549 28-07-2019 20:20:00 18.6 C 14.8 g/m*3 18.6 C 0 km/h
2550 28-07-2019 20:25:00 18.6 C 14.8 g/m*3 18.6 C 0 km/h
Sensor: Nr:Datum:Temp:Abs-Feuchte:Windchill:Wind:
Aussen-T/F 2551 28-07-2019 20:30:00 18.5 C 14.71 g/m*3 18.5 C 0 km/h
2552 28-07-2019 20:35:00 18.4 C 14.63 g/m*3 18.4 C 0 km/h
2553 28-07-2019 20:40:00 18.4 C 14.63 g/m*3 18.4 C 0 km/h
2554 28-07-2019 20:45:00 18.3 C 14.54 g/m*3 18.3 C 0 km/h
2555 28-07-2019 20:50:00 18.3 C 14.54 g/m*3 18.3 C 0 km/h
2556 28-07-2019 20:55:00 18.3 C 14.54 g/m*3 18.3 C 0 km/h
2557 28-07-2019 21:00:00 18.2 C 14.46 g/m*3 18.2 C 0 km/h
2558 28-07-2019 21:05:00 18.2 C 14.46 g/m*3 18.2 C 0 km/h
2559 28-07-2019 21:10:00 18.2 C 14.61 g/m*3 18.2 C 0 km/h
2560 28-07-2019 21:15:00 18.2 C 14.61 g/m*3 18.2 C 0 km/h
2561 28-07-2019 21:20:00 18.2 C 14.61 g/m*3 18.2 C 0 km/h
2562 28-07-2019 21:25:00 18.2 C 14.61 g/m*3 18.2 C 0 km/h
2563 28-07-2019 21:30:00 18.2 C 14.61 g/m*3 18.2 C 0 km/h
2564 28-07-2019 21:35:00 18.2 C 14.61 g/m*3 18.2 C 0 km/h
2565 28-07-2019 21:40:00 18.2 C 14.61 g/m*3 18.2 C 0 km/h
2566 28-07-2019 21:45:00 18.1 C 14.52 g/m*3 18.1 C 0 km/h
2567 28-07-2019 21:50:00 18.1 C 14.52 g/m*3 18.1 C 0 km/h
2568 28-07-2019 21:55:00 18.1 C 14.52 g/m*3 18.1 C 0 km/h
2569 28-07-2019 22:00:00 18.1 C 14.52 g/m*3 18.1 C 0 km/h
2570 28-07-2019 22:05:00 18.1 C 14.52 g/m*3 18.1 C 0 km/h
2571 28-07-2019 22:10:00 18 C 14.44 g/m*3 18 C 0 km/h
2572 28-07-2019 22:15:00 17.9 C 14.5 g/m*3 17.9 C 0 km/h
2573 28-07-2019 22:20:00 17.9 C 14.5 g/m*3 17.9 C 1.6 km/h
2574 28-07-2019 22:25:00 17.9 C 14.5 g/m*3 17.9 C 0 km/h
2575 28-07-2019 22:30:00 17.9 C 14.5 g/m*3 17.9 C 3.2 km/h
Sensor: Nr:Datum:Temp:Abs-Feuchte:Windchill:Wind:
Aussen-T/F 2576 28-07-2019 22:35:00 17.9 C 14.5 g/m*3 17.9 C 0 km/h
2577 28-07-2019 22:40:00 17.8 C 14.42 g/m*3 17.8 C 0 km/h
2578 28-07-2019 22:45:00 17.8 C 14.42 g/m*3 17.8 C 0 km/h
2579 28-07-2019 22:50:00 17.8 C 14.42 g/m*3 17.8 C 0 km/h
2580 28-07-2019 22:55:00 17.8 C 14.42 g/m*3 17.8 C 0 km/h
2581 28-07-2019 23:00:00 17.7 C 14.33 g/m*3 17.7 C 0 km/h
2582 28-07-2019 23:05:00 17.7 C 14.33 g/m*3 17.7 C 0 km/h
2583 28-07-2019 23:10:00 17.7 C 14.33 g/m*3 17.7 C 0 km/h
2584 28-07-2019 23:15:00 17.7 C 14.33 g/m*3 17.7 C 0 km/h
2585 28-07-2019 23:20:00 17.7 C 14.33 g/m*3 17.7 C 0 km/h
2586 28-07-2019 23:25:00 17.6 C 14.25 g/m*3 17.6 C 0 km/h
2587 28-07-2019 23:30:00 17.6 C 14.25 g/m*3 17.6 C 0 km/h
2588 28-07-2019 23:35:00 17.6 C 14.25 g/m*3 17.6 C 0 km/h
2589 28-07-2019 23:40:00 17.5 C 14.16 g/m*3 17.5 C 0 km/h
2590 28-07-2019 23:45:00 17.5 C 14.16 g/m*3 17.5 C 0 km/h
2591 28-07-2019 23:50:00 17.4 C 14.08 g/m*3 17.4 C 0 km/h
2592 28-07-2019 23:55:00 17.5 C 14.16 g/m*3 17.5 C 0 km/h
2593 29-07-2019 00:00:00 17.4 C 14.08 g/m*3 17.4 C 0 km/h
2594 29-07-2019 00:05:00 17.4 C 14.08 g/m*3 17.4 C 0 km/h
2595 29-07-2019 00:10:00 17.4 C 14.08 g/m*3 17.4 C 0 km/h
2596 29-07-2019 00:15:00 17.4 C 14.08 g/m*3 17.4 C 0 km/h
2597 29-07-2019 00:20:00 17.4 C 14.08 g/m*3 17.4 C 0 km/h
2598 29-07-2019 00:25:00 17.4 C 14.08 g/m*3 17.4 C 0 km/h
2599 29-07-2019 00:30:00 17.3 C 14 g/m*3 17.3 C 0 km/h
2600 29-07-2019 00:35:00 17.3 C 14 g/m*3 17.3 C 0 km/h
Sensor: Nr:Datum:Temp:Abs-Feuchte:Windchill:Wind:
Aussen-T/F 2601 29-07-2019 00:40:00 17.3 C 14 g/m*3 17.3 C 0 km/h
2602 29-07-2019 00:45:00 17.2 C 13.91 g/m*3 17.2 C 0 km/h
2603 29-07-2019 00:50:00 17.2 C 13.91 g/m*3 17.2 C 0 km/h
2604 29-07-2019 00:55:00 17.2 C 13.91 g/m*3 17.2 C 1.6 km/h
2605 29-07-2019 01:00:00 17.1 C 13.83 g/m*3 17.1 C 0 km/h
2606 29-07-2019 01:05:00 17.2 C 13.91 g/m*3 17.2 C 6.4 km/h
2607 29-07-2019 01:10:00 17.1 C 13.83 g/m*3 17.1 C 6.4 km/h
2608 29-07-2019 01:15:00 17.1 C 13.83 g/m*3 17.1 C 0 km/h
2609 29-07-2019 01:20:00 17.1 C 13.83 g/m*3 17.1 C 0 km/h
2610 29-07-2019 01:25:00 17.1 C 13.83 g/m*3 17.1 C 0 km/h
2611 29-07-2019 01:30:00 17.1 C 13.83 g/m*3 17.1 C 0 km/h
2612 29-07-2019 01:35:00 17.1 C 13.83 g/m*3 17.1 C 0 km/h
2613 29-07-2019 01:40:00 17.1 C 13.83 g/m*3 17.1 C 3.2 km/h
2614 29-07-2019 01:45:00 17.1 C 13.83 g/m*3 17.1 C 0 km/h
2615 29-07-2019 01:50:00 17.1 C 13.83 g/m*3 17.1 C 0 km/h
2616 29-07-2019 01:55:00 17.1 C 13.83 g/m*3 17.1 C 0 km/h
2617 29-07-2019 02:00:00 17.1 C 13.83 g/m*3 17.1 C 0 km/h
2618 29-07-2019 02:05:00 17 C 13.75 g/m*3 17 C 0 km/h
2619 29-07-2019 02:10:00 17 C 13.75 g/m*3 17 C 0 km/h
2620 29-07-2019 02:15:00 17 C 13.89 g/m*3 17 C 0 km/h
2621 29-07-2019 02:20:00 17 C 13.89 g/m*3 17 C 0 km/h
2622 29-07-2019 02:25:00 17 C 13.89 g/m*3 17 C 0 km/h
2623 29-07-2019 02:30:00 17 C 13.89 g/m*3 17 C 0 km/h
2624 29-07-2019 02:35:00 17 C 13.89 g/m*3 17 C 0 km/h
2625 29-07-2019 02:40:00 16.9 C 13.81 g/m*3 16.9 C 0 km/h
Sensor: Nr:Datum:Temp:Abs-Feuchte:Windchill:Wind:
Aussen-T/F 2626 29-07-2019 02:45:00 16.9 C 13.81 g/m*3 16.9 C 0 km/h
2627 29-07-2019 02:50:00 16.9 C 13.81 g/m*3 16.9 C 0 km/h
2628 29-07-2019 02:55:00 16.9 C 13.81 g/m*3 16.9 C 0 km/h
2629 29-07-2019 03:00:00 16.9 C 13.81 g/m*3 16.9 C 0 km/h
2630 29-07-2019 03:05:00 16.9 C 13.81 g/m*3 16.9 C 0 km/h
2631 29-07-2019 03:10:00 16.9 C 13.81 g/m*3 16.9 C 0 km/h
2632 29-07-2019 03:15:00 16.9 C 13.81 g/m*3 16.9 C 0 km/h
2633 29-07-2019 03:20:00 16.9 C 13.81 g/m*3 16.9 C 0 km/h
2634 29-07-2019 03:25:00 16.8 C 13.73 g/m*3 16.8 C 0 km/h
2635 29-07-2019 03:30:00 16.8 C 13.73 g/m*3 16.8 C 0 km/h
2636 29-07-2019 03:35:00 16.8 C 13.73 g/m*3 16.8 C 0 km/h
2637 29-07-2019 03:40:00 16.8 C 13.73 g/m*3 16.8 C 0 km/h
2638 29-07-2019 03:45:00 16.8 C 13.73 g/m*3 16.8 C 0 km/h
2639 29-07-2019 03:50:00 16.8 C 13.73 g/m*3 16.8 C 0 km/h
2640 29-07-2019 03:55:00 16.8 C 13.73 g/m*3 16.8 C 0 km/h
2641 29-07-2019 04:00:00 16.9 C 13.81 g/m*3 16.9 C 0 km/h
2642 29-07-2019 04:05:00 16.8 C 13.73 g/m*3 16.8 C 0 km/h
2643 29-07-2019 04:10:00 16.8 C 13.73 g/m*3 16.8 C 0 km/h
2644 29-07-2019 04:15:00 16.8 C 13.73 g/m*3 16.8 C 0 km/h
2645 29-07-2019 04:20:00 16.8 C 13.73 g/m*3 16.8 C 0 km/h
2646 29-07-2019 04:25:00 16.8 C 13.73 g/m*3 16.8 C 0 km/h
2647 29-07-2019 04:30:00 16.8 C 13.73 g/m*3 16.8 C 0 km/h
2648 29-07-2019 04:35:00 16.8 C 13.73 g/m*3 16.8 C 0 km/h
2649 29-07-2019 04:40:00 16.8 C 13.73 g/m*3 16.8 C 0 km/h
2650 29-07-2019 04:45:00 16.8 C 13.73 g/m*3 16.8 C 0 km/h
Sensor: Nr:Datum:Temp:Abs-Feuchte:Windchill:Wind:
Aussen-T/F 2651 29-07-2019 04:50:00 16.8 C 13.73 g/m*3 16.8 C 0 km/h
2652 29-07-2019 04:55:00 16.8 C 13.73 g/m*3 16.8 C 0 km/h
2653 29-07-2019 05:00:00 16.8 C 13.73 g/m*3 16.8 C 0 km/h
2654 29-07-2019 05:05:00 16.8 C 13.73 g/m*3 16.8 C 0 km/h
2655 29-07-2019 05:10:00 16.8 C 13.73 g/m*3 16.8 C 0 km/h
2656 29-07-2019 05:15:00 16.8 C 13.73 g/m*3 16.8 C 0 km/h
2657 29-07-2019 05:20:00 16.8 C 13.73 g/m*3 16.8 C 0 km/h
2658 29-07-2019 05:25:00 16.7 C 13.64 g/m*3 16.7 C 0 km/h
2659 29-07-2019 05:30:00 16.7 C 13.64 g/m*3 16.7 C 0 km/h
2660 29-07-2019 05:35:00 16.7 C 13.64 g/m*3 16.7 C 0 km/h
2661 29-07-2019 05:40:00 16.7 C 13.64 g/m*3 16.7 C 0 km/h
2662 29-07-2019 05:45:00 16.7 C 13.64 g/m*3 16.7 C 0 km/h
2663 29-07-2019 05:50:00 16.7 C 13.64 g/m*3 16.7 C 0 km/h
2664 29-07-2019 05:55:00 16.7 C 13.64 g/m*3 16.7 C 0 km/h
2665 29-07-2019 06:00:00 16.7 C 13.64 g/m*3 16.7 C 0 km/h
2666 29-07-2019 06:05:00 16.7 C 13.64 g/m*3 16.7 C 0 km/h
2667 29-07-2019 06:10:00 16.7 C 13.64 g/m*3 16.7 C 0 km/h
2668 29-07-2019 06:15:00 16.7 C 13.64 g/m*3 16.7 C 0 km/h
2669 29-07-2019 06:20:00 16.7 C 13.64 g/m*3 16.7 C 0 km/h
2670 29-07-2019 06:25:00 16.7 C 13.64 g/m*3 16.7 C 0 km/h
2671 29-07-2019 06:30:00 16.7 C 13.64 g/m*3 16.7 C 0 km/h
2672 29-07-2019 06:35:00 16.7 C 13.64 g/m*3 16.7 C 0 km/h
2673 29-07-2019 06:40:00 16.7 C 13.64 g/m*3 16.7 C 0 km/h
2674 29-07-2019 06:45:00 16.8 C 13.73 g/m*3 16.8 C 0 km/h
2675 29-07-2019 06:50:00 16.8 C 13.73 g/m*3 16.8 C 0 km/h
Sensor: Nr:Datum:Temp:Abs-Feuchte:Windchill:Wind:
Aussen-T/F 2676 29-07-2019 06:55:00 16.8 C 13.73 g/m*3 16.8 C 0 km/h
2677 29-07-2019 07:00:00 16.9 C 13.81 g/m*3 16.9 C 0 km/h
2678 29-07-2019 07:05:00 16.9 C 13.81 g/m*3 16.9 C 0 km/h
2679 29-07-2019 07:10:00 16.9 C 13.81 g/m*3 16.9 C 0 km/h
2680 29-07-2019 07:15:00 17 C 13.89 g/m*3 17 C 0 km/h
2681 29-07-2019 07:20:00 17.1 C 13.97 g/m*3 17.1 C 3.2 km/h
2682 29-07-2019 07:25:00 17.1 C 13.97 g/m*3 17.1 C 3.2 km/h
2683 29-07-2019 07:30:00 16.9 C 13.81 g/m*3 16.9 C 4.8 km/h
2684 29-07-2019 07:35:00 16.9 C 13.81 g/m*3 16.9 C 4.8 km/h
2685 29-07-2019 07:40:00 17 C 13.89 g/m*3 17 C 3.2 km/h
2686 29-07-2019 07:45:00 17 C 13.75 g/m*3 17 C 4.8 km/h
2687 29-07-2019 07:50:00 17.1 C 13.83 g/m*3 17.1 C 1.6 km/h
2688 29-07-2019 07:55:00 17.1 C 13.83 g/m*3 17.1 C 0 km/h
2689 29-07-2019 08:00:00 17.2 C 13.91 g/m*3 17.2 C 1.6 km/h
2690 29-07-2019 08:05:00 17.2 C 13.77 g/m*3 17.2 C 0 km/h
2691 29-07-2019 08:10:00 17.3 C 13.85 g/m*3 17.3 C 3.2 km/h
2692 29-07-2019 08:15:00 17.3 C 13.7 g/m*3 17.3 C 3.2 km/h
2693 29-07-2019 08:20:00 17.4 C 13.93 g/m*3 17.4 C 0 km/h
2694 29-07-2019 08:25:00 17.4 C 13.78 g/m*3 17.4 C 0 km/h
2695 29-07-2019 08:30:00 17.4 C 13.63 g/m*3 17.4 C 0 km/h
2696 29-07-2019 08:35:00 17.6 C 13.8 g/m*3 17.6 C 0 km/h
2697 29-07-2019 08:40:00 17.6 C 13.8 g/m*3 17.6 C 0 km/h
2698 29-07-2019 08:45:00 17.6 C 13.65 g/m*3 17.6 C 1.6 km/h
2699 29-07-2019 08:50:00 17.7 C 13.58 g/m*3 17.7 C 3.2 km/h
2700 29-07-2019 08:55:00 17.9 C 13.89 g/m*3 17.9 C 3.2 km/h
Sensor: Nr:Datum:Temp:Abs-Feuchte:Windchill:Wind:
Aussen-T/F 2701 29-07-2019 09:00:00 18 C 13.82 g/m*3 18 C 0 km/h
2702 29-07-2019 09:05:00 18.2 C 13.99 g/m*3 18.2 C 4.8 km/h
2703 29-07-2019 09:10:00 18.2 C 13.68 g/m*3 18.2 C 8.1 km/h
2704 29-07-2019 09:15:00 18.3 C 13.76 g/m*3 18.3 C 0 km/h
2705 29-07-2019 09:20:00 18.3 C 13.76 g/m*3 18.3 C 1.6 km/h
2706 29-07-2019 09:25:00 18.4 C 13.68 g/m*3 18.4 C 9.7 km/h
2707 29-07-2019 09:30:00 18.6 C 13.69 g/m*3 18.6 C 11.3 km/h
2708 29-07-2019 09:35:00 18.7 C 13.77 g/m*3 18.7 C 9.7 km/h
2709 29-07-2019 09:40:00 18.8 C 13.53 g/m*3 18.8 C 9.7 km/h
2710 29-07-2019 09:45:00 18.8 C 13.37 g/m*3 18.8 C 6.4 km/h
2711 29-07-2019 09:50:00 18.8 C 13.37 g/m*3 18.8 C 4.8 km/h
2712 29-07-2019 09:55:00 18.8 C 13.37 g/m*3 18.8 C 6.4 km/h
2713 29-07-2019 10:00:00 18.8 C 13.21 g/m*3 18.8 C 4.8 km/h
2714 29-07-2019 10:05:00 18.8 C 13.37 g/m*3 18.8 C 4.8 km/h
2715 29-07-2019 10:10:00 18.9 C 13.45 g/m*3 18.9 C 4.8 km/h
2716 29-07-2019 10:15:00 19.1 C 13.28 g/m*3 19.1 C 6.4 km/h
2717 29-07-2019 10:20:00 19.3 C 13.27 g/m*3 19.3 C 6.4 km/h
2718 29-07-2019 10:25:00 19.4 C 13.18 g/m*3 19.4 C 9.7 km/h
2719 29-07-2019 10:30:00 19.5 C 13.26 g/m*3 19.5 C 4.8 km/h
2720 29-07-2019 10:35:00 19.7 C 13.41 g/m*3 19.7 C 6.4 km/h
2721 29-07-2019 10:40:00 19.7 C 13.08 g/m*3 19.7 C 6.4 km/h
2722 29-07-2019 10:45:00 19.8 C 13.32 g/m*3 19.8 C 6.4 km/h
2723 29-07-2019 10:50:00 19.8 C 12.98 g/m*3 19.8 C 3.2 km/h
2724 29-07-2019 10:55:00 19.9 C 12.89 g/m*3 19.9 C 8.1 km/h
2725 29-07-2019 11:00:00 19.9 C 12.89 g/m*3 19.9 C 4.8 km/h
Sensor: Nr:Datum:Temp:Abs-Feuchte:Windchill:Wind:
Aussen-T/F 2726 29-07-2019 11:05:00 20 C 13.13 g/m*3 20 C 8.1 km/h
2727 29-07-2019 11:10:00 20 C 12.96 g/m*3 20 C 8.1 km/h
2728 29-07-2019 11:15:00 20.1 C 13.04 g/m*3 20.1 C 4.8 km/h
2729 29-07-2019 11:20:00 20.2 C 13.11 g/m*3 20.2 C 4.8 km/h
2730 29-07-2019 11:25:00 20.3 C 13.37 g/m*3 20.3 C 8.1 km/h
2731 29-07-2019 11:30:00 20.4 C 13.09 g/m*3 20.4 C 11.3 km/h
2732 29-07-2019 11:35:00 20.6 C 13.07 g/m*3 20.6 C 4.8 km/h
2733 29-07-2019 11:40:00 20.8 C 13.04 g/m*3 20.8 C 4.8 km/h
2734 29-07-2019 11:45:00 21 C 13.19 g/m*3 21 C 6.4 km/h
2735 29-07-2019 11:50:00 21.2 C 13.34 g/m*3 21.2 C 6.4 km/h
2736 29-07-2019 11:55:00 21.2 C 12.97 g/m*3 21.2 C 9.7 km/h
2737 29-07-2019 12:00:00 21.4 C 12.75 g/m*3 21.4 C 11.3 km/h
2738 29-07-2019 12:05:00 21.5 C 12.63 g/m*3 21.5 C 6.4 km/h
2739 29-07-2019 12:10:00 21.6 C 13.09 g/m*3 21.6 C 3.2 km/h
2740 29-07-2019 12:15:00 21.6 C 12.9 g/m*3 21.6 C 1.6 km/h
2741 29-07-2019 12:20:00 21.8 C 13.05 g/m*3 21.8 C 9.7 km/h
2742 29-07-2019 12:25:00 21.9 C 12.74 g/m*3 21.9 C 9.7 km/h
2743 29-07-2019 12:30:00 22.1 C 12.88 g/m*3 22.1 C 11.3 km/h
2744 29-07-2019 12:35:00 22.1 C 12.69 g/m*3 22.1 C 9.7 km/h
2745 29-07-2019 12:40:00 22.2 C 12.96 g/m*3 22.2 C 8.1 km/h
2746 29-07-2019 12:45:00 22.3 C 12.83 g/m*3 22.3 C 8.1 km/h
2747 29-07-2019 12:50:00 22.4 C 12.91 g/m*3 22.4 C 8.1 km/h
2748 29-07-2019 12:55:00 22.5 C 12.78 g/m*3 22.5 C 8.1 km/h
2749 29-07-2019 13:00:00 22.6 C 13.06 g/m*3 22.6 C 8.1 km/h
2750 29-07-2019 13:05:00 22.7 C 12.73 g/m*3 22.7 C 9.7 km/h
Sensor: Nr:Datum:Temp:Abs-Feuchte:Windchill:Wind:
Aussen-T/F 2751 29-07-2019 13:10:00 22.8 C 13 g/m*3 22.8 C 6.4 km/h
2752 29-07-2019 13:15:00 23 C 12.54 g/m*3 23 C 11.3 km/h
2753 29-07-2019 13:20:00 23.2 C 12.68 g/m*3 23.2 C 9.7 km/h
2754 29-07-2019 13:25:00 23.3 C 12.96 g/m*3 23.3 C 6.4 km/h
2755 29-07-2019 13:30:00 23.5 C 12.9 g/m*3 23.5 C 9.7 km/h
2756 29-07-2019 13:35:00 23.6 C 13.19 g/m*3 23.6 C 8.1 km/h
2757 29-07-2019 13:40:00 23.5 C 13.11 g/m*3 23.5 C 6.4 km/h
2758 29-07-2019 13:45:00 23.5 C 13.11 g/m*3 23.5 C 4.8 km/h
2759 29-07-2019 13:50:00 23.6 C 12.97 g/m*3 23.6 C 8.1 km/h
2760 29-07-2019 13:55:00 23.7 C 12.83 g/m*3 23.7 C 9.7 km/h
2761 29-07-2019 14:00:00 23.7 C 12.83 g/m*3 23.7 C 3.2 km/h
2762 29-07-2019 14:05:00 23.8 C 12.91 g/m*3 23.8 C 8.1 km/h
2763 29-07-2019 14:10:00 23.9 C 13.2 g/m*3 23.9 C 1.6 km/h
2764 29-07-2019 14:15:00 24.2 C 12.98 g/m*3 24.2 C 11.3 km/h
2765 29-07-2019 14:20:00 24.4 C 12.91 g/m*3 24.4 C 11.3 km/h
2766 29-07-2019 14:25:00 24.5 C 12.98 g/m*3 24.5 C 8.1 km/h
2767 29-07-2019 14:30:00 24.7 C 12.68 g/m*3 24.7 C 6.4 km/h
2768 29-07-2019 14:35:00 24.7 C 12.9 g/m*3 24.7 C 0 km/h
2769 29-07-2019 14:40:00 24.7 C 12.9 g/m*3 24.7 C 3.2 km/h
2770 29-07-2019 14:45:00 24.8 C 12.29 g/m*3 24.8 C 9.7 km/h
2771 29-07-2019 14:50:00 24.8 C 12.52 g/m*3 24.8 C 4.8 km/h
2772 29-07-2019 14:55:00 24.8 C 12.52 g/m*3 24.8 C 11.3 km/h
2773 29-07-2019 15:00:00 24.8 C 12.29 g/m*3 24.8 C 9.7 km/h
2774 29-07-2019 15:05:00 24.9 C 12.36 g/m*3 24.9 C 6.4 km/h
2775 29-07-2019 15:10:00 25.1 C 12.5 g/m*3 25.1 C 12.9 km/h
Sensor: Nr:Datum:Temp:Abs-Feuchte:Windchill:Wind:
Aussen-T/F 2776 29-07-2019 15:15:00 25.4 C 12.48 g/m*3 25.4 C 12.9 km/h
2777 29-07-2019 15:20:00 25.6 C 12.38 g/m*3 25.6 C 9.7 km/h
2778 29-07-2019 15:25:00 25.7 C 12.21 g/m*3 25.7 C 11.3 km/h
2779 29-07-2019 15:30:00 25.9 C 12.35 g/m*3 25.9 C 14.5 km/h
2780 29-07-2019 15:35:00 26.1 C 12.49 g/m*3 26.1 C 14.5 km/h
2781 29-07-2019 15:40:00 26.1 C 12.24 g/m*3 26.1 C 12.9 km/h
2782 29-07-2019 15:45:00 26.4 C 12.45 g/m*3 26.4 C 9.7 km/h
2783 29-07-2019 15:50:00 26.8 C 12.47 g/m*3 26.8 C 6.4 km/h
2784 29-07-2019 15:55:00 27.2 C 12.49 g/m*3 27.2 C 9.7 km/h
2785 29-07-2019 16:00:00 27.3 C 12.3 g/m*3 27.3 C 8.1 km/h
2786 29-07-2019 16:05:00 27.4 C 12.37 g/m*3 27.4 C 9.7 km/h
2787 29-07-2019 16:10:00 27.6 C 12.24 g/m*3 27.6 C 8.1 km/h
2788 29-07-2019 16:15:00 27.3 C 12.3 g/m*3 27.3 C 9.7 km/h
2789 29-07-2019 16:20:00 27.2 C 12.23 g/m*3 27.2 C 6.4 km/h
2790 29-07-2019 16:25:00 27.2 C 11.97 g/m*3 27.2 C 12.9 km/h
2791 29-07-2019 16:30:00 27.3 C 12.3 g/m*3 27.3 C 3.2 km/h
2792 29-07-2019 16:35:00 27.7 C 12.04 g/m*3 27.7 C 8.1 km/h
2793 29-07-2019 16:40:00 27.9 C 12.17 g/m*3 27.9 C 6.4 km/h
2794 29-07-2019 16:45:00 28.2 C 12.1 g/m*3 28.2 C 6.4 km/h
2795 29-07-2019 16:50:00 28.2 C 12.1 g/m*3 28.2 C 4.8 km/h
2796 29-07-2019 16:55:00 27.9 C 11.9 g/m*3 27.9 C 9.7 km/h
2797 29-07-2019 17:00:00 27.9 C 12.17 g/m*3 27.9 C 11.3 km/h
2798 29-07-2019 17:05:00 28 C 12.24 g/m*3 28 C 8.1 km/h
2799 29-07-2019 17:10:00 28.3 C 12.16 g/m*3 28.3 C 8.1 km/h
2800 29-07-2019 17:15:00 28.4 C 11.95 g/m*3 28.4 C 11.3 km/h
Sensor: Nr:Datum:Temp:Abs-Feuchte:Windchill:Wind:
Aussen-T/F 2801 29-07-2019 17:20:00 28.3 C 11.61 g/m*3 28.3 C 6.4 km/h
2802 29-07-2019 17:25:00 28.4 C 11.95 g/m*3 28.4 C 9.7 km/h
2803 29-07-2019 17:30:00 28.4 C 11.67 g/m*3 28.4 C 6.4 km/h
2804 29-07-2019 17:35:00 28.4 C 11.95 g/m*3 28.4 C 4.8 km/h
2805 29-07-2019 17:40:00 28.6 C 12.08 g/m*3 28.6 C 9.7 km/h
2806 29-07-2019 17:45:00 28.3 C 11.89 g/m*3 28.3 C 8.1 km/h
2807 29-07-2019 17:50:00 28.1 C 11.76 g/m*3 28.1 C 4.8 km/h
2808 29-07-2019 17:55:00 27.7 C 11.5 g/m*3 27.7 C 4.8 km/h
2809 29-07-2019 18:00:00 27.4 C 11.58 g/m*3 27.4 C 11.3 km/h
2810 29-07-2019 18:05:00 27.2 C 11.45 g/m*3 27.2 C 4.8 km/h
2811 29-07-2019 18:10:00 27.1 C 11.65 g/m*3 27.1 C 3.2 km/h
2812 29-07-2019 18:15:00 27.3 C 11.77 g/m*3 27.3 C 4.8 km/h
2813 29-07-2019 18:20:00 27.4 C 11.58 g/m*3 27.4 C 4.8 km/h
2814 29-07-2019 18:25:00 27.4 C 11.58 g/m*3 27.4 C 1.6 km/h
2815 29-07-2019 18:30:00 27.4 C 11.58 g/m*3 27.4 C 3.2 km/h
2816 29-07-2019 18:35:00 27.7 C 11.77 g/m*3 27.7 C 3.2 km/h
2817 29-07-2019 18:40:00 28 C 11.69 g/m*3 28 C 6.4 km/h
2818 29-07-2019 18:45:00 28.3 C 11.61 g/m*3 28.3 C 4.8 km/h
2819 29-07-2019 18:50:00 28.6 C 11.8 g/m*3 28.6 C 6.4 km/h
2820 29-07-2019 18:55:00 28.7 C 11.59 g/m*3 28.7 C 4.8 km/h
2821 29-07-2019 19:00:00 28.8 C 11.65 g/m*3 28.8 C 6.4 km/h
2822 29-07-2019 19:05:00 28.9 C 12 g/m*3 28.9 C 4.8 km/h
2823 29-07-2019 19:10:00 28.9 C 11.71 g/m*3 28.9 C 4.8 km/h
2824 29-07-2019 19:15:00 28.8 C 11.65 g/m*3 28.8 C 4.8 km/h
2825 29-07-2019 19:20:00 28.6 C 11.8 g/m*3 28.6 C 9.7 km/h
Sensor: Nr:Datum:Temp:Abs-Feuchte:Windchill:Wind:
Aussen-T/F 2826 29-07-2019 19:25:00 28.1 C 11.76 g/m*3 28.1 C 8.1 km/h
2827 29-07-2019 19:30:00 27.9 C 11.9 g/m*3 27.9 C 6.4 km/h
2828 29-07-2019 19:35:00 27.7 C 11.77 g/m*3 27.7 C 8.1 km/h
2829 29-07-2019 19:40:00 27.6 C 11.97 g/m*3 27.6 C 6.4 km/h
2830 29-07-2019 19:45:00 27.4 C 12.1 g/m*3 27.4 C 4.8 km/h
2831 29-07-2019 19:50:00 27.3 C 11.77 g/m*3 27.3 C 6.4 km/h
2832 29-07-2019 19:55:00 27.2 C 11.97 g/m*3 27.2 C 4.8 km/h
2833 29-07-2019 20:00:00 27.1 C 11.9 g/m*3 27.1 C 6.4 km/h
2834 29-07-2019 20:05:00 27 C 12.1 g/m*3 27 C 6.4 km/h
2835 29-07-2019 20:10:00 26.8 C 11.96 g/m*3 26.8 C 8.1 km/h
2836 29-07-2019 20:15:00 26.6 C 12.08 g/m*3 26.6 C 6.4 km/h
2837 29-07-2019 20:20:00 26.4 C 12.2 g/m*3 26.4 C 6.4 km/h
2838 29-07-2019 20:25:00 26.3 C 12.13 g/m*3 26.3 C 4.8 km/h
2839 29-07-2019 20:30:00 26.3 C 12.38 g/m*3 26.3 C 3.2 km/h
2840 29-07-2019 20:35:00 26.2 C 12.31 g/m*3 26.2 C 0 km/h
2841 29-07-2019 20:40:00 26 C 12.17 g/m*3 26 C 0 km/h
2842 29-07-2019 20:45:00 25.9 C 12.35 g/m*3 25.9 C 0 km/h
2843 29-07-2019 20:50:00 25.8 C 12.28 g/m*3 25.8 C 0 km/h
2844 29-07-2019 20:55:00 25.6 C 12.38 g/m*3 25.6 C 0 km/h
2845 29-07-2019 21:00:00 25.3 C 12.88 g/m*3 25.3 C 0 km/h
2846 29-07-2019 21:05:00 24.9 C 12.82 g/m*3 24.9 C 0 km/h
2847 29-07-2019 21:10:00 24.5 C 13.2 g/m*3 24.5 C 0 km/h
2848 29-07-2019 21:15:00 24 C 12.84 g/m*3 24 C 0 km/h
2849 29-07-2019 21:20:00 23.5 C 12.69 g/m*3 23.5 C 0 km/h
2850 29-07-2019 21:25:00 23 C 12.54 g/m*3 23 C 0 km/h
Sensor: Nr:Datum:Temp:Abs-Feuchte:Windchill:Wind:
Aussen-T/F 2851 29-07-2019 21:30:00 22.6 C 12.66 g/m*3 22.6 C 0 km/h
2852 29-07-2019 21:35:00 22.2 C 12.57 g/m*3 22.2 C 0 km/h
2853 29-07-2019 21:40:00 21.9 C 12.54 g/m*3 21.9 C 0 km/h
2854 29-07-2019 21:45:00 21.8 C 12.66 g/m*3 21.8 C 0 km/h
2855 29-07-2019 21:50:00 21.6 C 12.52 g/m*3 21.6 C 0 km/h
2856 29-07-2019 21:55:00 21.4 C 12.37 g/m*3 21.4 C 0 km/h
2857 29-07-2019 22:00:00 21.3 C 12.49 g/m*3 21.3 C 0 km/h
2858 29-07-2019 22:05:00 21.2 C 12.6 g/m*3 21.2 C 0 km/h
2859 29-07-2019 22:10:00 21.1 C 12.53 g/m*3 21.1 C 0 km/h
2860 29-07-2019 22:15:00 21 C 12.46 g/m*3 21 C 0 km/h
2861 29-07-2019 22:20:00 20.9 C 12.38 g/m*3 20.9 C 0 km/h
2862 29-07-2019 22:25:00 20.8 C 12.49 g/m*3 20.8 C 0 km/h
2863 29-07-2019 22:30:00 20.8 C 12.67 g/m*3 20.8 C 0 km/h
2864 29-07-2019 22:35:00 20.7 C 12.78 g/m*3 20.7 C 0 km/h
2865 29-07-2019 22:40:00 20.6 C 12.71 g/m*3 20.6 C 0 km/h
2866 29-07-2019 22:45:00 20.4 C 12.56 g/m*3 20.4 C 0 km/h
2867 29-07-2019 22:50:00 20.2 C 12.59 g/m*3 20.2 C 0 km/h
2868 29-07-2019 22:55:00 20.1 C 12.69 g/m*3 20.1 C 0 km/h
2869 29-07-2019 23:00:00 20 C 12.62 g/m*3 20 C 0 km/h
2870 29-07-2019 23:05:00 19.9 C 12.54 g/m*3 19.9 C 0 km/h
2871 29-07-2019 23:10:00 19.8 C 12.64 g/m*3 19.8 C 0 km/h
2872 29-07-2019 23:15:00 19.7 C 12.74 g/m*3 19.7 C 0 km/h
2873 29-07-2019 23:20:00 19.6 C 12.66 g/m*3 19.6 C 0 km/h
2874 29-07-2019 23:25:00 19.4 C 12.51 g/m*3 19.4 C 0 km/h
2875 29-07-2019 23:30:00 19.3 C 12.61 g/m*3 19.3 C 0 km/h
Sensor: Nr:Datum:Temp:Abs-Feuchte:Windchill:Wind:
Aussen-T/F 2876 29-07-2019 23:35:00 19.1 C 12.46 g/m*3 19.1 C 0 km/h
2877 29-07-2019 23:40:00 19 C 12.55 g/m*3 19 C 0 km/h
2878 29-07-2019 23:45:00 18.8 C 12.4 g/m*3 18.8 C 0 km/h
2879 29-07-2019 23:50:00 18.8 C 12.56 g/m*3 18.8 C 0 km/h
2880 29-07-2019 23:55:00 18.7 C 12.49 g/m*3 18.7 C 0 km/h
2881 30-07-2019 00:00:00 18.5 C 12.5 g/m*3 18.5 C 0 km/h
2882 30-07-2019 00:05:00 18.3 C 12.35 g/m*3 18.3 C 0 km/h
2883 30-07-2019 00:10:00 18.2 C 12.43 g/m*3 18.2 C 0 km/h
2884 30-07-2019 00:15:00 18.1 C 12.36 g/m*3 18.1 C 0 km/h
2885 30-07-2019 00:20:00 18 C 12.44 g/m*3 18 C 0 km/h
2886 30-07-2019 00:25:00 17.9 C 12.37 g/m*3 17.9 C 0 km/h
2887 30-07-2019 00:30:00 17.8 C 12.29 g/m*3 17.8 C 0 km/h
2888 30-07-2019 00:35:00 17.8 C 12.45 g/m*3 17.8 C 0 km/h
2889 30-07-2019 00:40:00 17.7 C 12.37 g/m*3 17.7 C 0 km/h
2890 30-07-2019 00:45:00 17.7 C 12.37 g/m*3 17.7 C 0 km/h
2891 30-07-2019 00:50:00 17.7 C 12.52 g/m*3 17.7 C 0 km/h
2892 30-07-2019 00:55:00 17.7 C 12.52 g/m*3 17.7 C 0 km/h
2893 30-07-2019 01:00:00 17.7 C 12.52 g/m*3 17.7 C 0 km/h
2894 30-07-2019 01:05:00 17.7 C 12.67 g/m*3 17.7 C 0 km/h
2895 30-07-2019 01:10:00 17.7 C 12.52 g/m*3 17.7 C 0 km/h
2896 30-07-2019 01:15:00 17.7 C 12.52 g/m*3 17.7 C 0 km/h
2897 30-07-2019 01:20:00 17.6 C 12.45 g/m*3 17.6 C 0 km/h
2898 30-07-2019 01:25:00 17.5 C 12.37 g/m*3 17.5 C 0 km/h
2899 30-07-2019 01:30:00 17.4 C 12.3 g/m*3 17.4 C 0 km/h
2900 30-07-2019 01:35:00 17.3 C 12.37 g/m*3 17.3 C 0 km/h
Sensor: Nr:Datum:Temp:Abs-Feuchte:Windchill:Wind:
Aussen-T/F 2901 30-07-2019 01:40:00 17.2 C 12.3 g/m*3 17.2 C 0 km/h
2902 30-07-2019 01:45:00 17.2 C 12.3 g/m*3 17.2 C 0 km/h
2903 30-07-2019 01:50:00 17.1 C 12.23 g/m*3 17.1 C 0 km/h
2904 30-07-2019 01:55:00 17 C 12.15 g/m*3 17 C 0 km/h
2905 30-07-2019 02:00:00 16.9 C 12.08 g/m*3 16.9 C 0 km/h
2906 30-07-2019 02:05:00 16.9 C 12.23 g/m*3 16.9 C 0 km/h
2907 30-07-2019 02:10:00 16.8 C 12.15 g/m*3 16.8 C 0 km/h
2908 30-07-2019 02:15:00 16.8 C 12.15 g/m*3 16.8 C 0 km/h
2909 30-07-2019 02:20:00 16.7 C 12.08 g/m*3 16.7 C 0 km/h
2910 30-07-2019 02:25:00 16.6 C 12.01 g/m*3 16.6 C 0 km/h
2911 30-07-2019 02:30:00 16.6 C 12.15 g/m*3 16.6 C 0 km/h
2912 30-07-2019 02:35:00 16.5 C 12.08 g/m*3 16.5 C 0 km/h
2913 30-07-2019 02:40:00 16.4 C 12 g/m*3 16.4 C 0 km/h
2914 30-07-2019 02:45:00 16.4 C 12 g/m*3 16.4 C 0 km/h
2915 30-07-2019 02:50:00 16.3 C 11.93 g/m*3 16.3 C 0 km/h
2916 30-07-2019 02:55:00 16.3 C 12.07 g/m*3 16.3 C 0 km/h
2917 30-07-2019 03:00:00 16.2 C 12 g/m*3 16.2 C 0 km/h
2918 30-07-2019 03:05:00 16.1 C 11.93 g/m*3 16.1 C 0 km/h
2919 30-07-2019 03:10:00 16 C 11.85 g/m*3 16 C 0 km/h
2920 30-07-2019 03:15:00 15.9 C 11.92 g/m*3 15.9 C 0 km/h
2921 30-07-2019 03:20:00 15.9 C 11.92 g/m*3 15.9 C 0 km/h
2922 30-07-2019 03:25:00 15.9 C 11.92 g/m*3 15.9 C 0 km/h
2923 30-07-2019 03:30:00 15.9 C 11.92 g/m*3 15.9 C 0 km/h
2924 30-07-2019 03:35:00 15.8 C 11.98 g/m*3 15.8 C 0 km/h
2925 30-07-2019 03:40:00 15.8 C 11.98 g/m*3 15.8 C 0 km/h
Sensor: Nr:Datum:Temp:Abs-Feuchte:Windchill:Wind:
Aussen-T/F 2926 30-07-2019 03:45:00 15.7 C 11.91 g/m*3 15.7 C 0 km/h
2927 30-07-2019 03:50:00 15.7 C 11.91 g/m*3 15.7 C 0 km/h
2928 30-07-2019 03:55:00 15.6 C 11.84 g/m*3 15.6 C 0 km/h
2929 30-07-2019 04:00:00 15.6 C 11.84 g/m*3 15.6 C 0 km/h
2930 30-07-2019 04:05:00 15.6 C 11.84 g/m*3 15.6 C 0 km/h
2931 30-07-2019 04:10:00 15.5 C 11.9 g/m*3 15.5 C 0 km/h
2932 30-07-2019 04:15:00 15.5 C 11.9 g/m*3 15.5 C 0 km/h
2933 30-07-2019 04:20:00 15.4 C 11.82 g/m*3 15.4 C 0 km/h
2934 30-07-2019 04:25:00 15.4 C 11.82 g/m*3 15.4 C 0 km/h
2935 30-07-2019 04:30:00 15.4 C 11.82 g/m*3 15.4 C 0 km/h
2936 30-07-2019 04:35:00 15.3 C 11.75 g/m*3 15.3 C 0 km/h
2937 30-07-2019 04:40:00 15.3 C 11.75 g/m*3 15.3 C 0 km/h
2938 30-07-2019 04:45:00 15.3 C 11.88 g/m*3 15.3 C 0 km/h
2939 30-07-2019 04:50:00 15.3 C 11.88 g/m*3 15.3 C 0 km/h
2940 30-07-2019 04:55:00 15.2 C 11.81 g/m*3 15.2 C 0 km/h
2941 30-07-2019 05:00:00 15.2 C 11.81 g/m*3 15.2 C 0 km/h
2942 30-07-2019 05:05:00 15.1 C 11.74 g/m*3 15.1 C 0 km/h
2943 30-07-2019 05:10:00 15.1 C 11.74 g/m*3 15.1 C 0 km/h
2944 30-07-2019 05:15:00 15.1 C 11.74 g/m*3 15.1 C 0 km/h
2945 30-07-2019 05:20:00 15.1 C 11.74 g/m*3 15.1 C 0 km/h
2946 30-07-2019 05:25:00 15.1 C 11.74 g/m*3 15.1 C 0 km/h
2947 30-07-2019 05:30:00 15.1 C 11.87 g/m*3 15.1 C 0 km/h
2948 30-07-2019 05:35:00 15 C 11.8 g/m*3 15 C 0 km/h
2949 30-07-2019 05:40:00 15 C 11.8 g/m*3 15 C 0 km/h
2950 30-07-2019 05:45:00 14.9 C 11.73 g/m*3 14.9 C 0 km/h
Sensor: Nr:Datum:Temp:Abs-Feuchte:Windchill:Wind:
Aussen-T/F 2951 30-07-2019 05:50:00 14.9 C 11.73 g/m*3 14.9 C 0 km/h
2952 30-07-2019 05:55:00 14.8 C 11.65 g/m*3 14.8 C 0 km/h
2953 30-07-2019 06:00:00 14.8 C 11.65 g/m*3 14.8 C 0 km/h
2954 30-07-2019 06:05:00 14.8 C 11.65 g/m*3 14.8 C 0 km/h
2955 30-07-2019 06:10:00 14.7 C 11.71 g/m*3 14.7 C 0 km/h
2956 30-07-2019 06:15:00 14.7 C 11.71 g/m*3 14.7 C 0 km/h
2957 30-07-2019 06:20:00 14.7 C 11.71 g/m*3 14.7 C 0 km/h
2958 30-07-2019 06:25:00 14.7 C 11.71 g/m*3 14.7 C 0 km/h
2959 30-07-2019 06:30:00 14.7 C 11.71 g/m*3 14.7 C 0 km/h
2960 30-07-2019 06:35:00 14.7 C 11.71 g/m*3 14.7 C 0 km/h
2961 30-07-2019 06:40:00 14.8 C 11.78 g/m*3 14.8 C 0 km/h
2962 30-07-2019 06:45:00 14.7 C 11.71 g/m*3 14.7 C 0 km/h
2963 30-07-2019 06:50:00 14.7 C 11.71 g/m*3 14.7 C 0 km/h
2964 30-07-2019 06:55:00 14.7 C 11.71 g/m*3 14.7 C 0 km/h
2965 30-07-2019 07:00:00 14.7 C 11.71 g/m*3 14.7 C 0 km/h
2966 30-07-2019 07:05:00 14.7 C 11.71 g/m*3 14.7 C 0 km/h
2967 30-07-2019 07:10:00 14.8 C 11.91 g/m*3 14.8 C 0 km/h
2968 30-07-2019 07:15:00 14.8 C 11.91 g/m*3 14.8 C 0 km/h
2969 30-07-2019 07:20:00 14.8 C 11.91 g/m*3 14.8 C 0 km/h
2970 30-07-2019 07:25:00 14.9 C 11.98 g/m*3 14.9 C 0 km/h
2971 30-07-2019 07:30:00 15 C 12.05 g/m*3 15 C 0 km/h
2972 30-07-2019 07:35:00 15 C 12.05 g/m*3 15 C 0 km/h
2973 30-07-2019 07:40:00 15.1 C 12.13 g/m*3 15.1 C 0 km/h
2974 30-07-2019 07:45:00 15.1 C 12.13 g/m*3 15.1 C 0 km/h
2975 30-07-2019 07:50:00 15.1 C 12.13 g/m*3 15.1 C 0 km/h
Sensor: Nr:Datum:Temp:Abs-Feuchte:Windchill:Wind:
Aussen-T/F 2976 30-07-2019 07:55:00 15.2 C 12.2 g/m*3 15.2 C 0 km/h
2977 30-07-2019 08:00:00 15.3 C 12.28 g/m*3 15.3 C 0 km/h
2978 30-07-2019 08:05:00 15.6 C 12.5 g/m*3 15.6 C 0 km/h
2979 30-07-2019 08:10:00 15.7 C 12.58 g/m*3 15.7 C 0 km/h
2980 30-07-2019 08:15:00 15.7 C 12.58 g/m*3 15.7 C 0 km/h
2981 30-07-2019 08:20:00 15.7 C 12.58 g/m*3 15.7 C 0 km/h
2982 30-07-2019 08:25:00 15.8 C 12.65 g/m*3 15.8 C 0 km/h
2983 30-07-2019 08:30:00 15.9 C 12.73 g/m*3 15.9 C 0 km/h
2984 30-07-2019 08:35:00 15.9 C 12.73 g/m*3 15.9 C 0 km/h
2985 30-07-2019 08:40:00 16.1 C 12.88 g/m*3 16.1 C 0 km/h
2986 30-07-2019 08:45:00 16.2 C 12.96 g/m*3 16.2 C 0 km/h
2987 30-07-2019 08:50:00 16.3 C 13.04 g/m*3 16.3 C 0 km/h
2988 30-07-2019 08:55:00 16.4 C 12.98 g/m*3 16.4 C 0 km/h
2989 30-07-2019 09:00:00 16.6 C 13.14 g/m*3 16.6 C 0 km/h
2990 30-07-2019 09:05:00 16.7 C 13.22 g/m*3 16.7 C 0 km/h
2991 30-07-2019 09:10:00 16.8 C 13.3 g/m*3 16.8 C 0 km/h
2992 30-07-2019 09:15:00 16.9 C 13.38 g/m*3 16.9 C 0 km/h
2993 30-07-2019 09:20:00 17.1 C 13.54 g/m*3 17.1 C 0 km/h
2994 30-07-2019 09:25:00 17.2 C 13.47 g/m*3 17.2 C 0 km/h
2995 30-07-2019 09:30:00 17.4 C 13.63 g/m*3 17.4 C 0 km/h
2996 30-07-2019 09:35:00 17.7 C 13.88 g/m*3 17.7 C 0 km/h
2997 30-07-2019 09:40:00 17.8 C 13.81 g/m*3 17.8 C 0 km/h
2998 30-07-2019 09:45:00 18 C 13.98 g/m*3 18 C 0 km/h
2999 30-07-2019 09:50:00 18.2 C 13.99 g/m*3 18.2 C 0 km/h
3000 30-07-2019 09:55:00 18.4 C 14 g/m*3 18.4 C 0 km/h
Sensor: Nr:Datum:Temp:Abs-Feuchte:Windchill:Wind:
Aussen-T/F 3001 30-07-2019 10:00:00 18.6 C 14.17 g/m*3 18.6 C 0 km/h
3002 30-07-2019 10:05:00 18.8 C 14.17 g/m*3 18.8 C 0 km/h
3003 30-07-2019 10:10:00 19.2 C 14.35 g/m*3 19.2 C 0 km/h
3004 30-07-2019 10:15:00 19.4 C 14.35 g/m*3 19.4 C 0 km/h
3005 30-07-2019 10:20:00 19.7 C 14.26 g/m*3 19.7 C 0 km/h
3006 30-07-2019 10:25:00 20.1 C 14.43 g/m*3 20.1 C 0 km/h
3007 30-07-2019 10:30:00 20.3 C 14.42 g/m*3 20.3 C 0 km/h
3008 30-07-2019 10:35:00 20.7 C 14.58 g/m*3 20.7 C 0 km/h
3009 30-07-2019 10:40:00 21.1 C 14.56 g/m*3 21.1 C 0 km/h
3010 30-07-2019 10:45:00 21.4 C 14.81 g/m*3 21.4 C 0 km/h
3011 30-07-2019 10:50:00 21.8 C 14.39 g/m*3 21.8 C 0 km/h
3012 30-07-2019 10:55:00 22.2 C 14.53 g/m*3 22.2 C 0 km/h
3013 30-07-2019 11:00:00 22.6 C 14.46 g/m*3 22.6 C 0 km/h
3014 30-07-2019 11:05:00 22.9 C 14.31 g/m*3 22.9 C 0 km/h
3015 30-07-2019 11:10:00 23.4 C 13.25 g/m*3 23.4 C 9.7 km/h
3016 30-07-2019 11:15:00 24.3 C 13.5 g/m*3 24.3 C 9.7 km/h
3017 30-07-2019 11:20:00 24.7 C 13.13 g/m*3 24.7 C 6.4 km/h
3018 30-07-2019 11:25:00 25.3 C 12.88 g/m*3 25.3 C 12.9 km/h
3019 30-07-2019 11:30:00 25.7 C 12.93 g/m*3 25.7 C 12.9 km/h
3020 30-07-2019 11:35:00 26.1 C 12.98 g/m*3 26.1 C 12.9 km/h
3021 30-07-2019 11:40:00 26.2 C 13.05 g/m*3 26.2 C 11.3 km/h
3022 30-07-2019 11:45:00 26.1 C 12.73 g/m*3 26.1 C 12.9 km/h
3023 30-07-2019 11:50:00 26.1 C 12.73 g/m*3 26.1 C 12.9 km/h
3024 30-07-2019 11:55:00 26.2 C 12.8 g/m*3 26.2 C 16.1 km/h
3025 30-07-2019 12:00:00 26.3 C 12.63 g/m*3 26.3 C 19.3 km/h
Sensor: Nr:Datum:Temp:Abs-Feuchte:Windchill:Wind:
Aussen-T/F 3026 30-07-2019 12:05:00 26.5 C 12.27 g/m*3 26.5 C 11.3 km/h
3027 30-07-2019 12:10:00 26.6 C 12.33 g/m*3 26.6 C 8.1 km/h
3028 30-07-2019 12:15:00 26.8 C 11.71 g/m*3 26.8 C 11.3 km/h
3029 30-07-2019 12:20:00 26.9 C 12.29 g/m*3 26.9 C 9.7 km/h
3030 30-07-2019 12:25:00 27.1 C 11.65 g/m*3 27.1 C 12.9 km/h
3031 30-07-2019 12:30:00 27.2 C 11.45 g/m*3 27.2 C 12.9 km/h
3032 30-07-2019 12:35:00 27.2 C 11.19 g/m*3 27.2 C 14.5 km/h
3033 30-07-2019 12:40:00 27.2 C 11.45 g/m*3 27.2 C 16.1 km/h
3034 30-07-2019 12:45:00 27.3 C 10.99 g/m*3 27.3 C 16.1 km/h
3035 30-07-2019 12:50:00 27.5 C 11.64 g/m*3 27.5 C 14.5 km/h
3036 30-07-2019 12:55:00 27.7 C 10.97 g/m*3 27.7 C 12.9 km/h
3037 30-07-2019 13:00:00 27.7 C 11.5 g/m*3 27.7 C 11.3 km/h
3038 30-07-2019 13:05:00 27.7 C 10.97 g/m*3 27.7 C 12.9 km/h
3039 30-07-2019 13:10:00 27.9 C 11.36 g/m*3 27.9 C 9.7 km/h
3040 30-07-2019 13:15:00 28.1 C 10.94 g/m*3 28.1 C 12.9 km/h
3041 30-07-2019 13:20:00 28.1 C 10.66 g/m*3 28.1 C 12.9 km/h
3042 30-07-2019 13:25:00 28.1 C 10.66 g/m*3 28.1 C 11.3 km/h
3043 30-07-2019 13:30:00 28.3 C 10.78 g/m*3 28.3 C 9.7 km/h
3044 30-07-2019 13:35:00 28.4 C 10.84 g/m*3 28.4 C 16.1 km/h
3045 30-07-2019 13:40:00 28.5 C 10.9 g/m*3 28.5 C 8.1 km/h
3046 30-07-2019 13:45:00 28.6 C 10.96 g/m*3 28.6 C 8.1 km/h
3047 30-07-2019 13:50:00 28.7 C 10.17 g/m*3 28.7 C 9.7 km/h
3048 30-07-2019 13:55:00 28.8 C 9.94 g/m*3 28.8 C 14.5 km/h
3049 30-07-2019 14:00:00 28.8 C 10.23 g/m*3 28.8 C 11.3 km/h
3050 30-07-2019 14:05:00 28.9 C 10.28 g/m*3 28.9 C 16.1 km/h
Sensor: Nr:Datum:Temp:Abs-Feuchte:Windchill:Wind:
Aussen-T/F 3051 30-07-2019 14:10:00 29.1 C 10.69 g/m*3 29.1 C 9.7 km/h
3052 30-07-2019 14:15:00 29.2 C 11.32 g/m*3 29.2 C 12.9 km/h
3053 30-07-2019 14:20:00 29.3 C 10.8 g/m*3 29.3 C 12.9 km/h
3054 30-07-2019 14:25:00 29.3 C 11.39 g/m*3 29.3 C 14.5 km/h
3055 30-07-2019 14:30:00 29.6 C 11.57 g/m*3 29.6 C 16.1 km/h
3056 30-07-2019 14:35:00 29.8 C 11.1 g/m*3 29.8 C 16.1 km/h
3057 30-07-2019 14:40:00 29.9 C 11.76 g/m*3 29.9 C 16.1 km/h
3058 30-07-2019 14:45:00 29.9 C 11.16 g/m*3 29.9 C 9.7 km/h
3059 30-07-2019 14:50:00 30 C 11.83 g/m*3 30 C 11.3 km/h
3060 30-07-2019 14:55:00 30.1 C 11.28 g/m*3 30.1 C 14.5 km/h
3061 30-07-2019 15:00:00 30.1 C 11.59 g/m*3 30.1 C 11.3 km/h
3062 30-07-2019 15:05:00 30.3 C 11.71 g/m*3 30.3 C 14.5 km/h
3063 30-07-2019 15:10:00 30.4 C 11.16 g/m*3 30.4 C 16.1 km/h
3064 30-07-2019 15:15:00 30.4 C 11.47 g/m*3 30.4 C 16.1 km/h
3065 30-07-2019 15:20:00 30.5 C 11.22 g/m*3 30.5 C 17.7 km/h
3066 30-07-2019 15:25:00 30.5 C 11.53 g/m*3 30.5 C 17.7 km/h
3067 30-07-2019 15:30:00 30.8 C 11.4 g/m*3 30.8 C 12.9 km/h
3068 30-07-2019 15:35:00 31 C 11.2 g/m*3 31 C 17.7 km/h
3069 30-07-2019 15:40:00 31.3 C 11.06 g/m*3 31.3 C 14.5 km/h
3070 30-07-2019 15:45:00 30.9 C 11.14 g/m*3 30.9 C 16.1 km/h
3071 30-07-2019 15:50:00 31 C 11.52 g/m*3 31 C 19.3 km/h
3072 30-07-2019 15:55:00 31.1 C 11.26 g/m*3 31.1 C 16.1 km/h
3073 30-07-2019 16:00:00 31.2 C 10.67 g/m*3 31.2 C 14.5 km/h
3074 30-07-2019 16:05:00 31.3 C 11.06 g/m*3 31.3 C 14.5 km/h
3075 30-07-2019 16:10:00 31.6 C 10.91 g/m*3 31.6 C 17.7 km/h
Sensor: Nr:Datum:Temp:Abs-Feuchte:Windchill:Wind:
Aussen-T/F 3076 30-07-2019 16:15:00 32 C 10.8 g/m*3 32 C 14.5 km/h
3077 30-07-2019 16:20:00 31.9 C 10.41 g/m*3 31.9 C 19.3 km/h
3078 30-07-2019 16:25:00 31.3 C 11.06 g/m*3 31.3 C 16.1 km/h
3079 30-07-2019 16:30:00 31.3 C 11.38 g/m*3 31.3 C 16.1 km/h
3080 30-07-2019 16:35:00 31.6 C 11.57 g/m*3 31.6 C 17.7 km/h
3081 30-07-2019 16:40:00 31.1 C 11.26 g/m*3 31.1 C 22.5 km/h
3082 30-07-2019 16:45:00 30.7 C 11.34 g/m*3 30.7 C 16.1 km/h
3083 30-07-2019 16:50:00 30.4 C 11.16 g/m*3 30.4 C 16.1 km/h
3084 30-07-2019 16:55:00 30.1 C 11.28 g/m*3 30.1 C 12.9 km/h
3085 30-07-2019 17:00:00 29.8 C 11.4 g/m*3 29.8 C 17.7 km/h
3086 30-07-2019 17:05:00 29.9 C 11.46 g/m*3 29.9 C 14.5 km/h
3087 30-07-2019 17:10:00 30.5 C 11.53 g/m*3 30.5 C 19.3 km/h
3088 30-07-2019 17:15:00 30.6 C 11.59 g/m*3 30.6 C 14.5 km/h
3089 30-07-2019 17:20:00 30.3 C 11.4 g/m*3 30.3 C 16.1 km/h
3090 30-07-2019 17:25:00 29.7 C 11.34 g/m*3 29.7 C 17.7 km/h
3091 30-07-2019 17:30:00 29.1 C 11.26 g/m*3 29.1 C 19.3 km/h
3092 30-07-2019 17:35:00 28.8 C 11.08 g/m*3 28.8 C 19.3 km/h
3093 30-07-2019 17:40:00 28.6 C 11.24 g/m*3 28.6 C 16.1 km/h
3094 30-07-2019 17:45:00 28.4 C 10.56 g/m*3 28.4 C 19.3 km/h
3095 30-07-2019 17:50:00 28.2 C 9.9 g/m*3 28.2 C 16.1 km/h
3096 30-07-2019 17:55:00 27.8 C 9.95 g/m*3 27.8 C 20.9 km/h
3097 30-07-2019 18:00:00 27.4 C 9.74 g/m*3 27.4 C 17.7 km/h
3098 30-07-2019 18:05:00 27.2 C 9.89 g/m*3 27.2 C 20.9 km/h
3099 30-07-2019 18:10:00 27.1 C 10.09 g/m*3 27.1 C 14.5 km/h
3100 30-07-2019 18:15:00 26.9 C 9.98 g/m*3 26.9 C 17.7 km/h
Sensor: Nr:Datum:Temp:Abs-Feuchte:Windchill:Wind:
Aussen-T/F 3101 30-07-2019 18:20:00 26.8 C 10.18 g/m*3 26.8 C 12.9 km/h
3102 30-07-2019 18:25:00 26.7 C 10.12 g/m*3 26.7 C 16.1 km/h
3103 30-07-2019 18:30:00 26.6 C 10.32 g/m*3 26.6 C 11.3 km/h
3104 30-07-2019 18:35:00 26.4 C 10.46 g/m*3 26.4 C 9.7 km/h
3105 30-07-2019 18:40:00 26.3 C 10.4 g/m*3 26.3 C 8.1 km/h
3106 30-07-2019 18:45:00 26.2 C 10.59 g/m*3 26.2 C 6.4 km/h
3107 30-07-2019 18:50:00 26 C 10.71 g/m*3 26 C 6.4 km/h
3108 30-07-2019 18:55:00 25.9 C 10.65 g/m*3 25.9 C 8.1 km/h
3109 30-07-2019 19:00:00 25.8 C 10.83 g/m*3 25.8 C 9.7 km/h
3110 30-07-2019 19:05:00 25.7 C 10.77 g/m*3 25.7 C 11.3 km/h
3111 30-07-2019 19:10:00 25.6 C 10.71 g/m*3 25.6 C 14.5 km/h
3112 30-07-2019 19:15:00 25.6 C 10.71 g/m*3 25.6 C 11.3 km/h
3113 30-07-2019 19:20:00 25.5 C 10.89 g/m*3 25.5 C 11.3 km/h
3114 30-07-2019 19:25:00 24.9 C 12.13 g/m*3 24.9 C 14.5 km/h
3115 30-07-2019 19:30:00 23.8 C 12.05 g/m*3 23.8 C 9.7 km/h
3116 30-07-2019 19:35:00 23.4 C 11.78 g/m*3 23.4 C 8.1 km/h
3117 30-07-2019 19:40:00 23.4 C 11.57 g/m*3 23.4 C 9.7 km/h
3118 30-07-2019 19:45:00 23.6 C 11.91 g/m*3 23.6 C 6.4 km/h
3119 30-07-2019 19:50:00 23.7 C 11.98 g/m*3 23.7 C 4.8 km/h
3120 30-07-2019 19:55:00 23.7 C 11.76 g/m*3 23.7 C 11.3 km/h
3121 30-07-2019 20:00:00 23.7 C 11.98 g/m*3 23.7 C 9.7 km/h
3122 30-07-2019 20:05:00 23.8 C 12.05 g/m*3 23.8 C 8.1 km/h
3123 30-07-2019 20:10:00 23.9 C 11.9 g/m*3 23.9 C 9.7 km/h
3124 30-07-2019 20:15:00 23.9 C 11.9 g/m*3 23.9 C 6.4 km/h
3125 30-07-2019 20:20:00 24 C 11.97 g/m*3 24 C 3.2 km/h
Sensor: Nr:Datum:Temp:Abs-Feuchte:Windchill:Wind:
Aussen-T/F 3126 30-07-2019 20:25:00 24 C 11.97 g/m*3 24 C 4.8 km/h
3127 30-07-2019 20:30:00 24.1 C 12.03 g/m*3 24.1 C 11.3 km/h
3128 30-07-2019 20:35:00 24.2 C 12.1 g/m*3 24.2 C 4.8 km/h
3129 30-07-2019 20:40:00 24.3 C 12.17 g/m*3 24.3 C 4.8 km/h
3130 30-07-2019 20:45:00 24.4 C 12.24 g/m*3 24.4 C 6.4 km/h
3131 30-07-2019 20:50:00 24.4 C 12.24 g/m*3 24.4 C 4.8 km/h
3132 30-07-2019 20:55:00 24.4 C 12.24 g/m*3 24.4 C 0 km/h
3133 30-07-2019 21:00:00 24.3 C 12.17 g/m*3 24.3 C 0 km/h
3134 30-07-2019 21:05:00 24.3 C 11.95 g/m*3 24.3 C 0 km/h
3135 30-07-2019 21:10:00 24.2 C 11.88 g/m*3 24.2 C 0 km/h
3136 30-07-2019 21:15:00 24.1 C 12.03 g/m*3 24.1 C 0 km/h
3137 30-07-2019 21:20:00 23.9 C 12.11 g/m*3 23.9 C 0 km/h
3138 30-07-2019 21:25:00 23.8 C 12.26 g/m*3 23.8 C 0 km/h
3139 30-07-2019 21:30:00 23.6 C 12.12 g/m*3 23.6 C 0 km/h
3140 30-07-2019 21:35:00 23.4 C 12.2 g/m*3 23.4 C 0 km/h
3141 30-07-2019 21:40:00 23.3 C 12.13 g/m*3 23.3 C 0 km/h
3142 30-07-2019 21:45:00 23.2 C 12.27 g/m*3 23.2 C 0 km/h
3143 30-07-2019 21:50:00 23.1 C 12.2 g/m*3 23.1 C 0 km/h
3144 30-07-2019 21:55:00 22.9 C 12.06 g/m*3 22.9 C 0 km/h
3145 30-07-2019 22:00:00 22.7 C 12.12 g/m*3 22.7 C 0 km/h
3146 30-07-2019 22:05:00 22.6 C 12.05 g/m*3 22.6 C 0 km/h
3147 30-07-2019 22:10:00 22.5 C 12.18 g/m*3 22.5 C 0 km/h
3148 30-07-2019 22:15:00 22.4 C 12.31 g/m*3 22.4 C 0 km/h
3149 30-07-2019 22:20:00 22.3 C 12.24 g/m*3 22.3 C 0 km/h
3150 30-07-2019 22:25:00 22.2 C 12.37 g/m*3 22.2 C 0 km/h
Sensor: Nr:Datum:Temp:Abs-Feuchte:Windchill:Wind:
Aussen-T/F 3151 30-07-2019 22:30:00 22.1 C 12.3 g/m*3 22.1 C 0 km/h
3152 30-07-2019 22:35:00 22.1 C 12.3 g/m*3 22.1 C 0 km/h
3153 30-07-2019 22:40:00 22 C 12.23 g/m*3 22 C 0 km/h
3154 30-07-2019 22:45:00 21.9 C 12.35 g/m*3 21.9 C 0 km/h
3155 30-07-2019 22:50:00 21.9 C 12.74 g/m*3 21.9 C 0 km/h
3156 30-07-2019 22:55:00 21.8 C 12.66 g/m*3 21.8 C 0 km/h
3157 30-07-2019 23:00:00 21.7 C 12.59 g/m*3 21.7 C 0 km/h
3158 30-07-2019 23:05:00 21.6 C 12.52 g/m*3 21.6 C 0 km/h
3159 30-07-2019 23:10:00 21.5 C 12.63 g/m*3 21.5 C 0 km/h
3160 30-07-2019 23:15:00 21.4 C 12.56 g/m*3 21.4 C 0 km/h
3161 30-07-2019 23:20:00 21.3 C 12.68 g/m*3 21.3 C 0 km/h
3162 30-07-2019 23:25:00 21.2 C 12.79 g/m*3 21.2 C 0 km/h
3163 30-07-2019 23:30:00 21.1 C 12.71 g/m*3 21.1 C 0 km/h
3164 30-07-2019 23:35:00 21 C 12.64 g/m*3 21 C 0 km/h
3165 30-07-2019 23:40:00 20.9 C 12.38 g/m*3 20.9 C 0 km/h
3166 30-07-2019 23:45:00 20.8 C 12.49 g/m*3 20.8 C 0 km/h
3167 30-07-2019 23:50:00 20.8 C 12.49 g/m*3 20.8 C 0 km/h
3168 30-07-2019 23:55:00 20.8 C 12.49 g/m*3 20.8 C 0 km/h
3169 31-07-2019 00:00:00 20.7 C 12.42 g/m*3 20.7 C 0 km/h
3170 31-07-2019 00:05:00 20.7 C 12.42 g/m*3 20.7 C 0 km/h
3171 31-07-2019 00:10:00 20.7 C 12.42 g/m*3 20.7 C 0 km/h
3172 31-07-2019 00:15:00 20.6 C 12.35 g/m*3 20.6 C 0 km/h
3173 31-07-2019 00:20:00 20.6 C 12.53 g/m*3 20.6 C 0 km/h
3174 31-07-2019 00:25:00 20.6 C 12.53 g/m*3 20.6 C 0 km/h
3175 31-07-2019 00:30:00 20.6 C 12.35 g/m*3 20.6 C 0 km/h
Sensor: Nr:Datum:Temp:Abs-Feuchte:Windchill:Wind:
Aussen-T/F 3176 31-07-2019 00:35:00 20.5 C 12.46 g/m*3 20.5 C 0 km/h
3177 31-07-2019 00:40:00 20.4 C 12.38 g/m*3 20.4 C 0 km/h
3178 31-07-2019 00:45:00 20.4 C 12.56 g/m*3 20.4 C 0 km/h
3179 31-07-2019 00:50:00 20.4 C 12.56 g/m*3 20.4 C 0 km/h
3180 31-07-2019 00:55:00 20.4 C 12.56 g/m*3 20.4 C 0 km/h
3181 31-07-2019 01:00:00 20.3 C 12.49 g/m*3 20.3 C 0 km/h
3182 31-07-2019 01:05:00 20.3 C 12.49 g/m*3 20.3 C 0 km/h
3183 31-07-2019 01:10:00 20.3 C 12.49 g/m*3 20.3 C 0 km/h
3184 31-07-2019 01:15:00 20.3 C 12.49 g/m*3 20.3 C 0 km/h
3185 31-07-2019 01:20:00 20.3 C 12.49 g/m*3 20.3 C 0 km/h
3186 31-07-2019 01:25:00 20.3 C 12.49 g/m*3 20.3 C 0 km/h
3187 31-07-2019 01:30:00 20.3 C 12.49 g/m*3 20.3 C 0 km/h
3188 31-07-2019 01:35:00 20.3 C 12.49 g/m*3 20.3 C 6.4 km/h
3189 31-07-2019 01:40:00 20.4 C 12.56 g/m*3 20.4 C 6.4 km/h
3190 31-07-2019 01:45:00 20.4 C 12.56 g/m*3 20.4 C 0 km/h
3191 31-07-2019 01:50:00 20.4 C 12.56 g/m*3 20.4 C 0 km/h
3192 31-07-2019 01:55:00 20.3 C 12.49 g/m*3 20.3 C 0 km/h
3193 31-07-2019 02:00:00 20.2 C 12.41 g/m*3 20.2 C 0 km/h
3194 31-07-2019 02:05:00 20.1 C 12.34 g/m*3 20.1 C 0 km/h
3195 31-07-2019 02:10:00 19.9 C 12.2 g/m*3 19.9 C 0 km/h
3196 31-07-2019 02:15:00 19.8 C 12.13 g/m*3 19.8 C 0 km/h
3197 31-07-2019 02:20:00 19.8 C 12.3 g/m*3 19.8 C 0 km/h
3198 31-07-2019 02:25:00 19.7 C 12.23 g/m*3 19.7 C 0 km/h
3199 31-07-2019 02:30:00 19.7 C 12.23 g/m*3 19.7 C 0 km/h
3200 31-07-2019 02:35:00 19.6 C 12.15 g/m*3 19.6 C 0 km/h
Sensor: Nr:Datum:Temp:Abs-Feuchte:Windchill:Wind:
Aussen-T/F 3201 31-07-2019 02:40:00 19.6 C 12.15 g/m*3 19.6 C 0 km/h
3202 31-07-2019 02:45:00 19.4 C 12.01 g/m*3 19.4 C 0 km/h
3203 31-07-2019 02:50:00 19.4 C 12.01 g/m*3 19.4 C 0 km/h
3204 31-07-2019 02:55:00 19.3 C 11.94 g/m*3 19.3 C 0 km/h
3205 31-07-2019 03:00:00 19.2 C 11.87 g/m*3 19.2 C 0 km/h
3206 31-07-2019 03:05:00 19.1 C 11.97 g/m*3 19.1 C 0 km/h
3207 31-07-2019 03:10:00 18.9 C 11.83 g/m*3 18.9 C 0 km/h
3208 31-07-2019 03:15:00 18.8 C 11.92 g/m*3 18.8 C 0 km/h
3209 31-07-201